Darstellungsparameter: Aktuell verwendete Einstellungen:
Skalierung der Graphiken ... ?
xyx+y,   Skalierungsfaktor:      Skalierung: Modus: x, Faktor: 1
Darstellungszeitraum ... ?
Vom - - bis: - -   Zeitraum: 25.06.2011 - 24.09.2011
Min/Max/Avg-Anzeige ... ?
Zeige MMA aktuell
Zeige MMA Monat
Zeige MMA alles
Zeige --A aktuell
Zeige --A Monat
Zeige --A alles
Keine MMA-Anzeige
MMA:
Average (ber die Originaldaten)
MMA-Basis: 25.06.2011 - 24.09.2011
Quicknavigation für Darstellung... ?
Tage:      1T, 2T, 3T, 5T -1T -2T -3T -5T +1T +2T +3T +5T
Wochen: 1W, 2W, 3W -1W -2W -3W +1W +2W +3W
Monate: 1M, 3M, 6M -1M -3M -6M +1M +3M +6M
Jahre:    1J, 3J, 5J, 10J -1J -3J -5J -10J +1J +3J +5J +10J
Nutze für die Darstellung ... ?
Originaldaten oder Mittelwerte auf ...
Stundenbasis Tagesbasis Wochenbasis
Monatsbasis Jahresbasis      Datenbasis: Original-Daten
Darstellen als:
Statistik (Auto) Statistik J:M      Darstellung:
Zur Graphik,    zurück zur Übersicht aller Sensoren.
 
Tabellarische Datenbersicht: ?
 
Sensor: Nr:Datum:Temp:Abs-Feuchte:Windchill:Wind:
Aussen-T/F 1 25-06-2011 00:05:15 11 C 8.31 g/m*3 11 C 0 km/h
2 25-06-2011 00:17:15 11.1 C 8.36 g/m*3 11.1 C 0 km/h
3 25-06-2011 00:29:15 11.1 C 8.36 g/m*3 11.1 C 0 km/h
4 25-06-2011 00:41:15 11.2 C 8.31 g/m*3 11.2 C 0 km/h
5 25-06-2011 00:53:15 11.3 C 8.36 g/m*3 11.3 C 0 km/h
6 25-06-2011 01:05:15 11.2 C 8.31 g/m*3 11.2 C 0 km/h
7 25-06-2011 01:17:15 11 C 8.21 g/m*3 11 C 0 km/h
8 25-06-2011 01:29:15 10.9 C 8.26 g/m*3 10.9 C 0 km/h
9 25-06-2011 01:41:15 11 C 8.31 g/m*3 11 C 0 km/h
10 25-06-2011 01:53:15 11 C 8.41 g/m*3 11 C 0 km/h
11 25-06-2011 02:05:15 11 C 8.41 g/m*3 11 C 0 km/h
12 25-06-2011 02:17:15 11 C 8.41 g/m*3 11 C 0 km/h
13 25-06-2011 02:29:15 10.9 C 8.36 g/m*3 10.9 C 0 km/h
14 25-06-2011 02:41:15 10.9 C 8.36 g/m*3 10.9 C 0 km/h
15 25-06-2011 02:53:15 10.9 C 8.36 g/m*3 10.9 C 0 km/h
16 25-06-2011 03:05:15 11.2 C 8.51 g/m*3 11.2 C 0 km/h
17 25-06-2011 03:17:15 11.1 C 8.46 g/m*3 11.1 C 0 km/h
18 25-06-2011 03:29:16 11.1 C 8.46 g/m*3 11.1 C 0 km/h
19 25-06-2011 03:41:16 11.2 C 8.51 g/m*3 11.2 C 0 km/h
20 25-06-2011 03:53:16 11.1 C 8.46 g/m*3 11.1 C 0 km/h
21 25-06-2011 04:05:16 11.1 C 8.36 g/m*3 11.1 C 0 km/h
22 25-06-2011 04:17:16 11 C 8.41 g/m*3 11 C 0 km/h
23 25-06-2011 04:29:16 10.9 C 8.36 g/m*3 10.9 C 0 km/h
24 25-06-2011 04:41:16 11 C 8.41 g/m*3 11 C 0 km/h
25 25-06-2011 04:53:16 10.7 C 8.35 g/m*3 10.7 C 0 km/h
Sensor: Nr:Datum:Temp:Abs-Feuchte:Windchill:Wind:
Aussen-T/F 26 25-06-2011 05:05:16 10.4 C 8.19 g/m*3 10.4 C 0 km/h
27 25-06-2011 05:17:16 10.5 C 8.24 g/m*3 10.5 C 0 km/h
28 25-06-2011 05:29:16 10.4 C 8.29 g/m*3 10.4 C 0 km/h
29 25-06-2011 05:41:16 10.3 C 8.24 g/m*3 10.3 C 0 km/h
30 25-06-2011 05:53:16 10.4 C 8.29 g/m*3 10.4 C 0 km/h
31 25-06-2011 06:05:16 10.4 C 8.29 g/m*3 10.4 C 0 km/h
32 25-06-2011 06:17:16 11 C 8.61 g/m*3 11 C 0 km/h
33 25-06-2011 06:29:16 11.3 C 8.67 g/m*3 11.3 C 0 km/h
34 25-06-2011 06:41:16 11.7 C 8.68 g/m*3 11.7 C 0 km/h
35 25-06-2011 06:53:16 12 C 8.53 g/m*3 12 C 0 km/h
36 25-06-2011 07:05:16 12.3 C 8.47 g/m*3 12.3 C 0 km/h
37 25-06-2011 07:17:16 12.4 C 8.41 g/m*3 12.4 C 0 km/h
38 25-06-2011 07:29:17 12.6 C 8.52 g/m*3 12.6 C 0 km/h
39 25-06-2011 07:41:17 12.9 C 8.57 g/m*3 12.9 C 0 km/h
40 25-06-2011 07:53:17 13.1 C 8.33 g/m*3 13.1 C 0 km/h
41 25-06-2011 08:05:17 13.4 C 8.37 g/m*3 13.4 C 0 km/h
42 25-06-2011 08:17:17 13.8 C 8.46 g/m*3 13.8 C 0 km/h
43 25-06-2011 08:29:17 14.5 C 8.33 g/m*3 14.5 C 0 km/h
44 25-06-2011 08:41:17 14.4 C 8.03 g/m*3 14.4 C 0 km/h
45 25-06-2011 08:53:17 14.3 C 7.99 g/m*3 14.3 C 0 km/h
46 25-06-2011 09:05:17 14.3 C 7.86 g/m*3 14.3 C 0 km/h
47 25-06-2011 09:17:17 14.3 C 7.86 g/m*3 14.3 C 0 km/h
48 25-06-2011 09:29:17 13.8 C 7.98 g/m*3 13.8 C 0 km/h
49 25-06-2011 09:41:17 13.9 C 8.27 g/m*3 13.9 C 0 km/h
50 25-06-2011 09:53:17 13.6 C 8.59 g/m*3 13.6 C 0 km/h
Sensor: Nr:Datum:Temp:Abs-Feuchte:Windchill:Wind:
Aussen-T/F 51 25-06-2011 10:05:17 13.5 C 8.77 g/m*3 13.5 C 0 km/h
52 25-06-2011 10:17:17 13.4 C 8.83 g/m*3 13.4 C 0 km/h
53 25-06-2011 10:29:17 13.1 C 8.56 g/m*3 13.1 C 0 km/h
54 25-06-2011 10:41:17 12.6 C 7.97 g/m*3 12.6 C 0 km/h
55 25-06-2011 10:53:17 12.9 C 8.23 g/m*3 12.9 C 0 km/h
56 25-06-2011 11:05:17 12.8 C 8.18 g/m*3 12.8 C 0 km/h
57 25-06-2011 11:17:17 12.8 C 8.29 g/m*3 12.8 C 0 km/h
58 25-06-2011 11:29:18 12.8 C 8.51 g/m*3 12.8 C 0 km/h
59 25-06-2011 11:41:18 12.6 C 8.19 g/m*3 12.6 C 0 km/h
60 25-06-2011 11:53:18 13 C 8.39 g/m*3 13 C 0 km/h
61 25-06-2011 12:05:18 13.4 C 8.6 g/m*3 13.4 C 0 km/h
62 25-06-2011 12:17:18 14.4 C 8.65 g/m*3 14.4 C 0 km/h
63 25-06-2011 12:29:18 15.5 C 8.72 g/m*3 15.5 C 0 km/h
64 25-06-2011 12:41:18 15.3 C 8.1 g/m*3 15.3 C 0 km/h
65 25-06-2011 12:53:18 15.1 C 8.39 g/m*3 15.1 C 0 km/h
66 25-06-2011 13:05:18 15.5 C 8.59 g/m*3 15.5 C 0 km/h
67 25-06-2011 13:17:18 15 C 8.46 g/m*3 15 C 0 km/h
68 25-06-2011 13:29:18 14.6 C 8.26 g/m*3 14.6 C 0 km/h
69 25-06-2011 13:41:18 15.3 C 8.36 g/m*3 15.3 C 0 km/h
70 25-06-2011 13:53:18 15.7 C 8.43 g/m*3 15.7 C 0 km/h
71 25-06-2011 14:05:18 14.6 C 8.63 g/m*3 14.6 C 0 km/h
72 25-06-2011 14:17:18 14.9 C 8.92 g/m*3 14.9 C 0 km/h
73 25-06-2011 14:29:18 14.5 C 8.58 g/m*3 14.5 C 0 km/h
74 25-06-2011 14:41:18 14.2 C 8.55 g/m*3 14.2 C 0 km/h
75 25-06-2011 14:53:18 14.1 C 8.74 g/m*3 14.1 C 0 km/h
Sensor: Nr:Datum:Temp:Abs-Feuchte:Windchill:Wind:
Aussen-T/F 76 25-06-2011 15:05:18 14 C 8.68 g/m*3 14 C 0 km/h
77 25-06-2011 15:17:18 14.3 C 9.09 g/m*3 14.3 C 0 km/h
78 25-06-2011 15:29:19 14.2 C 9.16 g/m*3 14.2 C 0 km/h
79 25-06-2011 15:41:19 14.4 C 9.39 g/m*3 14.4 C 0 km/h
80 25-06-2011 15:53:19 14.3 C 9.58 g/m*3 14.3 C 0 km/h
81 25-06-2011 16:05:19 14.4 C 9.77 g/m*3 14.4 C 0 km/h
82 25-06-2011 16:17:19 14.2 C 9.77 g/m*3 14.2 C 0 km/h
83 25-06-2011 16:29:19 14.5 C 10.07 g/m*3 14.5 C 0 km/h
84 25-06-2011 16:41:19 14.8 C 10.13 g/m*3 14.8 C 0 km/h
85 25-06-2011 16:53:19 14.8 C 10.01 g/m*3 14.8 C 0 km/h
86 25-06-2011 17:05:19 14.8 C 10.01 g/m*3 14.8 C 0 km/h
87 25-06-2011 17:17:19 14.8 C 10.01 g/m*3 14.8 C 0 km/h
88 25-06-2011 17:29:19 15.4 C 10.38 g/m*3 15.4 C 0 km/h
89 25-06-2011 17:41:19 15.5 C 10.18 g/m*3 15.5 C 0 km/h
90 25-06-2011 17:53:19 15.7 C 10.3 g/m*3 15.7 C 0 km/h
91 25-06-2011 18:05:19 15.6 C 10.24 g/m*3 15.6 C 0 km/h
92 25-06-2011 18:17:19 15.4 C 10.12 g/m*3 15.4 C 0 km/h
93 25-06-2011 18:29:19 15.2 C 10.12 g/m*3 15.2 C 0 km/h
94 25-06-2011 18:41:19 15.1 C 10.06 g/m*3 15.1 C 0 km/h
95 25-06-2011 18:53:19 15 C 10.13 g/m*3 15 C 0 km/h
96 25-06-2011 19:05:19 15 C 10.26 g/m*3 15 C 0 km/h
97 25-06-2011 19:17:19 15 C 10.26 g/m*3 15 C 0 km/h
98 25-06-2011 19:29:20 15 C 10.26 g/m*3 15 C 0 km/h
99 25-06-2011 19:41:20 15 C 10.26 g/m*3 15 C 0 km/h
100 25-06-2011 19:53:20 15 C 10.26 g/m*3 15 C 0 km/h
Sensor: Nr:Datum:Temp:Abs-Feuchte:Windchill:Wind:
Aussen-T/F 101 25-06-2011 20:05:20 15 C 10.26 g/m*3 15 C 0 km/h
102 25-06-2011 20:17:20 15 C 10.26 g/m*3 15 C 0 km/h
103 25-06-2011 20:29:20 15 C 10.26 g/m*3 15 C 0 km/h
104 25-06-2011 20:41:20 15 C 10.26 g/m*3 15 C 0 km/h
105 25-06-2011 20:53:20 15 C 10.26 g/m*3 15 C 0 km/h
106 25-06-2011 21:05:20 15 C 10.26 g/m*3 15 C 0 km/h
107 25-06-2011 21:17:20 15 C 10.26 g/m*3 15 C 0 km/h
108 25-06-2011 21:29:20 15 C 10.26 g/m*3 15 C 0 km/h
109 25-06-2011 21:41:20 15 C 10.26 g/m*3 15 C 0 km/h
110 25-06-2011 21:53:20 15 C 10.26 g/m*3 15 C 0 km/h
111 25-06-2011 22:05:20 15 C 10.26 g/m*3 15 C 0 km/h
112 25-06-2011 22:17:20 15 C 10.26 g/m*3 15 C 0 km/h
113 25-06-2011 22:29:20 15 C 10.26 g/m*3 15 C 0 km/h
114 25-06-2011 22:41:20 15 C 10.26 g/m*3 15 C 0 km/h
115 25-06-2011 22:53:20 15 C 10.26 g/m*3 15 C 0 km/h
116 25-06-2011 23:05:20 15 C 10.26 g/m*3 15 C 0 km/h
117 25-06-2011 23:17:20 15 C 10.26 g/m*3 15 C 0 km/h
118 25-06-2011 23:29:21 15 C 10.26 g/m*3 15 C 0 km/h
119 25-06-2011 23:41:21 15 C 10.26 g/m*3 15 C 0 km/h
120 25-06-2011 23:53:21 15 C 10.26 g/m*3 15 C 0 km/h
121 26-06-2011 00:05:21 15 C 10.26 g/m*3 15 C 0 km/h
122 26-06-2011 00:17:21 15 C 10.26 g/m*3 15 C 0 km/h
123 26-06-2011 00:29:21 15 C 10.26 g/m*3 15 C 0 km/h
124 26-06-2011 00:41:21 15 C 10.26 g/m*3 15 C 0 km/h
125 26-06-2011 00:53:21 15 C 10.26 g/m*3 15 C 0 km/h
Sensor: Nr:Datum:Temp:Abs-Feuchte:Windchill:Wind:
Aussen-T/F 126 26-06-2011 01:05:21 15 C 10.26 g/m*3 15 C 0 km/h
127 26-06-2011 01:17:21 15 C 10.26 g/m*3 15 C 0 km/h
128 26-06-2011 01:29:21 15 C 10.26 g/m*3 15 C 0 km/h
129 26-06-2011 01:41:21 15 C 10.26 g/m*3 15 C 0 km/h
130 26-06-2011 01:53:21 15 C 10.26 g/m*3 15 C 0 km/h
131 26-06-2011 02:05:21 15 C 10.26 g/m*3 15 C 0 km/h
132 26-06-2011 02:17:21 15 C 10.26 g/m*3 15 C 0 km/h
133 26-06-2011 02:29:21 15 C 10.26 g/m*3 15 C 0 km/h
134 26-06-2011 02:41:21 15 C 10.26 g/m*3 15 C 0 km/h
135 26-06-2011 02:53:21 15 C 10.26 g/m*3 15 C 0 km/h
136 26-06-2011 03:05:21 15 C 10.26 g/m*3 15 C 0 km/h
137 26-06-2011 03:17:21 15 C 10.26 g/m*3 15 C 0 km/h
138 26-06-2011 03:29:22 15 C 10.26 g/m*3 15 C 0 km/h
139 26-06-2011 03:41:22 15 C 10.26 g/m*3 15 C 0 km/h
140 26-06-2011 03:53:22 15 C 10.26 g/m*3 15 C 0 km/h
141 26-06-2011 04:05:22 15 C 10.26 g/m*3 15 C 0 km/h
142 26-06-2011 04:17:22 15 C 10.26 g/m*3 15 C 0 km/h
143 26-06-2011 04:29:22 15 C 10.26 g/m*3 15 C 0 km/h
144 26-06-2011 04:41:22 15 C 10.26 g/m*3 15 C 0 km/h
145 26-06-2011 04:53:22 15 C 10.26 g/m*3 15 C 0 km/h
146 26-06-2011 05:05:22 15 C 10.26 g/m*3 15 C 0 km/h
147 26-06-2011 05:17:22 15 C 10.26 g/m*3 15 C 0 km/h
148 26-06-2011 05:29:22 15 C 10.26 g/m*3 15 C 0 km/h
149 26-06-2011 05:41:22 15 C 10.26 g/m*3 15 C 0 km/h
150 26-06-2011 05:53:22 15 C 10.26 g/m*3 15 C 0 km/h
Sensor: Nr:Datum:Temp:Abs-Feuchte:Windchill:Wind:
Aussen-T/F 151 26-06-2011 06:05:22 15 C 10.26 g/m*3 15 C 0 km/h
152 26-06-2011 06:17:22 15 C 10.26 g/m*3 15 C 0 km/h
153 26-06-2011 06:29:22 15 C 10.26 g/m*3 15 C 0 km/h
154 26-06-2011 06:41:22 15 C 10.26 g/m*3 15 C 0 km/h
155 26-06-2011 06:53:22 15 C 10.26 g/m*3 15 C 0 km/h
156 26-06-2011 07:05:22 15 C 10.26 g/m*3 15 C 0 km/h
157 26-06-2011 07:17:22 15 C 10.26 g/m*3 15 C 0 km/h
158 26-06-2011 07:29:22 15 C 10.26 g/m*3 15 C 0 km/h
159 26-06-2011 07:41:23 15 C 10.26 g/m*3 15 C 0 km/h
160 26-06-2011 07:53:23 15 C 10.26 g/m*3 15 C 0 km/h
161 26-06-2011 08:05:23 15 C 10.26 g/m*3 15 C 0 km/h
162 26-06-2011 08:17:23 15 C 10.26 g/m*3 15 C 0 km/h
163 26-06-2011 08:29:23 15 C 10.26 g/m*3 15 C 0 km/h
164 26-06-2011 08:41:23 15 C 10.26 g/m*3 15 C 0 km/h
165 26-06-2011 08:53:23 15 C 10.26 g/m*3 15 C 0 km/h
166 26-06-2011 09:05:23 15 C 10.26 g/m*3 15 C 0 km/h
167 26-06-2011 09:17:23 15 C 10.26 g/m*3 15 C 0 km/h
168 26-06-2011 09:29:23 15 C 10.26 g/m*3 15 C 0 km/h
169 26-06-2011 09:41:23 15 C 10.26 g/m*3 15 C 0 km/h
170 26-06-2011 09:53:23 15 C 10.26 g/m*3 15 C 0 km/h
171 26-06-2011 10:05:23 15 C 10.26 g/m*3 15 C 0 km/h
172 26-06-2011 10:17:23 15 C 10.26 g/m*3 15 C 0 km/h
173 26-06-2011 10:29:23 15 C 10.26 g/m*3 15 C 0 km/h
174 26-06-2011 10:41:23 15 C 10.26 g/m*3 15 C 0 km/h
175 26-06-2011 10:53:23 15 C 10.26 g/m*3 15 C 0 km/h
Sensor: Nr:Datum:Temp:Abs-Feuchte:Windchill:Wind:
Aussen-T/F 176 26-06-2011 11:05:23 15 C 10.26 g/m*3 15 C 0 km/h
177 26-06-2011 11:17:23 15 C 10.26 g/m*3 15 C 0 km/h
178 26-06-2011 11:29:24 15 C 10.26 g/m*3 15 C 0 km/h
179 26-06-2011 11:41:24 15 C 10.26 g/m*3 15 C 0 km/h
180 26-06-2011 11:53:24 15 C 10.26 g/m*3 15 C 0 km/h
181 26-06-2011 12:05:24 15 C 10.26 g/m*3 15 C 0 km/h
182 26-06-2011 12:17:24 15 C 10.26 g/m*3 15 C 0 km/h
183 26-06-2011 12:29:24 15 C 10.26 g/m*3 15 C 0 km/h
184 26-06-2011 12:41:24 15 C 10.26 g/m*3 15 C 0 km/h
185 26-06-2011 12:53:24 15 C 10.26 g/m*3 15 C 0 km/h
186 26-06-2011 13:05:24 15 C 10.26 g/m*3 15 C 0 km/h
187 26-06-2011 13:17:24 15 C 10.26 g/m*3 15 C 0 km/h
188 26-06-2011 13:29:24 15 C 10.26 g/m*3 15 C 0 km/h
189 26-06-2011 13:41:24 15 C 10.26 g/m*3 15 C 0 km/h
190 26-06-2011 13:53:24 15 C 10.26 g/m*3 15 C 0 km/h
191 26-06-2011 14:05:24 15 C 10.26 g/m*3 15 C 0 km/h
192 26-06-2011 14:17:24 15 C 10.26 g/m*3 15 C 0 km/h
193 26-06-2011 14:29:24 15 C 10.26 g/m*3 15 C 0 km/h
194 26-06-2011 14:41:24 15 C 10.26 g/m*3 15 C 0 km/h
195 26-06-2011 14:53:24 15 C 10.26 g/m*3 15 C 0 km/h
196 26-06-2011 15:05:24 15 C 10.26 g/m*3 15 C 0 km/h
197 26-06-2011 15:17:24 15 C 10.26 g/m*3 15 C 0 km/h
198 26-06-2011 15:29:25 15 C 10.26 g/m*3 15 C 0 km/h
199 26-06-2011 15:41:25 15 C 10.26 g/m*3 15 C 0 km/h
200 26-06-2011 15:53:25 15 C 10.26 g/m*3 15 C 0 km/h
Sensor: Nr:Datum:Temp:Abs-Feuchte:Windchill:Wind:
Aussen-T/F 201 26-06-2011 16:05:25 15 C 10.26 g/m*3 15 C 0 km/h
202 26-06-2011 16:17:25 15 C 10.26 g/m*3 15 C 0 km/h
203 26-06-2011 16:29:25 15 C 10.26 g/m*3 15 C 0 km/h
204 26-06-2011 16:41:25 15 C 10.26 g/m*3 15 C 0 km/h
205 26-06-2011 16:53:25 15 C 10.26 g/m*3 15 C 0 km/h
206 26-06-2011 17:05:25 15 C 10.26 g/m*3 15 C 0 km/h
207 26-06-2011 17:17:25 15 C 10.26 g/m*3 15 C 0 km/h
208 26-06-2011 17:29:25 15 C 10.26 g/m*3 15 C 0 km/h
209 26-06-2011 17:41:25 15 C 10.26 g/m*3 15 C 0 km/h
210 26-06-2011 17:53:25 15 C 10.26 g/m*3 15 C 0 km/h
211 26-06-2011 18:05:25 15 C 10.26 g/m*3 15 C 0 km/h
212 26-06-2011 18:17:25 15 C 10.26 g/m*3 15 C 0 km/h
213 26-06-2011 18:29:25 15 C 10.26 g/m*3 15 C 0 km/h
214 26-06-2011 18:41:25 15 C 10.26 g/m*3 15 C 0 km/h
215 26-06-2011 18:53:25 15 C 10.26 g/m*3 15 C 0 km/h
216 26-06-2011 19:05:25 15 C 10.26 g/m*3 15 C 0 km/h
217 26-06-2011 19:17:25 15 C 10.26 g/m*3 15 C 0 km/h
218 26-06-2011 19:29:26 15 C 10.26 g/m*3 15 C 0 km/h
219 26-06-2011 19:41:26 15 C 10.26 g/m*3 15 C 0 km/h
220 26-06-2011 19:53:26 15 C 10.26 g/m*3 15 C 0 km/h
221 26-06-2011 20:05:26 15 C 10.26 g/m*3 15 C 0 km/h
222 26-06-2011 20:17:26 15 C 10.26 g/m*3 15 C 0 km/h
223 26-06-2011 20:29:26 15 C 10.26 g/m*3 15 C 0 km/h
224 26-06-2011 20:41:26 15 C 10.26 g/m*3 15 C 0 km/h
225 26-06-2011 20:53:26 15 C 10.26 g/m*3 15 C 0 km/h
Sensor: Nr:Datum:Temp:Abs-Feuchte:Windchill:Wind:
Aussen-T/F 226 26-06-2011 21:05:26 15 C 10.26 g/m*3 15 C 0 km/h
227 26-06-2011 21:17:26 15 C 10.26 g/m*3 15 C 0 km/h
228 26-06-2011 21:29:26 15 C 10.26 g/m*3 15 C 0 km/h
229 26-06-2011 21:41:26 15 C 10.26 g/m*3 15 C 0 km/h
230 26-06-2011 21:53:26 15 C 10.26 g/m*3 15 C 0 km/h
231 26-06-2011 22:05:26 15 C 10.26 g/m*3 15 C 0 km/h
232 26-06-2011 22:17:26 15 C 10.26 g/m*3 15 C 0 km/h
233 26-06-2011 22:29:26 15 C 10.26 g/m*3 15 C 0 km/h
234 26-06-2011 22:41:26 15 C 10.26 g/m*3 15 C 0 km/h
235 26-06-2011 22:53:26 15 C 10.26 g/m*3 15 C 0 km/h
236 26-06-2011 23:05:26 15 C 10.26 g/m*3 15 C 0 km/h
237 26-06-2011 23:17:26 15 C 10.26 g/m*3 15 C 0 km/h
238 26-06-2011 23:29:26 15 C 10.26 g/m*3 15 C 0 km/h
239 26-06-2011 23:41:27 15 C 10.26 g/m*3 15 C 0 km/h
240 26-06-2011 23:53:27 15 C 10.26 g/m*3 15 C 0 km/h
241 27-06-2011 00:05:27 15 C 10.26 g/m*3 15 C 0 km/h
242 27-06-2011 00:17:27 15 C 10.26 g/m*3 15 C 0 km/h
243 27-06-2011 00:29:27 15 C 10.26 g/m*3 15 C 0 km/h
244 27-06-2011 00:41:27 15 C 10.26 g/m*3 15 C 0 km/h
245 27-06-2011 00:53:27 15 C 10.26 g/m*3 15 C 0 km/h
246 27-06-2011 01:05:27 15 C 10.26 g/m*3 15 C 0 km/h
247 27-06-2011 01:17:27 15 C 10.26 g/m*3 15 C 0 km/h
248 27-06-2011 01:29:27 15 C 10.26 g/m*3 15 C 0 km/h
249 27-06-2011 01:41:27 15 C 10.26 g/m*3 15 C 0 km/h
250 27-06-2011 01:53:27 15 C 10.26 g/m*3 15 C 0 km/h
Sensor: Nr:Datum:Temp:Abs-Feuchte:Windchill:Wind:
Aussen-T/F 251 27-06-2011 02:05:27 15 C 10.26 g/m*3 15 C 0 km/h
252 27-06-2011 02:17:27 15 C 10.26 g/m*3 15 C 0 km/h
253 27-06-2011 02:29:27 15 C 10.26 g/m*3 15 C 0 km/h
254 27-06-2011 02:41:27 15 C 10.26 g/m*3 15 C 0 km/h
255 27-06-2011 02:53:27 15 C 10.26 g/m*3 15 C 0 km/h
256 27-06-2011 03:05:27 15 C 10.26 g/m*3 15 C 0 km/h
257 27-06-2011 03:17:27 15 C 10.26 g/m*3 15 C 0 km/h
258 27-06-2011 03:29:27 15 C 10.26 g/m*3 15 C 0 km/h
259 27-06-2011 03:41:28 15 C 10.26 g/m*3 15 C 0 km/h
260 27-06-2011 03:53:28 15 C 10.26 g/m*3 15 C 0 km/h
261 27-06-2011 04:05:28 15 C 10.26 g/m*3 15 C 0 km/h
262 27-06-2011 04:17:28 15 C 10.26 g/m*3 15 C 0 km/h
263 27-06-2011 04:29:28 15 C 10.26 g/m*3 15 C 0 km/h
264 27-06-2011 04:41:28 15 C 10.26 g/m*3 15 C 0 km/h
265 27-06-2011 04:53:28 15 C 10.26 g/m*3 15 C 0 km/h
266 27-06-2011 05:05:28 15 C 10.26 g/m*3 15 C 0 km/h
267 27-06-2011 05:17:28 15 C 10.26 g/m*3 15 C 0 km/h
268 27-06-2011 05:29:28 15 C 10.26 g/m*3 15 C 0 km/h
269 27-06-2011 05:41:28 15 C 10.26 g/m*3 15 C 0 km/h
270 27-06-2011 05:53:28 15 C 10.26 g/m*3 15 C 0 km/h
271 27-06-2011 06:05:28 15 C 10.26 g/m*3 15 C 0 km/h
272 27-06-2011 06:17:28 15 C 10.26 g/m*3 15 C 0 km/h
273 27-06-2011 06:29:28 15 C 10.26 g/m*3 15 C 0 km/h
274 27-06-2011 06:41:28 15 C 10.26 g/m*3 15 C 0 km/h
275 27-06-2011 06:53:28 15 C 10.26 g/m*3 15 C 0 km/h
Sensor: Nr:Datum:Temp:Abs-Feuchte:Windchill:Wind:
Aussen-T/F 276 27-06-2011 07:05:28 15 C 10.26 g/m*3 15 C 0 km/h
277 27-06-2011 07:17:28 15 C 10.26 g/m*3 15 C 0 km/h
278 27-06-2011 07:29:28 15 C 10.26 g/m*3 15 C 0 km/h
279 27-06-2011 07:41:29 15 C 10.26 g/m*3 15 C 0 km/h
280 27-06-2011 07:53:29 15 C 10.26 g/m*3 15 C 0 km/h
281 27-06-2011 08:05:29 15 C 10.26 g/m*3 15 C 0 km/h
282 27-06-2011 08:17:29 15 C 10.26 g/m*3 15 C 0 km/h
283 27-06-2011 08:29:29 15 C 10.26 g/m*3 15 C 0 km/h
284 27-06-2011 08:41:29 15 C 10.26 g/m*3 15 C 0 km/h
285 27-06-2011 08:53:29 15 C 10.26 g/m*3 15 C 0 km/h
286 27-06-2011 09:05:29 15 C 10.26 g/m*3 15 C 0 km/h
287 27-06-2011 09:17:29 15 C 10.26 g/m*3 15 C 0 km/h
288 27-06-2011 09:29:29 15 C 10.26 g/m*3 15 C 0 km/h
289 27-06-2011 09:41:29 15 C 10.26 g/m*3 15 C 0 km/h
290 27-06-2011 09:53:29 15 C 10.26 g/m*3 15 C 0 km/h
291 27-06-2011 10:05:29 15 C 10.26 g/m*3 15 C 0 km/h
292 27-06-2011 10:17:29 15 C 10.26 g/m*3 15 C 0 km/h
293 27-06-2011 10:29:29 15 C 10.26 g/m*3 15 C 0 km/h
294 27-06-2011 10:41:29 15 C 10.26 g/m*3 15 C 0 km/h
295 27-06-2011 10:53:29 15 C 10.26 g/m*3 15 C 0 km/h
296 27-06-2011 11:05:29 15 C 10.26 g/m*3 15 C 0 km/h
297 27-06-2011 11:17:29 15 C 10.26 g/m*3 15 C 0 km/h
298 27-06-2011 11:29:29 15 C 10.26 g/m*3 15 C 0 km/h
299 27-06-2011 11:41:30 15 C 10.26 g/m*3 15 C 0 km/h
300 27-06-2011 11:53:30 15 C 10.26 g/m*3 15 C 0 km/h
Sensor: Nr:Datum:Temp:Abs-Feuchte:Windchill:Wind:
Aussen-T/F 301 27-06-2011 12:05:30 15 C 10.26 g/m*3 15 C 0 km/h
302 27-06-2011 12:17:30 15 C 10.26 g/m*3 15 C 0 km/h
303 27-06-2011 12:29:30 15 C 10.26 g/m*3 15 C 0 km/h
304 27-06-2011 12:41:30 15 C 10.26 g/m*3 15 C 0 km/h
305 27-06-2011 12:53:30 15 C 10.26 g/m*3 15 C 0 km/h
306 27-06-2011 13:05:30 15 C 10.26 g/m*3 15 C 0 km/h
307 27-06-2011 13:17:30 15 C 10.26 g/m*3 15 C 0 km/h
308 27-06-2011 13:29:30 15 C 10.26 g/m*3 15 C 0 km/h
309 27-06-2011 13:41:30 15 C 10.26 g/m*3 15 C 0 km/h
310 27-06-2011 13:53:30 15 C 10.26 g/m*3 15 C 0 km/h
311 27-06-2011 14:05:30 15 C 10.26 g/m*3 15 C 0 km/h
312 27-06-2011 14:17:30 15 C 10.26 g/m*3 15 C 0 km/h
313 27-06-2011 14:29:30 15 C 10.26 g/m*3 15 C 0 km/h
314 27-06-2011 14:41:30 15 C 10.26 g/m*3 15 C 0 km/h
315 27-06-2011 14:53:30 15 C 10.26 g/m*3 15 C 0 km/h
316 27-06-2011 15:05:30 15 C 10.26 g/m*3 15 C 0 km/h
317 27-06-2011 15:17:30 15 C 10.26 g/m*3 15 C 0 km/h
318 27-06-2011 15:29:30 15 C 10.26 g/m*3 15 C 0 km/h
319 27-06-2011 15:41:31 15 C 10.26 g/m*3 15 C 0 km/h
320 27-06-2011 15:53:31 15 C 10.26 g/m*3 15 C 0 km/h
321 27-06-2011 16:05:31 15 C 10.26 g/m*3 15 C 0 km/h
322 27-06-2011 16:17:31 15 C 10.26 g/m*3 15 C 0 km/h
323 27-06-2011 16:29:31 15 C 10.26 g/m*3 15 C 0 km/h
324 27-06-2011 16:41:31 15 C 10.26 g/m*3 15 C 0 km/h
325 27-06-2011 16:53:31 15 C 10.26 g/m*3 15 C 0 km/h
Sensor: Nr:Datum:Temp:Abs-Feuchte:Windchill:Wind:
Aussen-T/F 326 27-06-2011 17:05:31 15 C 10.26 g/m*3 15 C 0 km/h
327 27-06-2011 17:17:31 15 C 10.26 g/m*3 15 C 0 km/h
328 27-06-2011 17:29:31 15 C 10.26 g/m*3 15 C 0 km/h
329 27-06-2011 17:41:31 15 C 10.26 g/m*3 15 C 0 km/h
330 27-06-2011 17:53:31 15 C 10.26 g/m*3 15 C 0 km/h
331 27-06-2011 18:05:31 15 C 10.26 g/m*3 15 C 0 km/h
332 27-06-2011 18:17:31 17 C 3.33 g/m*3 17 C 0 km/h
333 27-06-2011 18:29:31 31.3 C 11.06 g/m*3 31.3 C 0 km/h
334 27-06-2011 18:41:31 31.6 C 11.24 g/m*3 31.6 C 0 km/h
335 27-06-2011 18:53:31 32.5 C 8.67 g/m*3 32.5 C 0 km/h
336 27-06-2011 19:05:31 32.4 C 10.35 g/m*3 32.4 C 0 km/h
337 27-06-2011 19:17:31 32.3 C 9.95 g/m*3 32.3 C 0 km/h
338 27-06-2011 19:29:31 33 C 9.97 g/m*3 33 C 0 km/h
339 27-06-2011 19:41:32 32.5 C 10.05 g/m*3 32.5 C 0 km/h
340 27-06-2011 19:53:32 30.4 C 11.77 g/m*3 30.4 C 0 km/h
341 27-06-2011 20:05:32 29.3 C 12.55 g/m*3 29.3 C 0 km/h
342 27-06-2011 20:17:32 28.2 C 12.1 g/m*3 28.2 C 0 km/h
343 27-06-2011 20:29:32 27.3 C 12.56 g/m*3 27.3 C 0 km/h
344 27-06-2011 20:41:32 26.8 C 12.47 g/m*3 26.8 C 0 km/h
345 27-06-2011 20:53:32 25.9 C 12.35 g/m*3 25.9 C 0 km/h
346 27-06-2011 21:05:32 25.4 C 12.01 g/m*3 25.4 C 0 km/h
347 27-06-2011 21:17:32 24.8 C 12.29 g/m*3 24.8 C 0 km/h
348 27-06-2011 21:29:32 24.3 C 12.17 g/m*3 24.3 C 0 km/h
349 27-06-2011 21:41:32 23.9 C 12.55 g/m*3 23.9 C 0 km/h
350 27-06-2011 21:53:32 23.5 C 12.48 g/m*3 23.5 C 0 km/h
Sensor: Nr:Datum:Temp:Abs-Feuchte:Windchill:Wind:
Aussen-T/F 351 27-06-2011 22:05:32 23.1 C 12.61 g/m*3 23.1 C 0 km/h
352 27-06-2011 22:17:32 22.9 C 12.88 g/m*3 22.9 C 0 km/h
353 27-06-2011 22:29:32 22.6 C 12.86 g/m*3 22.6 C 0 km/h
354 27-06-2011 22:41:32 22.5 C 12.78 g/m*3 22.5 C 0 km/h
355 27-06-2011 22:53:32 22.1 C 12.49 g/m*3 22.1 C 0 km/h
356 27-06-2011 23:05:32 21.9 C 12.54 g/m*3 21.9 C 0 km/h
357 27-06-2011 23:17:32 21.8 C 12.47 g/m*3 21.8 C 0 km/h
358 27-06-2011 23:29:32 21.6 C 12.33 g/m*3 21.6 C 0 km/h
359 27-06-2011 23:41:33 21.5 C 12.07 g/m*3 21.5 C 0 km/h
360 27-06-2011 23:53:33 21.4 C 12 g/m*3 21.4 C 0 km/h
361 28-06-2011 00:05:33 21.3 C 11.93 g/m*3 21.3 C 0 km/h
362 28-06-2011 00:17:33 21 C 11.72 g/m*3 21 C 0 km/h
363 28-06-2011 00:29:33 20.7 C 11.7 g/m*3 20.7 C 0 km/h
364 28-06-2011 00:41:33 20.6 C 11.99 g/m*3 20.6 C 0 km/h
365 28-06-2011 00:53:33 20.4 C 11.85 g/m*3 20.4 C 0 km/h
366 28-06-2011 01:05:33 20.5 C 11.92 g/m*3 20.5 C 0 km/h
367 28-06-2011 01:17:33 20.3 C 11.61 g/m*3 20.3 C 0 km/h
368 28-06-2011 01:29:33 20.1 C 11.47 g/m*3 20.1 C 0 km/h
369 28-06-2011 01:41:33 19.6 C 11.82 g/m*3 19.6 C 0 km/h
370 28-06-2011 01:53:33 19.4 C 11.85 g/m*3 19.4 C 0 km/h
371 28-06-2011 02:05:33 19.5 C 11.92 g/m*3 19.5 C 0 km/h
372 28-06-2011 02:17:33 18.8 C 11.76 g/m*3 18.8 C 0 km/h
373 28-06-2011 02:29:33 18.6 C 11.78 g/m*3 18.6 C 0 km/h
374 28-06-2011 02:41:33 18.5 C 11.87 g/m*3 18.5 C 0 km/h
375 28-06-2011 02:53:33 18.2 C 11.5 g/m*3 18.2 C 0 km/h
Sensor: Nr:Datum:Temp:Abs-Feuchte:Windchill:Wind:
Aussen-T/F 376 28-06-2011 03:05:33 18.1 C 11.43 g/m*3 18.1 C 0 km/h
377 28-06-2011 03:17:33 17.8 C 11.54 g/m*3 17.8 C 0 km/h
378 28-06-2011 03:29:33 17.9 C 11.6 g/m*3 17.9 C 0 km/h
379 28-06-2011 03:41:33 17.7 C 11.62 g/m*3 17.7 C 0 km/h
380 28-06-2011 03:53:34 17.6 C 11.55 g/m*3 17.6 C 0 km/h
381 28-06-2011 04:05:34 17.2 C 11.28 g/m*3 17.2 C 0 km/h
382 28-06-2011 04:17:34 17.1 C 11.35 g/m*3 17.1 C 0 km/h
383 28-06-2011 04:29:34 16.9 C 11.36 g/m*3 16.9 C 0 km/h
384 28-06-2011 04:41:34 16.8 C 11.58 g/m*3 16.8 C 0 km/h
385 28-06-2011 04:53:34 16.7 C 11.51 g/m*3 16.7 C 0 km/h
386 28-06-2011 05:05:34 16.4 C 11.31 g/m*3 16.4 C 0 km/h
387 28-06-2011 05:17:34 16.3 C 11.24 g/m*3 16.3 C 0 km/h
388 28-06-2011 05:29:34 16.2 C 11.31 g/m*3 16.2 C 0 km/h
389 28-06-2011 05:41:34 16.2 C 11.31 g/m*3 16.2 C 0 km/h
390 28-06-2011 05:53:34 16.2 C 11.31 g/m*3 16.2 C 0 km/h
391 28-06-2011 06:05:34 16.3 C 11.52 g/m*3 16.3 C 0 km/h
392 28-06-2011 06:17:34 16.6 C 11.72 g/m*3 16.6 C 0 km/h
393 28-06-2011 06:29:34 17.5 C 12.23 g/m*3 17.5 C 0 km/h
394 28-06-2011 06:41:34 17.5 C 12.08 g/m*3 17.5 C 0 km/h
395 28-06-2011 06:53:34 17.5 C 12.08 g/m*3 17.5 C 0 km/h
396 28-06-2011 07:05:34 17.7 C 12.22 g/m*3 17.7 C 0 km/h
397 28-06-2011 07:17:34 17.8 C 12.29 g/m*3 17.8 C 0 km/h
398 28-06-2011 07:29:34 17.9 C 12.37 g/m*3 17.9 C 0 km/h
399 28-06-2011 07:41:34 18.2 C 12.43 g/m*3 18.2 C 0 km/h
400 28-06-2011 07:53:34 18.5 C 12.5 g/m*3 18.5 C 0 km/h
Sensor: Nr:Datum:Temp:Abs-Feuchte:Windchill:Wind:
Aussen-T/F 401 28-06-2011 08:05:35 18.8 C 12.72 g/m*3 18.8 C 0 km/h
402 28-06-2011 08:17:35 19.5 C 12.75 g/m*3 19.5 C 0 km/h
403 28-06-2011 08:29:35 20.1 C 12.52 g/m*3 20.1 C 0 km/h
404 28-06-2011 08:41:35 20.5 C 12.46 g/m*3 20.5 C 0 km/h
405 28-06-2011 08:53:35 20.9 C 12.57 g/m*3 20.9 C 0 km/h
406 28-06-2011 09:05:35 21.3 C 12.49 g/m*3 21.3 C 0 km/h
407 28-06-2011 09:17:35 22 C 12.23 g/m*3 22 C 0 km/h
408 28-06-2011 09:29:35 22.3 C 12.24 g/m*3 22.3 C 0 km/h
409 28-06-2011 09:41:35 22.8 C 12.8 g/m*3 22.8 C 0 km/h
410 28-06-2011 09:53:35 23.3 C 12.75 g/m*3 23.3 C 0 km/h
411 28-06-2011 10:05:35 24 C 12.62 g/m*3 24 C 0 km/h
412 28-06-2011 10:17:35 24.7 C 12.9 g/m*3 24.7 C 0 km/h
413 28-06-2011 10:29:35 25.4 C 12.24 g/m*3 25.4 C 0 km/h
414 28-06-2011 10:41:35 26.1 C 12.98 g/m*3 26.1 C 0 km/h
415 28-06-2011 10:53:35 27.4 C 11.84 g/m*3 27.4 C 0 km/h
416 28-06-2011 11:05:35 29.3 C 11.68 g/m*3 29.3 C 0 km/h
417 28-06-2011 11:17:35 30 C 10.61 g/m*3 30 C 0 km/h
418 28-06-2011 11:29:35 29 C 11.78 g/m*3 29 C 0 km/h
419 28-06-2011 11:41:35 29.2 C 10.74 g/m*3 29.2 C 0 km/h
420 28-06-2011 11:53:35 28.9 C 10.28 g/m*3 28.9 C 0 km/h
421 28-06-2011 12:05:36 29.3 C 10.22 g/m*3 29.3 C 0 km/h
422 28-06-2011 12:17:36 29.3 C 10.22 g/m*3 29.3 C 0 km/h
423 28-06-2011 12:29:36 30 C 10.01 g/m*3 30 C 0 km/h
424 28-06-2011 12:41:36 30.2 C 10.42 g/m*3 30.2 C 0 km/h
425 28-06-2011 12:53:36 30.6 C 10.34 g/m*3 30.6 C 0 km/h
Sensor: Nr:Datum:Temp:Abs-Feuchte:Windchill:Wind:
Aussen-T/F 426 28-06-2011 13:05:36 30.8 C 10.13 g/m*3 30.8 C 0 km/h
427 28-06-2011 13:17:36 31 C 9.6 g/m*3 31 C 0 km/h
428 28-06-2011 13:29:36 32.1 C 8.82 g/m*3 32.1 C 0 km/h
429 28-06-2011 13:41:36 34.4 C 7.66 g/m*3 34.4 C 0 km/h
430 28-06-2011 13:53:36 34.9 C 7.87 g/m*3 34.9 C 0 km/h
431 28-06-2011 14:05:36 34.8 C 7.82 g/m*3 34.8 C 0 km/h
432 28-06-2011 14:17:36 34.4 C 7.66 g/m*3 34.4 C 0 km/h
433 28-06-2011 14:29:36 34.4 C 7.66 g/m*3 34.4 C 0 km/h
434 28-06-2011 14:41:36 34.5 C 7.7 g/m*3 34.5 C 0 km/h
435 28-06-2011 14:53:36 34.8 C 7.82 g/m*3 34.8 C 0 km/h
436 28-06-2011 15:05:36 35.2 C 7.99 g/m*3 35.2 C 0 km/h
437 28-06-2011 15:17:36 34.3 C 7.62 g/m*3 34.3 C 0 km/h
438 28-06-2011 15:29:36 35.1 C 7.95 g/m*3 35.1 C 0 km/h
439 28-06-2011 15:41:36 33.8 C 7.43 g/m*3 33.8 C 0 km/h
440 28-06-2011 15:53:36 35.1 C 7.95 g/m*3 35.1 C 0 km/h
441 28-06-2011 16:05:36 35.5 C 8.11 g/m*3 35.5 C 0 km/h
442 28-06-2011 16:17:37 35 C 7.91 g/m*3 35 C 0 km/h
443 28-06-2011 16:29:37 35.2 C 7.99 g/m*3 35.2 C 0 km/h
444 28-06-2011 16:41:37 35.5 C 8.11 g/m*3 35.5 C 0 km/h
445 28-06-2011 16:53:37 35.3 C 8.03 g/m*3 35.3 C 0 km/h
446 28-06-2011 17:05:37 35.3 C 8.03 g/m*3 35.3 C 0 km/h
447 28-06-2011 17:17:37 35.7 C 8.2 g/m*3 35.7 C 0 km/h
448 28-06-2011 17:29:37 34.8 C 7.82 g/m*3 34.8 C 0 km/h
449 28-06-2011 17:41:37 34.4 C 7.66 g/m*3 34.4 C 0 km/h
450 28-06-2011 17:53:37 34.6 C 7.74 g/m*3 34.6 C 0 km/h
Sensor: Nr:Datum:Temp:Abs-Feuchte:Windchill:Wind:
Aussen-T/F 451 28-06-2011 18:05:37 34.1 C 7.54 g/m*3 34.1 C 0 km/h
452 28-06-2011 18:17:37 33.9 C 7.46 g/m*3 33.9 C 0 km/h
453 28-06-2011 18:29:37 33.7 C 7.39 g/m*3 33.7 C 0 km/h
454 28-06-2011 18:41:37 34.6 C 7.74 g/m*3 34.6 C 0 km/h
455 28-06-2011 18:53:37 34.3 C 7.62 g/m*3 34.3 C 0 km/h
456 28-06-2011 19:05:37 33.8 C 7.43 g/m*3 33.8 C 0 km/h
457 28-06-2011 19:17:37 34.1 C 7.54 g/m*3 34.1 C 0 km/h
458 28-06-2011 19:29:37 33.3 C 7.23 g/m*3 33.3 C 0 km/h
459 28-06-2011 19:41:37 33.4 C 7.27 g/m*3 33.4 C 0 km/h
460 28-06-2011 19:53:37 31.3 C 9.11 g/m*3 31.3 C 0 km/h
461 28-06-2011 20:05:37 29.9 C 9.95 g/m*3 29.9 C 0 km/h
462 28-06-2011 20:17:38 28.6 C 9.84 g/m*3 28.6 C 0 km/h
463 28-06-2011 20:29:38 27 C 9.01 g/m*3 27 C 0 km/h
464 28-06-2011 20:41:38 26 C 8.76 g/m*3 26 C 0 km/h
465 28-06-2011 20:53:38 25.7 C 8.38 g/m*3 25.7 C 0 km/h
466 28-06-2011 21:05:38 25.4 C 8.48 g/m*3 25.4 C 0 km/h
467 28-06-2011 21:17:38 25.2 C 8.15 g/m*3 25.2 C 0 km/h
468 28-06-2011 21:29:38 24.8 C 8.65 g/m*3 24.8 C 0 km/h
469 28-06-2011 21:41:38 24.5 C 8.5 g/m*3 24.5 C 0 km/h
470 28-06-2011 21:53:38 23.7 C 9.63 g/m*3 23.7 C 0 km/h
471 28-06-2011 22:05:02 23.1 C 9.3 g/m*3 23.1 C 0 km/h
472 28-06-2011 22:17:02 22.6 C 9.64 g/m*3 22.6 C 0 km/h
473 28-06-2011 22:29:02 22.3 C 9.87 g/m*3 22.3 C 0 km/h
474 28-06-2011 22:41:02 22 C 9.9 g/m*3 22 C 0 km/h
475 28-06-2011 22:53:02 21.6 C 9.67 g/m*3 21.6 C 0 km/h
Sensor: Nr:Datum:Temp:Abs-Feuchte:Windchill:Wind:
Aussen-T/F 476 28-06-2011 23:05:01 21.5 C 9.81 g/m*3 21.5 C 0 km/h
477 28-06-2011 23:17:02 21.3 C 9.69 g/m*3 21.3 C 0 km/h
478 28-06-2011 23:29:02 21.5 C 9.81 g/m*3 21.5 C 0 km/h
479 28-06-2011 23:41:01 21.3 C 9.69 g/m*3 21.3 C 0 km/h
480 28-06-2011 23:53:03 21.4 C 9.94 g/m*3 21.4 C 0 km/h
481 29-06-2011 00:05:02 21.5 C 9.81 g/m*3 21.5 C 0 km/h
482 29-06-2011 00:17:03 21.1 C 9.95 g/m*3 21.1 C 0 km/h
483 29-06-2011 00:29:03 20.8 C 10.5 g/m*3 20.8 C 0 km/h
484 29-06-2011 00:41:02 21.1 C 10.32 g/m*3 21.1 C 0 km/h
485 29-06-2011 00:53:02 21 C 10.26 g/m*3 21 C 0 km/h
486 29-06-2011 01:05:02 20.8 C 10.32 g/m*3 20.8 C 0 km/h
487 29-06-2011 01:17:02 20.8 C 10.68 g/m*3 20.8 C 0 km/h
488 29-06-2011 01:29:03 20.7 C 10.8 g/m*3 20.7 C 0 km/h
489 29-06-2011 01:41:02 20.3 C 10.55 g/m*3 20.3 C 0 km/h
490 29-06-2011 01:53:02 20.6 C 10.74 g/m*3 20.6 C 0 km/h
491 29-06-2011 02:05:02 21.8 C 11.32 g/m*3 21.8 C 0 km/h
492 29-06-2011 02:17:02 22.3 C 11.26 g/m*3 22.3 C 0 km/h
493 29-06-2011 02:29:02 22.9 C 11.85 g/m*3 22.9 C 0 km/h
494 29-06-2011 02:41:03 22.7 C 11.92 g/m*3 22.7 C 0 km/h
495 29-06-2011 02:54:04 23.1 C 11.99 g/m*3 23.1 C 0 km/h
496 29-06-2011 03:06:04 22.5 C 12.18 g/m*3 22.5 C 0 km/h
497 29-06-2011 03:18:04 22.2 C 12.17 g/m*3 22.2 C 0 km/h
498 29-06-2011 03:30:04 23 C 12.33 g/m*3 23 C 0 km/h
499 29-06-2011 03:42:02 23.2 C 12.06 g/m*3 23.2 C 0 km/h
500 29-06-2011 03:54:02 23.1 C 11.99 g/m*3 23.1 C 0 km/h
Sensor: Nr:Datum:Temp:Abs-Feuchte:Windchill:Wind:
Aussen-T/F 501 29-06-2011 04:06:02 22.5 C 11.98 g/m*3 22.5 C 0 km/h
502 29-06-2011 04:18:02 21.6 C 11.95 g/m*3 21.6 C 0 km/h
503 29-06-2011 04:30:03 21.2 C 12.23 g/m*3 21.2 C 0 km/h
504 29-06-2011 04:42:01 21 C 12.27 g/m*3 21 C 0 km/h
505 29-06-2011 04:54:02 21 C 12.46 g/m*3 21 C 0 km/h
506 29-06-2011 05:06:01 21.3 C 12.3 g/m*3 21.3 C 0 km/h
507 29-06-2011 05:18:01 21.4 C 12.37 g/m*3 21.4 C 0 km/h
508 29-06-2011 05:30:01 21.9 C 11.96 g/m*3 21.9 C 0 km/h
509 29-06-2011 05:42:02 22.2 C 11.78 g/m*3 22.2 C 0 km/h
510 29-06-2011 05:54:02 22.2 C 11.78 g/m*3 22.2 C 0 km/h
511 29-06-2011 06:06:02 21.7 C 11.83 g/m*3 21.7 C 0 km/h
512 29-06-2011 06:18:01 21.6 C 11.95 g/m*3 21.6 C 0 km/h
513 29-06-2011 06:30:01 21.4 C 12 g/m*3 21.4 C 0 km/h
514 29-06-2011 06:42:02 21.4 C 12.19 g/m*3 21.4 C 0 km/h
515 29-06-2011 06:54:02 20.9 C 12.2 g/m*3 20.9 C 0 km/h
516 29-06-2011 07:06:02 21.3 C 12.86 g/m*3 21.3 C 0 km/h
517 29-06-2011 07:18:01 21.1 C 12.71 g/m*3 21.1 C 0 km/h
518 29-06-2011 07:30:01 21.8 C 12.66 g/m*3 21.8 C 0 km/h
519 29-06-2011 07:42:01 22.4 C 12.31 g/m*3 22.4 C 0 km/h
520 29-06-2011 07:54:01 22.6 C 12.25 g/m*3 22.6 C 0 km/h
521 29-06-2011 08:06:02 22.9 C 12.26 g/m*3 22.9 C 0 km/h
522 29-06-2011 08:18:01 23.4 C 12.2 g/m*3 23.4 C 0 km/h
523 29-06-2011 08:30:01 23.7 C 12.19 g/m*3 23.7 C 0 km/h
524 29-06-2011 08:42:01 23.6 C 12.55 g/m*3 23.6 C 0 km/h
525 29-06-2011 08:54:01 23.8 C 12.26 g/m*3 23.8 C 0 km/h
Sensor: Nr:Datum:Temp:Abs-Feuchte:Windchill:Wind:
Aussen-T/F 526 29-06-2011 09:06:01 23.9 C 12.33 g/m*3 23.9 C 0 km/h
527 29-06-2011 09:18:01 24.2 C 12.1 g/m*3 24.2 C 0 km/h
528 29-06-2011 09:30:01 24.4 C 12.24 g/m*3 24.4 C 0 km/h
529 29-06-2011 09:42:01 24.1 C 11.82 g/m*3 24.1 C 0 km/h
530 29-06-2011 09:54:02 24.3 C 12.17 g/m*3 24.3 C 0 km/h
531 29-06-2011 10:06:02 25.1 C 12.04 g/m*3 25.1 C 0 km/h
532 29-06-2011 10:18:02 24.9 C 12.13 g/m*3 24.9 C 0 km/h
533 29-06-2011 10:30:02 23.7 C 12.19 g/m*3 23.7 C 0 km/h
534 29-06-2011 10:42:02 23.3 C 12.55 g/m*3 23.3 C 0 km/h
535 29-06-2011 10:54:02 24.1 C 12.47 g/m*3 24.1 C 0 km/h
536 29-06-2011 11:06:03 23.8 C 12.48 g/m*3 23.8 C 0 km/h
537 29-06-2011 11:18:02 22.7 C 13.13 g/m*3 22.7 C 0 km/h
538 29-06-2011 11:30:02 24.1 C 12.91 g/m*3 24.1 C 0 km/h
539 29-06-2011 11:42:02 24.6 C 11.93 g/m*3 24.6 C 0 km/h
540 29-06-2011 11:54:01 24.7 C 11.32 g/m*3 24.7 C 0 km/h
541 29-06-2011 12:06:02 24.7 C 12 g/m*3 24.7 C 0 km/h
542 29-06-2011 12:18:01 24.8 C 11.84 g/m*3 24.8 C 0 km/h
543 29-06-2011 12:30:01 24.6 C 11.93 g/m*3 24.6 C 0 km/h
544 29-06-2011 12:42:02 24.7 C 12 g/m*3 24.7 C 0 km/h
545 29-06-2011 12:54:01 25.3 C 11.94 g/m*3 25.3 C 0 km/h
546 29-06-2011 13:06:02 25.8 C 12.04 g/m*3 25.8 C 0 km/h
547 29-06-2011 13:18:02 25.8 C 12.28 g/m*3 25.8 C 0 km/h
548 29-06-2011 13:30:02 25.6 C 11.9 g/m*3 25.6 C 0 km/h
549 29-06-2011 13:42:01 25.6 C 12.14 g/m*3 25.6 C 0 km/h
550 29-06-2011 13:54:01 25.8 C 11.8 g/m*3 25.8 C 0 km/h
Sensor: Nr:Datum:Temp:Abs-Feuchte:Windchill:Wind:
Aussen-T/F 551 29-06-2011 14:06:01 23.1 C 11.16 g/m*3 23.1 C 0 km/h
552 29-06-2011 14:18:02 21.5 C 11.13 g/m*3 21.5 C 0 km/h
553 29-06-2011 14:30:02 20.7 C 10.98 g/m*3 20.7 C 0 km/h
554 29-06-2011 14:42:01 19.8 C 10.76 g/m*3 19.8 C 0 km/h
555 29-06-2011 14:54:02 19.7 C 11.21 g/m*3 19.7 C 0 km/h
556 29-06-2011 15:06:02 19.4 C 10.84 g/m*3 19.4 C 0 km/h
557 29-06-2011 15:18:02 19.1 C 10.66 g/m*3 19.1 C 0 km/h
558 29-06-2011 15:30:02 18.8 C 10.79 g/m*3 18.8 C 0 km/h
559 29-06-2011 15:42:02 17.8 C 11.23 g/m*3 17.8 C 0 km/h
560 29-06-2011 15:54:02 17.5 C 11.33 g/m*3 17.5 C 0 km/h
561 29-06-2011 16:06:01 17.5 C 11.48 g/m*3 17.5 C 0 km/h
562 29-06-2011 16:18:02 17.5 C 11.48 g/m*3 17.5 C 0 km/h
563 29-06-2011 16:30:02 17.5 C 11.18 g/m*3 17.5 C 0 km/h
564 29-06-2011 16:42:02 17.5 C 10.88 g/m*3 17.5 C 0 km/h
565 29-06-2011 16:54:02 17.6 C 10.95 g/m*3 17.6 C 0 km/h
566 29-06-2011 17:06:03 17.5 C 10.73 g/m*3 17.5 C 0 km/h
567 29-06-2011 17:18:02 17.5 C 10.73 g/m*3 17.5 C 0 km/h
568 29-06-2011 17:30:02 17.6 C 10.65 g/m*3 17.6 C 0 km/h
569 29-06-2011 17:42:02 17.4 C 10.67 g/m*3 17.4 C 0 km/h
570 29-06-2011 17:54:01 17.3 C 10.61 g/m*3 17.3 C 0 km/h
571 29-06-2011 18:06:02 17.1 C 10.48 g/m*3 17.1 C 0 km/h
572 29-06-2011 18:18:01 17.1 C 10.48 g/m*3 17.1 C 0 km/h
573 29-06-2011 18:30:01 16.9 C 10.5 g/m*3 16.9 C 0 km/h
574 29-06-2011 18:42:02 17 C 10.27 g/m*3 17 C 0 km/h
575 29-06-2011 18:54:01 17 C 10.27 g/m*3 17 C 0 km/h
Sensor: Nr:Datum:Temp:Abs-Feuchte:Windchill:Wind:
Aussen-T/F 576 29-06-2011 19:06:02 17 C 10.13 g/m*3 17 C 0 km/h
577 29-06-2011 19:18:02 17 C 9.98 g/m*3 17 C 0 km/h
578 29-06-2011 19:30:02 17.1 C 10.19 g/m*3 17.1 C 0 km/h
579 29-06-2011 19:42:02 17 C 10.13 g/m*3 17 C 0 km/h
580 29-06-2011 19:54:01 17 C 10.27 g/m*3 17 C 0 km/h
581 29-06-2011 20:06:02 16.9 C 10.36 g/m*3 16.9 C 0 km/h
582 29-06-2011 20:18:02 16.8 C 10.44 g/m*3 16.8 C 0 km/h
583 29-06-2011 20:30:02 16.8 C 10.58 g/m*3 16.8 C 0 km/h
584 29-06-2011 20:42:01 16.7 C 10.52 g/m*3 16.7 C 0 km/h
585 29-06-2011 20:54:02 16.6 C 10.59 g/m*3 16.6 C 0 km/h
586 29-06-2011 21:06:01 16.6 C 10.59 g/m*3 16.6 C 0 km/h
587 29-06-2011 21:18:02 16.5 C 10.67 g/m*3 16.5 C 0 km/h
588 29-06-2011 21:30:02 16.5 C 10.67 g/m*3 16.5 C 0 km/h
589 29-06-2011 21:42:02 16.5 C 10.81 g/m*3 16.5 C 0 km/h
590 29-06-2011 21:54:02 16.4 C 10.75 g/m*3 16.4 C 0 km/h
591 29-06-2011 22:06:02 16.6 C 10.74 g/m*3 16.6 C 0 km/h
592 29-06-2011 22:18:02 16.4 C 10.75 g/m*3 16.4 C 0 km/h
593 29-06-2011 22:30:02 16.4 C 10.89 g/m*3 16.4 C 0 km/h
594 29-06-2011 22:42:02 16.3 C 10.96 g/m*3 16.3 C 0 km/h
595 29-06-2011 22:55:03 16.4 C 11.03 g/m*3 16.4 C 0 km/h
596 29-06-2011 23:07:03 16.5 C 10.81 g/m*3 16.5 C 0 km/h
597 29-06-2011 23:19:03 16.6 C 10.59 g/m*3 16.6 C 0 km/h
598 29-06-2011 23:31:03 16.9 C 10.21 g/m*3 16.9 C 0 km/h
599 29-06-2011 23:43:03 16.8 C 10.01 g/m*3 16.8 C 0 km/h
600 29-06-2011 23:55:03 16.7 C 10.09 g/m*3 16.7 C 0 km/h
Sensor: Nr:Datum:Temp:Abs-Feuchte:Windchill:Wind:
Aussen-T/F 601 30-06-2011 00:07:03 16.6 C 9.89 g/m*3 16.6 C 0 km/h
602 30-06-2011 00:19:03 16.7 C 9.81 g/m*3 16.7 C 0 km/h
603 30-06-2011 00:31:04 16.6 C 9.61 g/m*3 16.6 C 0 km/h
604 30-06-2011 00:43:04 16.5 C 9.69 g/m*3 16.5 C 0 km/h
605 30-06-2011 00:55:04 16.6 C 9.46 g/m*3 16.6 C 0 km/h
606 30-06-2011 01:07:04 16.5 C 9.27 g/m*3 16.5 C 0 km/h
607 30-06-2011 01:19:04 16.5 C 9.27 g/m*3 16.5 C 0 km/h
608 30-06-2011 01:31:04 16.4 C 9.21 g/m*3 16.4 C 0 km/h
609 30-06-2011 01:43:04 16.3 C 9.16 g/m*3 16.3 C 0 km/h
610 30-06-2011 01:55:04 16.2 C 9.1 g/m*3 16.2 C 0 km/h
611 30-06-2011 02:07:04 16.2 C 8.96 g/m*3 16.2 C 0 km/h
612 30-06-2011 02:19:04 16 C 8.99 g/m*3 16 C 0 km/h
613 30-06-2011 02:31:04 15.9 C 8.94 g/m*3 15.9 C 0 km/h
614 30-06-2011 02:43:04 15.8 C 8.62 g/m*3 15.8 C 0 km/h
615 30-06-2011 02:55:04 15.7 C 8.56 g/m*3 15.7 C 0 km/h
616 30-06-2011 03:07:04 15.6 C 8.25 g/m*3 15.6 C 0 km/h
617 30-06-2011 03:19:04 15.5 C 8.2 g/m*3 15.5 C 0 km/h
618 30-06-2011 03:31:04 15.3 C 8.1 g/m*3 15.3 C 0 km/h
619 30-06-2011 03:43:04 15.2 C 8.18 g/m*3 15.2 C 0 km/h
620 30-06-2011 03:55:04 15 C 8.21 g/m*3 15 C 0 km/h
621 30-06-2011 04:07:04 14.9 C 8.28 g/m*3 14.9 C 0 km/h
622 30-06-2011 04:19:04 14.9 C 8.28 g/m*3 14.9 C 0 km/h
623 30-06-2011 04:31:04 14.8 C 8.11 g/m*3 14.8 C 0 km/h
624 30-06-2011 04:43:05 14.6 C 8.01 g/m*3 14.6 C 0 km/h
625 30-06-2011 04:55:05 14.5 C 7.96 g/m*3 14.5 C 0 km/h
Sensor: Nr:Datum:Temp:Abs-Feuchte:Windchill:Wind:
Aussen-T/F 626 30-06-2011 05:07:05 14.4 C 7.79 g/m*3 14.4 C 0 km/h
627 30-06-2011 05:19:05 14 C 7.72 g/m*3 14 C 0 km/h
628 30-06-2011 05:31:05 13.7 C 7.7 g/m*3 13.7 C 0 km/h
629 30-06-2011 05:43:05 13.4 C 7.67 g/m*3 13.4 C 0 km/h
630 30-06-2011 05:55:05 13.5 C 7.72 g/m*3 13.5 C 0 km/h
631 30-06-2011 06:07:05 13 C 7.71 g/m*3 13 C 0 km/h
632 30-06-2011 06:19:05 12.3 C 7.71 g/m*3 12.3 C 0 km/h
633 30-06-2011 06:31:04 12.3 C 7.82 g/m*3 12.3 C 0 km/h
634 30-06-2011 06:43:04 12.4 C 7.98 g/m*3 12.4 C 0 km/h
635 30-06-2011 06:55:02 12.5 C 7.92 g/m*3 12.5 C 0 km/h
636 30-06-2011 07:07:02 12.8 C 8.06 g/m*3 12.8 C 0 km/h
637 30-06-2011 07:19:01 12.7 C 8.01 g/m*3 12.7 C 0 km/h
638 30-06-2011 07:31:02 12.8 C 8.18 g/m*3 12.8 C 0 km/h
639 30-06-2011 07:43:02 13.7 C 8.17 g/m*3 13.7 C 0 km/h
640 30-06-2011 07:55:01 14.4 C 7.79 g/m*3 14.4 C 0 km/h
641 30-06-2011 08:07:02 14.2 C 7.33 g/m*3 14.2 C 0 km/h
642 30-06-2011 08:19:02 14.3 C 7.49 g/m*3 14.3 C 0 km/h
643 30-06-2011 08:31:02 15 C 7.05 g/m*3 15 C 0 km/h
644 30-06-2011 08:43:02 15.6 C 6.92 g/m*3 15.6 C 0 km/h
645 30-06-2011 08:55:02 16.1 C 6.72 g/m*3 16.1 C 0 km/h
646 30-06-2011 09:07:02 14.4 C 7.29 g/m*3 14.4 C 0 km/h
647 30-06-2011 09:19:02 15.2 C 7.4 g/m*3 15.2 C 0 km/h
648 30-06-2011 09:31:01 16.6 C 6.92 g/m*3 16.6 C 0 km/h
649 30-06-2011 09:43:01 17 C 6.66 g/m*3 17 C 0 km/h
650 30-06-2011 09:55:02 16 C 6.54 g/m*3 16 C 0 km/h
Sensor: Nr:Datum:Temp:Abs-Feuchte:Windchill:Wind:
Aussen-T/F 651 30-06-2011 10:07:01 16.2 C 6.76 g/m*3 16.2 C 0 km/h
652 30-06-2011 10:19:02 16.7 C 6.4 g/m*3 16.7 C 0 km/h
653 30-06-2011 10:31:01 17.1 C 6.55 g/m*3 17.1 C 0 km/h
654 30-06-2011 10:43:01 17.2 C 6.3 g/m*3 17.2 C 0 km/h
655 30-06-2011 10:55:02 17.1 C 5.82 g/m*3 17.1 C 0 km/h
656 30-06-2011 11:07:01 18.9 C 5.67 g/m*3 18.9 C 0 km/h
657 30-06-2011 11:19:01 17.4 C 6.08 g/m*3 17.4 C 0 km/h
658 30-06-2011 11:31:02 18.3 C 6.25 g/m*3 18.3 C 0 km/h
659 30-06-2011 11:43:02 19.1 C 5.74 g/m*3 19.1 C 0 km/h
660 30-06-2011 11:55:02 18 C 5.84 g/m*3 18 C 0 km/h
661 30-06-2011 12:07:01 18.3 C 5.94 g/m*3 18.3 C 0 km/h
662 30-06-2011 12:19:02 18.7 C 5.76 g/m*3 18.7 C 0 km/h
663 30-06-2011 12:31:01 18.7 C 5.92 g/m*3 18.7 C 0 km/h
664 30-06-2011 12:43:01 18.9 C 5.83 g/m*3 18.9 C 0 km/h
665 30-06-2011 12:55:02 19.6 C 5.74 g/m*3 19.6 C 0 km/h
666 30-06-2011 13:07:01 19.2 C 5.44 g/m*3 19.2 C 0 km/h
667 30-06-2011 13:19:01 19.8 C 5.81 g/m*3 19.8 C 0 km/h
668 30-06-2011 13:31:02 20.2 C 5.25 g/m*3 20.2 C 0 km/h
669 30-06-2011 13:43:02 26.1 C 4.9 g/m*3 26.1 C 0 km/h
670 30-06-2011 13:55:02 26.8 C 5.09 g/m*3 26.8 C 0 km/h
671 30-06-2011 14:07:02 23.3 C 4.18 g/m*3 23.3 C 0 km/h
672 30-06-2011 14:19:02 23 C 4.11 g/m*3 23 C 0 km/h
673 30-06-2011 14:31:02 25.9 C 4.84 g/m*3 25.9 C 0 km/h
674 30-06-2011 14:43:02 25.3 C 4.68 g/m*3 25.3 C 0 km/h
675 30-06-2011 14:55:01 27.7 C 5.35 g/m*3 27.7 C 0 km/h
Sensor: Nr:Datum:Temp:Abs-Feuchte:Windchill:Wind:
Aussen-T/F 676 30-06-2011 15:07:02 25.6 C 4.76 g/m*3 25.6 C 0 km/h
677 30-06-2011 15:19:01 22.5 C 4.19 g/m*3 22.5 C 0 km/h
678 30-06-2011 15:31:01 22.5 C 4.59 g/m*3 22.5 C 0 km/h
679 30-06-2011 15:43:01 24.3 C 4.43 g/m*3 24.3 C 0 km/h
680 30-06-2011 15:55:01 23.4 C 4.63 g/m*3 23.4 C 0 km/h
681 30-06-2011 16:07:02 25.2 C 4.89 g/m*3 25.2 C 0 km/h
682 30-06-2011 16:19:01 23 C 4.73 g/m*3 23 C 0 km/h
683 30-06-2011 16:31:01 22.1 C 4.88 g/m*3 22.1 C 0 km/h
684 30-06-2011 16:43:01 23.5 C 5.29 g/m*3 23.5 C 0 km/h
685 30-06-2011 16:55:01 22.1 C 5.27 g/m*3 22.1 C 0 km/h
686 30-06-2011 17:07:02 22.2 C 5.5 g/m*3 22.2 C 0 km/h
687 30-06-2011 17:19:02 21.8 C 5.37 g/m*3 21.8 C 0 km/h
688 30-06-2011 17:31:01 25.1 C 4.63 g/m*3 25.1 C 0 km/h
689 30-06-2011 17:43:01 23.5 C 4.65 g/m*3 23.5 C 0 km/h
690 30-06-2011 17:55:01 21.9 C 5.4 g/m*3 21.9 C 0 km/h
691 30-06-2011 18:07:01 21.6 C 5.31 g/m*3 21.6 C 0 km/h
692 30-06-2011 18:19:02 21.3 C 5.41 g/m*3 21.3 C 0 km/h
693 30-06-2011 18:31:01 20.1 C 5.21 g/m*3 20.1 C 0 km/h
694 30-06-2011 18:43:01 21.1 C 5.34 g/m*3 21.1 C 0 km/h
695 30-06-2011 18:55:02 21.9 C 5.21 g/m*3 21.9 C 0 km/h
696 30-06-2011 19:07:01 24.2 C 4.4 g/m*3 24.2 C 0 km/h
697 30-06-2011 19:19:01 24.8 C 4.55 g/m*3 24.8 C 0 km/h
698 30-06-2011 19:31:01 23.1 C 4.13 g/m*3 23.1 C 0 km/h
699 30-06-2011 19:43:01 22.3 C 4.94 g/m*3 22.3 C 0 km/h
700 30-06-2011 19:55:02 20 C 5.18 g/m*3 20 C 0 km/h
Sensor: Nr:Datum:Temp:Abs-Feuchte:Windchill:Wind:
Aussen-T/F 701 30-06-2011 20:07:02 19.7 C 5.6 g/m*3 19.7 C 0 km/h
702 30-06-2011 20:19:02 19 C 5.7 g/m*3 19 C 0 km/h
703 30-06-2011 20:31:02 18.6 C 6.05 g/m*3 18.6 C 0 km/h
704 30-06-2011 20:43:02 17.9 C 5.95 g/m*3 17.9 C 0 km/h
705 30-06-2011 20:55:02 17 C 6.51 g/m*3 17 C 0 km/h
706 30-06-2011 21:07:02 17.2 C 6.15 g/m*3 17.2 C 0 km/h
707 30-06-2011 21:19:01 17.2 C 6 g/m*3 17.2 C 0 km/h
708 30-06-2011 21:31:02 16.8 C 6.43 g/m*3 16.8 C 0 km/h
709 30-06-2011 21:43:02 15.9 C 6.5 g/m*3 15.9 C 0 km/h
710 30-06-2011 21:55:02 15.6 C 6.78 g/m*3 15.6 C 0 km/h
711 30-06-2011 22:07:02 16.1 C 6.58 g/m*3 16.1 C 0 km/h
712 30-06-2011 22:19:01 16.6 C 6.5 g/m*3 16.6 C 0 km/h
713 30-06-2011 22:31:02 16.6 C 6.64 g/m*3 16.6 C 0 km/h
714 30-06-2011 22:43:02 16.5 C 6.88 g/m*3 16.5 C 0 km/h
715 30-06-2011 22:55:02 16.3 C 6.94 g/m*3 16.3 C 0 km/h
716 30-06-2011 23:07:02 15.3 C 6.92 g/m*3 15.3 C 0 km/h
717 30-06-2011 23:19:02 15.1 C 6.84 g/m*3 15.1 C 0 km/h
718 30-06-2011 23:32:03 14.2 C 7.45 g/m*3 14.2 C 0 km/h
719 30-06-2011 23:44:03 13.3 C 8.09 g/m*3 13.3 C 0 km/h
720 30-06-2011 23:56:03 12.8 C 8.62 g/m*3 12.8 C 0 km/h
721 01-07-2011 00:08:03 12.7 C 8.91 g/m*3 12.7 C 0 km/h
722 01-07-2011 00:20:03 12.4 C 8.96 g/m*3 12.4 C 0 km/h
723 01-07-2011 00:32:03 12.1 C 8.9 g/m*3 12.1 C 0 km/h
724 01-07-2011 00:44:03 12 C 8.85 g/m*3 12 C 0 km/h
725 01-07-2011 00:56:03 11.8 C 8.84 g/m*3 11.8 C 0 km/h
Sensor: Nr:Datum:Temp:Abs-Feuchte:Windchill:Wind:
Aussen-T/F 726 01-07-2011 01:08:03 11.8 C 8.84 g/m*3 11.8 C 0 km/h
727 01-07-2011 01:20:03 11.9 C 9 g/m*3 11.9 C 0 km/h
728 01-07-2011 01:32:03 11.6 C 8.83 g/m*3 11.6 C 0 km/h
729 01-07-2011 01:44:03 11.5 C 8.88 g/m*3 11.5 C 0 km/h
730 01-07-2011 01:56:03 11.4 C 8.83 g/m*3 11.4 C 0 km/h
731 01-07-2011 02:08:03 11.2 C 8.72 g/m*3 11.2 C 0 km/h
732 01-07-2011 02:20:03 11.2 C 8.82 g/m*3 11.2 C 0 km/h
733 01-07-2011 02:32:03 11.6 C 9.15 g/m*3 11.6 C 0 km/h
734 01-07-2011 02:44:03 11.6 C 9.15 g/m*3 11.6 C 0 km/h
735 01-07-2011 02:56:03 11.5 C 9.09 g/m*3 11.5 C 0 km/h
736 01-07-2011 03:08:03 11.6 C 9.15 g/m*3 11.6 C 0 km/h
737 01-07-2011 03:20:03 11.7 C 9.2 g/m*3 11.7 C 0 km/h
738 01-07-2011 03:32:04 11.8 C 9.26 g/m*3 11.8 C 0 km/h
739 01-07-2011 03:44:04 11.9 C 9.32 g/m*3 11.9 C 0 km/h
740 01-07-2011 03:56:04 11.9 C 9.32 g/m*3 11.9 C 0 km/h
741 01-07-2011 04:08:04 11.9 C 9.32 g/m*3 11.9 C 0 km/h
742 01-07-2011 04:20:04 11.4 C 9.03 g/m*3 11.4 C 0 km/h
743 01-07-2011 04:32:04 11.2 C 8.92 g/m*3 11.2 C 0 km/h
744 01-07-2011 04:44:04 10.8 C 8.7 g/m*3 10.8 C 0 km/h
745 01-07-2011 04:56:04 11.2 C 8.92 g/m*3 11.2 C 0 km/h
746 01-07-2011 05:08:04 11.1 C 8.86 g/m*3 11.1 C 0 km/h
747 01-07-2011 05:20:04 10.5 C 8.53 g/m*3 10.5 C 0 km/h
748 01-07-2011 05:32:04 9.7 C 8.2 g/m*3 9.7 C 0 km/h
749 01-07-2011 05:44:04 10.3 C 8.43 g/m*3 10.3 C 0 km/h
750 01-07-2011 05:56:04 10.4 C 8.48 g/m*3 10.4 C 0 km/h
Sensor: Nr:Datum:Temp:Abs-Feuchte:Windchill:Wind:
Aussen-T/F 751 01-07-2011 06:08:04 10.6 C 8.69 g/m*3 10.6 C 0 km/h
752 01-07-2011 06:20:04 11 C 8.81 g/m*3 11 C 0 km/h
753 01-07-2011 06:32:04 11.1 C 8.86 g/m*3 11.1 C 0 km/h
754 01-07-2011 06:44:04 10.8 C 8.7 g/m*3 10.8 C 0 km/h
755 01-07-2011 06:56:04 10.7 C 8.55 g/m*3 10.7 C 0 km/h
756 01-07-2011 07:08:04 10.8 C 8.6 g/m*3 10.8 C 0 km/h
757 01-07-2011 07:20:04 11.2 C 8.72 g/m*3 11.2 C 0 km/h
758 01-07-2011 07:32:05 11.6 C 8.83 g/m*3 11.6 C 0 km/h
759 01-07-2011 07:44:05 12.2 C 8.63 g/m*3 12.2 C 0 km/h
760 01-07-2011 07:56:05 12.8 C 8.62 g/m*3 12.8 C 0 km/h
761 01-07-2011 08:08:05 13.4 C 8.02 g/m*3 13.4 C 0 km/h
762 01-07-2011 08:20:05 12.8 C 7.84 g/m*3 12.8 C 0 km/h
763 01-07-2011 08:32:02 12 C 8.21 g/m*3 12 C 0 km/h
764 01-07-2011 08:44:02 11.3 C 8.06 g/m*3 11.3 C 0 km/h
765 01-07-2011 08:56:02 10.7 C 7.86 g/m*3 10.7 C 0 km/h
766 01-07-2011 09:08:01 10.7 C 8.25 g/m*3 10.7 C 0 km/h
767 01-07-2011 09:20:02 11.3 C 8.57 g/m*3 11.3 C 0 km/h
768 01-07-2011 09:32:01 11.3 C 8.57 g/m*3 11.3 C 0 km/h
769 01-07-2011 09:44:01 12 C 8.63 g/m*3 12 C 0 km/h
770 01-07-2011 09:56:02 12.2 C 8.52 g/m*3 12.2 C 0 km/h
771 01-07-2011 10:08:02 13.2 C 8.38 g/m*3 13.2 C 0 km/h
772 01-07-2011 10:20:02 14.4 C 8.28 g/m*3 14.4 C 0 km/h
773 01-07-2011 10:32:02 14 C 7.96 g/m*3 14 C 0 km/h
774 01-07-2011 10:44:02 14.1 C 8.25 g/m*3 14.1 C 0 km/h
775 01-07-2011 10:56:02 14.8 C 7.6 g/m*3 14.8 C 0 km/h
Sensor: Nr:Datum:Temp:Abs-Feuchte:Windchill:Wind:
Aussen-T/F 776 01-07-2011 11:08:02 16.5 C 7.3 g/m*3 16.5 C 0 km/h
777 01-07-2011 11:20:02 15.6 C 6.78 g/m*3 15.6 C 0 km/h
778 01-07-2011 11:32:02 16.6 C 7.35 g/m*3 16.6 C 0 km/h
779 01-07-2011 11:44:02 14.5 C 6.84 g/m*3 14.5 C 0 km/h
780 01-07-2011 11:56:02 14.8 C 7.09 g/m*3 14.8 C 0 km/h
781 01-07-2011 12:08:01 15 C 7.18 g/m*3 15 C 0 km/h
782 01-07-2011 12:20:01 16.2 C 6.76 g/m*3 16.2 C 0 km/h
783 01-07-2011 12:32:02 16.6 C 6.5 g/m*3 16.6 C 0 km/h
784 01-07-2011 12:44:02 17 C 6.51 g/m*3 17 C 0 km/h
785 01-07-2011 12:56:02 17.3 C 6.19 g/m*3 17.3 C 0 km/h
786 01-07-2011 13:08:02 17.3 C 6.78 g/m*3 17.3 C 0 km/h
787 01-07-2011 13:20:02 14.9 C 7.14 g/m*3 14.9 C 0 km/h
788 01-07-2011 13:32:02 16.4 C 7.12 g/m*3 16.4 C 0 km/h
789 01-07-2011 13:44:02 20.8 C 6.34 g/m*3 20.8 C 0 km/h
790 01-07-2011 13:56:02 23.2 C 6.24 g/m*3 23.2 C 0 km/h
791 01-07-2011 14:08:02 22.4 C 5.36 g/m*3 22.4 C 0 km/h
792 01-07-2011 14:20:02 20.1 C 5.21 g/m*3 20.1 C 0 km/h
793 01-07-2011 14:32:02 17.7 C 6.19 g/m*3 17.7 C 0 km/h
794 01-07-2011 14:44:02 20.4 C 6.37 g/m*3 20.4 C 0 km/h
795 01-07-2011 14:56:01 18.5 C 6.01 g/m*3 18.5 C 0 km/h
796 01-07-2011 15:08:01 22.6 C 6.63 g/m*3 22.6 C 0 km/h
797 01-07-2011 15:20:02 23.5 C 5.92 g/m*3 23.5 C 0 km/h
798 01-07-2011 15:32:01 23.8 C 5.16 g/m*3 23.8 C 0 km/h
799 01-07-2011 15:44:01 26.9 C 5.37 g/m*3 26.9 C 0 km/h
800 01-07-2011 15:56:01 25.8 C 5.54 g/m*3 25.8 C 0 km/h
Sensor: Nr:Datum:Temp:Abs-Feuchte:Windchill:Wind:
Aussen-T/F 801 01-07-2011 16:08:01 22.8 C 5.08 g/m*3 22.8 C 0 km/h
802 01-07-2011 16:20:02 26.2 C 4.92 g/m*3 26.2 C 0 km/h
803 01-07-2011 16:32:01 23.1 C 4.34 g/m*3 23.1 C 0 km/h
804 01-07-2011 16:44:01 23.9 C 5.41 g/m*3 23.9 C 0 km/h
805 01-07-2011 16:56:01 18.8 C 6.28 g/m*3 18.8 C 0 km/h
806 01-07-2011 17:08:01 22.7 C 6.26 g/m*3 22.7 C 0 km/h
807 01-07-2011 17:20:02 20.2 C 6.29 g/m*3 20.2 C 0 km/h
808 01-07-2011 17:32:01 18.7 C 6.4 g/m*3 18.7 C 0 km/h
809 01-07-2011 17:44:01 23.1 C 6.2 g/m*3 23.1 C 0 km/h
810 01-07-2011 17:56:02 23.6 C 5.96 g/m*3 23.6 C 0 km/h
811 01-07-2011 18:08:01 24.2 C 5.72 g/m*3 24.2 C 0 km/h
812 01-07-2011 18:20:01 24.3 C 5.97 g/m*3 24.3 C 0 km/h
813 01-07-2011 18:32:01 23.9 C 4.98 g/m*3 23.9 C 0 km/h
814 01-07-2011 18:44:01 21.8 C 5.37 g/m*3 21.8 C 0 km/h
815 01-07-2011 18:56:02 19.7 C 5.26 g/m*3 19.7 C 0 km/h
816 01-07-2011 19:08:02 19.1 C 5.9 g/m*3 19.1 C 0 km/h
817 01-07-2011 19:20:02 18.6 C 6.05 g/m*3 18.6 C 0 km/h
818 01-07-2011 19:32:02 17.5 C 5.37 g/m*3 17.5 C 0 km/h
819 01-07-2011 19:44:02 16.9 C 5.75 g/m*3 16.9 C 0 km/h
820 01-07-2011 19:56:02 16.5 C 5.62 g/m*3 16.5 C 0 km/h
821 01-07-2011 20:08:01 16.4 C 5.86 g/m*3 16.4 C 0 km/h
822 01-07-2011 20:20:02 16.2 C 6.21 g/m*3 16.2 C 0 km/h
823 01-07-2011 20:32:02 15.8 C 6.6 g/m*3 15.8 C 0 km/h
824 01-07-2011 20:44:02 15.5 C 6.61 g/m*3 15.5 C 0 km/h
825 01-07-2011 20:56:02 15.6 C 6.65 g/m*3 15.6 C 0 km/h
Sensor: Nr:Datum:Temp:Abs-Feuchte:Windchill:Wind:
Aussen-T/F 826 01-07-2011 21:08:03 15.2 C 6.75 g/m*3 15.2 C 0 km/h
827 01-07-2011 21:20:02 14.6 C 6.88 g/m*3 14.6 C 0 km/h
828 01-07-2011 21:32:02 14.1 C 7.04 g/m*3 14.1 C 0 km/h
829 01-07-2011 21:44:02 14 C 7.24 g/m*3 14 C 0 km/h
830 01-07-2011 21:56:01 14.1 C 6.8 g/m*3 14.1 C 0 km/h
831 01-07-2011 22:09:02 13.7 C 6.87 g/m*3 13.7 C 0 km/h
832 01-07-2011 22:21:02 13.1 C 6.96 g/m*3 13.1 C 0 km/h
833 01-07-2011 22:33:02 12.4 C 7.21 g/m*3 12.4 C 0 km/h
834 01-07-2011 22:45:03 11.6 C 7.28 g/m*3 11.6 C 0 km/h
835 01-07-2011 22:57:03 11.2 C 7.4 g/m*3 11.2 C 0 km/h
836 01-07-2011 23:09:03 11.2 C 7.5 g/m*3 11.2 C 0 km/h
837 01-07-2011 23:21:03 10.9 C 7.56 g/m*3 10.9 C 0 km/h
838 01-07-2011 23:33:03 10.9 C 7.66 g/m*3 10.9 C 0 km/h
839 01-07-2011 23:45:03 11.3 C 7.85 g/m*3 11.3 C 0 km/h
840 01-07-2011 23:57:03 11.3 C 7.75 g/m*3 11.3 C 0 km/h
841 02-07-2011 00:09:03 11.1 C 7.66 g/m*3 11.1 C 0 km/h
842 02-07-2011 00:21:03 10.7 C 7.66 g/m*3 10.7 C 0 km/h
843 02-07-2011 00:33:03 10.2 C 7.42 g/m*3 10.2 C 0 km/h
844 02-07-2011 00:45:03 10 C 7.52 g/m*3 10 C 0 km/h
845 02-07-2011 00:57:03 9.9 C 7.66 g/m*3 9.9 C 0 km/h
846 02-07-2011 01:09:03 9.9 C 7.75 g/m*3 9.9 C 0 km/h
847 02-07-2011 01:21:03 9.6 C 7.6 g/m*3 9.6 C 0 km/h
848 02-07-2011 01:33:03 9.8 C 7.79 g/m*3 9.8 C 0 km/h
849 02-07-2011 01:45:03 9.7 C 7.74 g/m*3 9.7 C 0 km/h
850 02-07-2011 01:57:03 9.6 C 7.69 g/m*3 9.6 C 0 km/h
Sensor: Nr:Datum:Temp:Abs-Feuchte:Windchill:Wind:
Aussen-T/F 851 02-07-2011 02:09:03 9.4 C 7.6 g/m*3 9.4 C 0 km/h
852 02-07-2011 02:21:03 9.3 C 7.64 g/m*3 9.3 C 0 km/h
853 02-07-2011 02:33:04 9.2 C 7.59 g/m*3 9.2 C 0 km/h
854 02-07-2011 02:45:04 8.9 C 7.53 g/m*3 8.9 C 0 km/h
855 02-07-2011 02:57:04 8.4 C 7.38 g/m*3 8.4 C 0 km/h
856 02-07-2011 03:09:04 8.4 C 7.38 g/m*3 8.4 C 0 km/h
857 02-07-2011 03:21:04 8.7 C 7.61 g/m*3 8.7 C 0 km/h
858 02-07-2011 03:33:04 8.2 C 7.29 g/m*3 8.2 C 0 km/h
859 02-07-2011 03:45:04 8.7 C 7.61 g/m*3 8.7 C 0 km/h
860 02-07-2011 03:57:04 8.8 C 7.66 g/m*3 8.8 C 0 km/h
861 02-07-2011 04:09:04 9 C 7.76 g/m*3 9 C 0 km/h
862 02-07-2011 04:21:04 9.5 C 8.01 g/m*3 9.5 C 0 km/h
863 02-07-2011 04:33:04 9.6 C 7.97 g/m*3 9.6 C 0 km/h
864 02-07-2011 04:45:04 9.6 C 7.97 g/m*3 9.6 C 0 km/h
865 02-07-2011 04:57:04 9.2 C 7.59 g/m*3 9.2 C 0 km/h
866 02-07-2011 05:09:04 8.4 C 7.3 g/m*3 8.4 C 0 km/h
867 02-07-2011 05:21:04 8.5 C 7.43 g/m*3 8.5 C 0 km/h
868 02-07-2011 05:33:04 8.4 C 7.47 g/m*3 8.4 C 0 km/h
869 02-07-2011 05:45:04 8.4 C 7.47 g/m*3 8.4 C 0 km/h
870 02-07-2011 05:57:04 8.4 C 7.47 g/m*3 8.4 C 0 km/h
871 02-07-2011 06:09:04 8.3 C 7.42 g/m*3 8.3 C 0 km/h
872 02-07-2011 06:21:04 8.7 C 7.7 g/m*3 8.7 C 0 km/h
873 02-07-2011 06:33:04 9.2 C 7.86 g/m*3 9.2 C 0 km/h
874 02-07-2011 06:45:05 9.5 C 8.01 g/m*3 9.5 C 0 km/h
875 02-07-2011 06:57:05 9.8 C 8.07 g/m*3 9.8 C 0 km/h
Sensor: Nr:Datum:Temp:Abs-Feuchte:Windchill:Wind:
Aussen-T/F 876 02-07-2011 07:09:05 10 C 7.99 g/m*3 10 C 0 km/h
877 02-07-2011 07:21:05 10.2 C 7.9 g/m*3 10.2 C 0 km/h
878 02-07-2011 07:33:05 10.6 C 8.1 g/m*3 10.6 C 0 km/h
879 02-07-2011 07:45:05 11.4 C 8.31 g/m*3 11.4 C 0 km/h
880 02-07-2011 07:57:05 11.3 C 7.85 g/m*3 11.3 C 0 km/h
881 02-07-2011 08:09:05 12.3 C 8.14 g/m*3 12.3 C 0 km/h
882 02-07-2011 08:21:05 13.2 C 8.04 g/m*3 13.2 C 0 km/h
883 02-07-2011 08:33:05 13 C 7.83 g/m*3 13 C 0 km/h
884 02-07-2011 08:45:05 13 C 7.48 g/m*3 13 C 0 km/h
885 02-07-2011 08:57:05 14.2 C 7.33 g/m*3 14.2 C 0 km/h
886 02-07-2011 09:09:05 14 C 7.12 g/m*3 14 C 0 km/h
887 02-07-2011 09:21:05 14.8 C 7.09 g/m*3 14.8 C 0 km/h
888 02-07-2011 09:33:02 14 C 7 g/m*3 14 C 0 km/h
889 02-07-2011 09:45:02 14.4 C 7.05 g/m*3 14.4 C 0 km/h
890 02-07-2011 09:57:02 15 C 6.67 g/m*3 15 C 0 km/h
891 02-07-2011 10:09:02 16.2 C 6.62 g/m*3 16.2 C 0 km/h
892 02-07-2011 10:21:02 15.8 C 6.33 g/m*3 15.8 C 0 km/h
893 02-07-2011 10:33:02 17.3 C 6.33 g/m*3 17.3 C 0 km/h
894 02-07-2011 10:45:01 16.5 C 6.6 g/m*3 16.5 C 0 km/h
895 02-07-2011 10:57:01 16.1 C 6.03 g/m*3 16.1 C 0 km/h
896 02-07-2011 11:09:01 15 C 6.03 g/m*3 15 C 0 km/h
897 02-07-2011 11:21:01 14.2 C 6.47 g/m*3 14.2 C 0 km/h
898 02-07-2011 11:33:02 15.1 C 6.71 g/m*3 15.1 C 0 km/h
899 02-07-2011 11:45:02 15.6 C 6.52 g/m*3 15.6 C 0 km/h
900 02-07-2011 11:57:03 16.9 C 6.18 g/m*3 16.9 C 0 km/h
Sensor: Nr:Datum:Temp:Abs-Feuchte:Windchill:Wind:
Aussen-T/F 901 02-07-2011 12:09:01 15.7 C 6.42 g/m*3 15.7 C 0 km/h
902 02-07-2011 12:21:02 15.5 C 6.21 g/m*3 15.5 C 0 km/h
903 02-07-2011 12:33:02 15.7 C 6.15 g/m*3 15.7 C 0 km/h
904 02-07-2011 12:45:01 16.5 C 6.04 g/m*3 16.5 C 0 km/h
905 02-07-2011 12:57:01 18.5 C 6.01 g/m*3 18.5 C 0 km/h
906 02-07-2011 13:09:02 17.9 C 5.65 g/m*3 17.9 C 0 km/h
907 02-07-2011 13:21:01 17.8 C 5.92 g/m*3 17.8 C 0 km/h
908 02-07-2011 13:33:02 18 C 5.68 g/m*3 18 C 0 km/h
909 02-07-2011 13:45:02 17.5 C 5.67 g/m*3 17.5 C 0 km/h
910 02-07-2011 13:57:02 17.4 C 5.34 g/m*3 17.4 C 0 km/h
911 02-07-2011 14:09:02 19.6 C 5.91 g/m*3 19.6 C 0 km/h
912 02-07-2011 14:21:01 20.4 C 5.48 g/m*3 20.4 C 0 km/h
913 02-07-2011 14:33:02 19.7 C 5.94 g/m*3 19.7 C 0 km/h
914 02-07-2011 14:45:01 21.7 C 5.91 g/m*3 21.7 C 0 km/h
915 02-07-2011 14:57:01 22.9 C 5.52 g/m*3 22.9 C 0 km/h
916 02-07-2011 15:09:02 20.9 C 5.46 g/m*3 20.9 C 0 km/h
917 02-07-2011 15:21:01 20.1 C 5.91 g/m*3 20.1 C 0 km/h
918 02-07-2011 15:33:02 21.1 C 5.71 g/m*3 21.1 C 0 km/h
919 02-07-2011 15:45:01 22.9 C 5.31 g/m*3 22.9 C 0 km/h
920 02-07-2011 15:57:01 21.4 C 4.69 g/m*3 21.4 C 0 km/h
921 02-07-2011 16:09:02 18.5 C 5.54 g/m*3 18.5 C 0 km/h
922 02-07-2011 16:21:02 19.7 C 5.26 g/m*3 19.7 C 0 km/h
923 02-07-2011 16:33:02 19.6 C 5.06 g/m*3 19.6 C 0 km/h
924 02-07-2011 16:45:02 20.3 C 4.92 g/m*3 20.3 C 0 km/h
925 02-07-2011 16:57:02 19.2 C 5.61 g/m*3 19.2 C 0 km/h
Sensor: Nr:Datum:Temp:Abs-Feuchte:Windchill:Wind:
Aussen-T/F 926 02-07-2011 17:09:01 19.6 C 4.9 g/m*3 19.6 C 0 km/h
927 02-07-2011 17:21:02 19.6 C 4.9 g/m*3 19.6 C 0 km/h
928 02-07-2011 17:33:01 18.5 C 5.54 g/m*3 18.5 C 0 km/h
929 02-07-2011 17:45:02 18 C 5.84 g/m*3 18 C 0 km/h
930 02-07-2011 17:57:02 18.2 C 5.75 g/m*3 18.2 C 0 km/h
931 02-07-2011 18:09:01 18.9 C 5.51 g/m*3 18.9 C 0 km/h
932 02-07-2011 18:21:01 20.1 C 5.91 g/m*3 20.1 C 0 km/h
933 02-07-2011 18:33:01 21.1 C 5.53 g/m*3 21.1 C 0 km/h
934 02-07-2011 18:45:02 21.4 C 5.25 g/m*3 21.4 C 0 km/h
935 02-07-2011 18:57:02 20.2 C 5.42 g/m*3 20.2 C 0 km/h
936 02-07-2011 19:09:02 19.2 C 5.28 g/m*3 19.2 C 0 km/h
937 02-07-2011 19:21:02 18.7 C 5.6 g/m*3 18.7 C 0 km/h
938 02-07-2011 19:33:02 18.2 C 5.75 g/m*3 18.2 C 0 km/h
939 02-07-2011 19:45:02 17.5 C 5.81 g/m*3 17.5 C 0 km/h
940 02-07-2011 19:57:02 17.2 C 5.86 g/m*3 17.2 C 0 km/h
941 02-07-2011 20:09:01 17.2 C 5.86 g/m*3 17.2 C 0 km/h
942 02-07-2011 20:21:02 17.3 C 5.89 g/m*3 17.3 C 0 km/h
943 02-07-2011 20:33:02 17.1 C 5.97 g/m*3 17.1 C 0 km/h
944 02-07-2011 20:45:02 16.9 C 5.9 g/m*3 16.9 C 0 km/h
945 02-07-2011 20:57:02 16.7 C 5.97 g/m*3 16.7 C 0 km/h
946 02-07-2011 21:09:01 16.4 C 6 g/m*3 16.4 C 0 km/h
947 02-07-2011 21:21:01 16 C 6.27 g/m*3 16 C 0 km/h
948 02-07-2011 21:33:01 15.9 C 6.23 g/m*3 15.9 C 0 km/h
949 02-07-2011 21:45:02 15.6 C 6.38 g/m*3 15.6 C 0 km/h
950 02-07-2011 21:57:02 15.4 C 6.44 g/m*3 15.4 C 0 km/h
Sensor: Nr:Datum:Temp:Abs-Feuchte:Windchill:Wind:
Aussen-T/F 951 02-07-2011 22:09:02 15 C 6.41 g/m*3 15 C 0 km/h
952 02-07-2011 22:21:02 14.9 C 6.63 g/m*3 14.9 C 0 km/h
953 02-07-2011 22:33:02 14.7 C 6.55 g/m*3 14.7 C 0 km/h
954 02-07-2011 22:46:03 14.8 C 6.59 g/m*3 14.8 C 0 km/h
955 02-07-2011 22:58:03 15.1 C 6.45 g/m*3 15.1 C 0 km/h
956 02-07-2011 23:10:03 15.1 C 6.45 g/m*3 15.1 C 0 km/h
957 02-07-2011 23:22:03 15.1 C 6.45 g/m*3 15.1 C 0 km/h
958 02-07-2011 23:34:03 15 C 6.41 g/m*3 15 C 0 km/h
959 02-07-2011 23:46:03 14.8 C 6.46 g/m*3 14.8 C 0 km/h
960 02-07-2011 23:58:03 14.7 C 6.42 g/m*3 14.7 C 0 km/h
961 03-07-2011 00:10:03 14.6 C 6.51 g/m*3 14.6 C 0 km/h
962 03-07-2011 00:22:03 14.4 C 6.68 g/m*3 14.4 C 0 km/h
963 03-07-2011 00:34:03 14.4 C 6.68 g/m*3 14.4 C 0 km/h
964 03-07-2011 00:46:03 14.4 C 6.68 g/m*3 14.4 C 0 km/h
965 03-07-2011 00:58:03 14.4 C 6.68 g/m*3 14.4 C 0 km/h
966 03-07-2011 01:10:03 14.3 C 6.76 g/m*3 14.3 C 0 km/h
967 03-07-2011 01:22:03 14.4 C 6.92 g/m*3 14.4 C 0 km/h
968 03-07-2011 01:34:03 14.1 C 6.8 g/m*3 14.1 C 0 km/h
969 03-07-2011 01:46:03 14 C 6.88 g/m*3 14 C 0 km/h
970 03-07-2011 01:58:03 14 C 7 g/m*3 14 C 0 km/h
971 03-07-2011 02:10:03 13.9 C 7.07 g/m*3 13.9 C 0 km/h
972 03-07-2011 02:22:04 13.9 C 7.19 g/m*3 13.9 C 0 km/h
973 03-07-2011 02:34:04 13.7 C 7.1 g/m*3 13.7 C 0 km/h
974 03-07-2011 02:46:04 13.5 C 6.9 g/m*3 13.5 C 0 km/h
975 03-07-2011 02:58:04 13.6 C 6.94 g/m*3 13.6 C 0 km/h
Sensor: Nr:Datum:Temp:Abs-Feuchte:Windchill:Wind:
Aussen-T/F 976 03-07-2011 03:10:04 13.6 C 6.94 g/m*3 13.6 C 0 km/h
977 03-07-2011 03:22:04 13.4 C 6.86 g/m*3 13.4 C 0 km/h
978 03-07-2011 03:34:04 13.4 C 6.86 g/m*3 13.4 C 0 km/h
979 03-07-2011 03:46:04 13.3 C 6.93 g/m*3 13.3 C 0 km/h
980 03-07-2011 03:58:04 13.1 C 6.73 g/m*3 13.1 C 0 km/h
981 03-07-2011 04:10:04 13 C 6.8 g/m*3 13 C 0 km/h
982 03-07-2011 04:22:04 13 C 6.8 g/m*3 13 C 0 km/h
983 03-07-2011 04:34:04 13 C 6.8 g/m*3 13 C 0 km/h
984 03-07-2011 04:46:04 13 C 6.8 g/m*3 13 C 0 km/h
985 03-07-2011 04:58:04 13 C 6.8 g/m*3 13 C 0 km/h
986 03-07-2011 05:10:04 12.9 C 6.76 g/m*3 12.9 C 0 km/h
987 03-07-2011 05:22:04 12.9 C 6.76 g/m*3 12.9 C 0 km/h
988 03-07-2011 05:34:04 12.9 C 6.76 g/m*3 12.9 C 0 km/h
989 03-07-2011 05:46:04 12.9 C 6.76 g/m*3 12.9 C 0 km/h
990 03-07-2011 05:58:04 12.9 C 6.76 g/m*3 12.9 C 0 km/h
991 03-07-2011 06:10:04 12.9 C 6.76 g/m*3 12.9 C 0 km/h
992 03-07-2011 06:22:04 12.9 C 6.76 g/m*3 12.9 C 0 km/h
993 03-07-2011 06:34:05 12.9 C 6.76 g/m*3 12.9 C 0 km/h
994 03-07-2011 06:46:05 12.9 C 6.76 g/m*3 12.9 C 0 km/h
995 03-07-2011 06:58:05 12.8 C 7.06 g/m*3 12.8 C 0 km/h
996 03-07-2011 07:10:05 12.7 C 7.12 g/m*3 12.7 C 0 km/h
997 03-07-2011 07:22:05 12.6 C 7.08 g/m*3 12.6 C 0 km/h
998 03-07-2011 07:34:05 12.6 C 7.08 g/m*3 12.6 C 0 km/h
999 03-07-2011 07:46:05 12.6 C 7.08 g/m*3 12.6 C 0 km/h
1000 03-07-2011 07:58:05 12.6 C 7.08 g/m*3 12.6 C 0 km/h
Sensor: Nr:Datum:Temp:Abs-Feuchte:Windchill:Wind:
Aussen-T/F 1001 03-07-2011 08:10:05 12.6 C 7.08 g/m*3 12.6 C 0 km/h
1002 03-07-2011 08:22:05 12.6 C 7.08 g/m*3 12.6 C 0 km/h
1003 03-07-2011 08:34:05 12.6 C 7.08 g/m*3 12.6 C 0 km/h
1004 03-07-2011 08:46:05 12.6 C 7.08 g/m*3 12.6 C 0 km/h
1005 03-07-2011 08:58:05 12.6 C 7.08 g/m*3 12.6 C 0 km/h
1006 03-07-2011 09:10:05 12.6 C 7.08 g/m*3 12.6 C 0 km/h
1007 03-07-2011 09:22:05 12.6 C 7.08 g/m*3 12.6 C 0 km/h
1008 03-07-2011 09:34:05 12.6 C 7.08 g/m*3 12.6 C 0 km/h
1009 03-07-2011 09:46:01 12.6 C 7.08 g/m*3 12.6 C 0 km/h
1010 03-07-2011 09:58:01 12.6 C 7.08 g/m*3 12.6 C 0 km/h
1011 03-07-2011 10:10:02 12.6 C 7.08 g/m*3 12.6 C 0 km/h
1012 03-07-2011 10:22:02 12.6 C 7.08 g/m*3 12.6 C 0 km/h
1013 03-07-2011 14:34:02 18.9 C 5.83 g/m*3 18.9 C 0 km/h
1014 03-07-2011 14:46:01 20 C 6.05 g/m*3 20 C 0 km/h
1015 03-07-2011 14:58:01 21.6 C 5.88 g/m*3 21.6 C 0 km/h
1016 03-07-2011 15:10:02 21.6 C 6.07 g/m*3 21.6 C 0 km/h
1017 03-07-2011 15:22:01 22 C 5.82 g/m*3 22 C 0 km/h
1018 03-07-2011 15:34:02 20.8 C 5.98 g/m*3 20.8 C 0 km/h
1019 03-07-2011 15:46:01 24.5 C 5.82 g/m*3 24.5 C 0 km/h
1020 03-07-2011 15:58:01 23.9 C 5.41 g/m*3 23.9 C 0 km/h
1021 03-07-2011 16:10:02 24.7 C 5.66 g/m*3 24.7 C 0 km/h
1022 03-07-2011 16:22:01 25 C 5.52 g/m*3 25 C 0 km/h
1023 03-07-2011 16:34:02 25.9 C 5.81 g/m*3 25.9 C 0 km/h
1024 03-07-2011 16:46:01 26 C 5.6 g/m*3 26 C 0 km/h
1025 03-07-2011 16:58:01 27.5 C 5.56 g/m*3 27.5 C 0 km/h
Sensor: Nr:Datum:Temp:Abs-Feuchte:Windchill:Wind:
Aussen-T/F 1026 03-07-2011 17:10:02 26.6 C 5.29 g/m*3 26.6 C 0 km/h
1027 03-07-2011 17:22:02 24.5 C 5.82 g/m*3 24.5 C 0 km/h
1028 03-07-2011 17:34:02 23.2 C 5.82 g/m*3 23.2 C 0 km/h
1029 03-07-2011 17:46:02 25 C 5.75 g/m*3 25 C 0 km/h
1030 03-07-2011 17:58:02 25.4 C 5.89 g/m*3 25.4 C 0 km/h
1031 03-07-2011 18:10:01 26 C 6.09 g/m*3 26 C 0 km/h
1032 03-07-2011 18:22:02 25.4 C 5.89 g/m*3 25.4 C 0 km/h
1033 03-07-2011 18:34:01 24.4 C 6.01 g/m*3 24.4 C 0 km/h
1034 03-07-2011 18:46:02 24.6 C 5.63 g/m*3 24.6 C 0 km/h
1035 03-07-2011 18:58:02 24.7 C 5.88 g/m*3 24.7 C 0 km/h
1036 03-07-2011 19:10:01 23.2 C 6.24 g/m*3 23.2 C 0 km/h
1037 03-07-2011 19:22:01 23.4 C 6.1 g/m*3 23.4 C 0 km/h
1038 03-07-2011 19:34:01 24.1 C 6.13 g/m*3 24.1 C 0 km/h
1039 03-07-2011 19:46:02 22.2 C 6.28 g/m*3 22.2 C 0 km/h
1040 03-07-2011 19:58:02 19.9 C 6.87 g/m*3 19.9 C 0 km/h
1041 03-07-2011 20:10:02 19 C 6.84 g/m*3 19 C 0 km/h
1042 03-07-2011 20:22:02 18.7 C 7.04 g/m*3 18.7 C 0 km/h
1043 03-07-2011 20:34:02 18.2 C 6.99 g/m*3 18.2 C 0 km/h
1044 03-07-2011 20:46:01 18 C 7.07 g/m*3 18 C 0 km/h
1045 03-07-2011 20:58:01 17.7 C 7.24 g/m*3 17.7 C 0 km/h
1046 03-07-2011 21:10:02 17.2 C 7.32 g/m*3 17.2 C 0 km/h
1047 03-07-2011 21:22:01 16.5 C 7.58 g/m*3 16.5 C 0 km/h
1048 03-07-2011 21:34:02 16.2 C 7.58 g/m*3 16.2 C 0 km/h
1049 03-07-2011 21:46:02 16.2 C 7.58 g/m*3 16.2 C 0 km/h
1050 03-07-2011 21:58:02 16.2 C 7.58 g/m*3 16.2 C 0 km/h
Sensor: Nr:Datum:Temp:Abs-Feuchte:Windchill:Wind:
Aussen-T/F 1051 03-07-2011 22:10:02 16.2 C 7.58 g/m*3 16.2 C 0 km/h
1052 03-07-2011 22:23:04 16.2 C 7.58 g/m*3 16.2 C 0 km/h
1053 03-07-2011 22:35:04 16.2 C 7.58 g/m*3 16.2 C 0 km/h
1054 03-07-2011 22:47:04 16.2 C 7.58 g/m*3 16.2 C 0 km/h
1055 03-07-2011 22:59:04 16.2 C 7.58 g/m*3 16.2 C 0 km/h
1056 03-07-2011 23:11:04 16.2 C 7.58 g/m*3 16.2 C 0 km/h
1057 03-07-2011 23:23:04 16.2 C 7.58 g/m*3 16.2 C 0 km/h
1058 03-07-2011 23:35:05 16.2 C 7.58 g/m*3 16.2 C 0 km/h
1059 03-07-2011 23:47:05 16.2 C 7.58 g/m*3 16.2 C 0 km/h
1060 03-07-2011 23:59:05 16.2 C 7.58 g/m*3 16.2 C 0 km/h
1061 04-07-2011 00:11:05 16.2 C 7.58 g/m*3 16.2 C 0 km/h
1062 04-07-2011 00:23:05 16.2 C 7.58 g/m*3 16.2 C 0 km/h
1063 04-07-2011 00:35:05 16.2 C 7.58 g/m*3 16.2 C 0 km/h
1064 04-07-2011 00:47:05 16.2 C 7.58 g/m*3 16.2 C 0 km/h
1065 04-07-2011 00:59:05 16.2 C 7.58 g/m*3 16.2 C 0 km/h
1066 04-07-2011 01:11:05 16.2 C 7.58 g/m*3 16.2 C 0 km/h
1067 04-07-2011 01:23:05 16.2 C 7.58 g/m*3 16.2 C 0 km/h
1068 04-07-2011 01:35:05 16.2 C 7.58 g/m*3 16.2 C 0 km/h
1069 04-07-2011 01:47:05 16.2 C 7.58 g/m*3 16.2 C 0 km/h
1070 04-07-2011 01:59:05 16.2 C 7.58 g/m*3 16.2 C 0 km/h
1071 04-07-2011 02:11:05 16.2 C 7.58 g/m*3 16.2 C 0 km/h
1072 04-07-2011 02:23:05 16.2 C 7.58 g/m*3 16.2 C 0 km/h
1073 04-07-2011 02:35:05 16.2 C 7.58 g/m*3 16.2 C 0 km/h
1074 04-07-2011 02:47:05 16.2 C 7.58 g/m*3 16.2 C 0 km/h
1075 04-07-2011 02:59:05 16.2 C 7.58 g/m*3 16.2 C 0 km/h
Sensor: Nr:Datum:Temp:Abs-Feuchte:Windchill:Wind:
Aussen-T/F 1076 04-07-2011 03:11:05 16.2 C 7.58 g/m*3 16.2 C 0 km/h
1077 04-07-2011 03:23:05 16.2 C 7.58 g/m*3 16.2 C 0 km/h
1078 04-07-2011 03:35:06 16.2 C 7.58 g/m*3 16.2 C 0 km/h
1079 04-07-2011 03:47:06 16.2 C 7.58 g/m*3 16.2 C 0 km/h
1080 04-07-2011 03:59:06 16.2 C 7.58 g/m*3 16.2 C 0 km/h
1081 04-07-2011 04:11:06 16.2 C 7.58 g/m*3 16.2 C 0 km/h
1082 04-07-2011 04:23:06 16.2 C 7.58 g/m*3 16.2 C 0 km/h
1083 04-07-2011 04:35:06 16.2 C 7.58 g/m*3 16.2 C 0 km/h
1084 04-07-2011 04:47:06 16.2 C 7.58 g/m*3 16.2 C 0 km/h
1085 04-07-2011 04:59:06 16.2 C 7.58 g/m*3 16.2 C 0 km/h
1086 04-07-2011 05:11:06 16.2 C 7.58 g/m*3 16.2 C 0 km/h
1087 04-07-2011 05:23:06 16.2 C 7.58 g/m*3 16.2 C 0 km/h
1088 04-07-2011 05:35:06 16.2 C 7.58 g/m*3 16.2 C 0 km/h
1089 04-07-2011 05:47:06 16.2 C 7.58 g/m*3 16.2 C 0 km/h
1090 04-07-2011 05:59:06 16.2 C 7.58 g/m*3 16.2 C 0 km/h
1091 04-07-2011 06:11:06 16.2 C 7.58 g/m*3 16.2 C 0 km/h
1092 04-07-2011 06:23:06 16.2 C 7.58 g/m*3 16.2 C 0 km/h
1093 04-07-2011 06:35:06 16.2 C 7.58 g/m*3 16.2 C 0 km/h
1094 04-07-2011 06:47:06 16.2 C 7.58 g/m*3 16.2 C 0 km/h
1095 04-07-2011 06:59:06 16.2 C 7.58 g/m*3 16.2 C 0 km/h
1096 04-07-2011 07:11:06 16.2 C 7.58 g/m*3 16.2 C 0 km/h
1097 04-07-2011 07:23:03 16.2 C 7.58 g/m*3 16.2 C 0 km/h
1098 04-07-2011 07:35:04 16.2 C 7.58 g/m*3 16.2 C 0 km/h
1099 04-07-2011 07:47:02 16.2 C 7.58 g/m*3 16.2 C 0 km/h
1100 04-07-2011 07:59:02 16.2 C 7.58 g/m*3 16.2 C 0 km/h
Sensor: Nr:Datum:Temp:Abs-Feuchte:Windchill:Wind:
Aussen-T/F 1101 05-07-2011 08:00:01 12.2 C 9.28 g/m*3 12.2 C 0 km/h
1102 05-07-2011 08:12:02 12.5 C 9.35 g/m*3 12.5 C 0 km/h
1103 05-07-2011 08:24:03 12.6 C 9.4 g/m*3 12.6 C 0 km/h
1104 05-07-2011 08:36:03 13.1 C 9.47 g/m*3 13.1 C 0 km/h
1105 05-07-2011 08:48:02 14 C 9.89 g/m*3 14 C 0 km/h
1106 05-07-2011 09:00:02 14.4 C 9.89 g/m*3 14.4 C 0 km/h
1107 05-07-2011 09:12:02 14.7 C 9.82 g/m*3 14.7 C 0 km/h
1108 05-07-2011 09:24:02 15 C 9.75 g/m*3 15 C 0 km/h
1109 05-07-2011 09:36:01 15.6 C 9.84 g/m*3 15.6 C 0 km/h
1110 05-07-2011 09:48:01 16.1 C 9.73 g/m*3 16.1 C 0 km/h
1111 05-07-2011 10:00:01 16.7 C 9.81 g/m*3 16.7 C 0 km/h
1112 05-07-2011 10:12:02 17.3 C 9.58 g/m*3 17.3 C 0 km/h
1113 05-07-2011 10:24:02 17.6 C 9.6 g/m*3 17.6 C 0 km/h
1114 05-07-2011 10:36:01 18.1 C 9.58 g/m*3 18.1 C 0 km/h
1115 05-07-2011 10:48:02 18.8 C 9.66 g/m*3 18.8 C 0 km/h
1116 05-07-2011 11:00:02 20.1 C 9.73 g/m*3 20.1 C 0 km/h
1117 05-07-2011 11:12:01 21.7 C 9.35 g/m*3 21.7 C 0 km/h
1118 05-07-2011 11:24:02 20.7 C 9.36 g/m*3 20.7 C 0 km/h
1119 05-07-2011 11:36:01 21.6 C 9.67 g/m*3 21.6 C 0 km/h
1120 05-07-2011 11:48:03 21.8 C 9.59 g/m*3 21.8 C 0 km/h
1121 05-07-2011 12:00:03 22.3 C 9.68 g/m*3 22.3 C 0 km/h
1122 05-07-2011 12:12:02 22.5 C 9.59 g/m*3 22.5 C 0 km/h
1123 05-07-2011 12:24:02 22.8 C 9.55 g/m*3 22.8 C 0 km/h
1124 05-07-2011 12:36:03 23.3 C 8.78 g/m*3 23.3 C 0 km/h
1125 05-07-2011 12:48:02 24 C 8.27 g/m*3 24 C 0 km/h
Sensor: Nr:Datum:Temp:Abs-Feuchte:Windchill:Wind:
Aussen-T/F 1126 05-07-2011 13:00:03 24.1 C 7.88 g/m*3 24.1 C 0 km/h
1127 05-07-2011 13:12:01 24.9 C 8.24 g/m*3 24.9 C 0 km/h
1128 05-07-2011 13:24:02 25.8 C 8.67 g/m*3 25.8 C 0 km/h
1129 05-07-2011 13:36:02 30.6 C 8.14 g/m*3 30.6 C 0 km/h
1130 05-07-2011 13:48:02 31.9 C 6.72 g/m*3 31.9 C 0 km/h
1131 05-07-2011 14:00:02 31.8 C 6.68 g/m*3 31.8 C 0 km/h
1132 05-07-2011 14:12:03 31.9 C 6.72 g/m*3 31.9 C 0 km/h
1133 05-07-2011 14:24:02 31.8 C 6.68 g/m*3 31.8 C 0 km/h
1134 05-07-2011 14:36:02 33.2 C 7.2 g/m*3 33.2 C 0 km/h
1135 05-07-2011 14:48:02 33 C 7.12 g/m*3 33 C 0 km/h
1136 05-07-2011 15:00:02 32.5 C 6.93 g/m*3 32.5 C 0 km/h
1137 05-07-2011 15:12:02 31.8 C 6.68 g/m*3 31.8 C 0 km/h
1138 05-07-2011 15:24:02 32.4 C 6.9 g/m*3 32.4 C 0 km/h
1139 05-07-2011 15:36:02 33.1 C 7.16 g/m*3 33.1 C 0 km/h
1140 05-07-2011 15:48:02 31.4 C 6.54 g/m*3 31.4 C 0 km/h
1141 05-07-2011 16:00:02 33 C 7.12 g/m*3 33 C 0 km/h
1142 05-07-2011 16:12:01 31.9 C 6.72 g/m*3 31.9 C 0 km/h
1143 05-07-2011 16:24:02 31.8 C 6.68 g/m*3 31.8 C 0 km/h
1144 05-07-2011 16:36:02 31.3 C 6.83 g/m*3 31.3 C 0 km/h
1145 05-07-2011 16:48:01 31.3 C 8.13 g/m*3 31.3 C 0 km/h
1146 05-07-2011 17:00:01 31.2 C 6.79 g/m*3 31.2 C 0 km/h
1147 05-07-2011 17:12:01 30.3 C 8.32 g/m*3 30.3 C 0 km/h
1148 05-07-2011 17:24:01 30.4 C 7.75 g/m*3 30.4 C 0 km/h
1149 05-07-2011 17:36:02 31.5 C 7.89 g/m*3 31.5 C 0 km/h
1150 05-07-2011 17:48:02 31.2 C 9.7 g/m*3 31.2 C 0 km/h
Sensor: Nr:Datum:Temp:Abs-Feuchte:Windchill:Wind:
Aussen-T/F 1151 05-07-2011 18:00:02 29.7 C 10.44 g/m*3 29.7 C 0 km/h
1152 05-07-2011 18:12:02 31.2 C 7.44 g/m*3 31.2 C 0 km/h
1153 05-07-2011 18:24:02 30.2 C 8.28 g/m*3 30.2 C 0 km/h
1154 05-07-2011 18:36:02 30.8 C 8.23 g/m*3 30.8 C 0 km/h
1155 05-07-2011 18:48:02 30.6 C 7.2 g/m*3 30.6 C 0 km/h
1156 05-07-2011 19:00:02 31 C 8 g/m*3 31 C 0 km/h
1157 05-07-2011 19:12:02 31.4 C 7.52 g/m*3 31.4 C 0 km/h
1158 05-07-2011 19:24:02 29 C 9.48 g/m*3 29 C 0 km/h
1159 05-07-2011 19:36:02 29.9 C 9.65 g/m*3 29.9 C 0 km/h
1160 05-07-2011 19:48:02 27.9 C 10.28 g/m*3 27.9 C 0 km/h
1161 05-07-2011 20:00:02 26 C 10.47 g/m*3 26 C 0 km/h
1162 05-07-2011 20:12:02 25.5 C 10.42 g/m*3 25.5 C 0 km/h
1163 05-07-2011 20:24:02 25 C 10.36 g/m*3 25 C 0 km/h
1164 05-07-2011 20:36:02 24.7 C 10.19 g/m*3 24.7 C 0 km/h
1165 05-07-2011 20:48:02 23.9 C 10.38 g/m*3 23.9 C 0 km/h
1166 05-07-2011 21:00:02 22.9 C 10.63 g/m*3 22.9 C 0 km/h
1167 05-07-2011 21:12:02 22 C 10.09 g/m*3 22 C 0 km/h
1168 05-07-2011 21:24:02 21.5 C 10.18 g/m*3 21.5 C 0 km/h
1169 05-07-2011 21:36:02 21 C 10.08 g/m*3 21 C 0 km/h
1170 05-07-2011 21:48:02 20.8 C 10.14 g/m*3 20.8 C 0 km/h
1171 05-07-2011 22:00:02 20.6 C 10.2 g/m*3 20.6 C 0 km/h
1172 05-07-2011 22:12:02 20.4 C 10.26 g/m*3 20.4 C 0 km/h
1173 05-07-2011 22:24:02 20.2 C 10.14 g/m*3 20.2 C 0 km/h
1174 05-07-2011 22:36:02 19.9 C 10.31 g/m*3 19.9 C 0 km/h
1175 05-07-2011 22:49:03 20 C 10.37 g/m*3 20 C 0 km/h
Sensor: Nr:Datum:Temp:Abs-Feuchte:Windchill:Wind:
Aussen-T/F 1176 05-07-2011 23:01:03 19.6 C 10.47 g/m*3 19.6 C 0 km/h
1177 05-07-2011 23:13:03 19.6 C 10.47 g/m*3 19.6 C 0 km/h
1178 05-07-2011 23:25:03 19.2 C 10.39 g/m*3 19.2 C 0 km/h
1179 05-07-2011 23:37:03 18.6 C 10.35 g/m*3 18.6 C 0 km/h
1180 05-07-2011 23:49:03 18.1 C 10.51 g/m*3 18.1 C 0 km/h
1181 06-07-2011 00:01:03 17.8 C 10.47 g/m*3 17.8 C 0 km/h
1182 06-07-2011 00:13:03 17.4 C 10.37 g/m*3 17.4 C 0 km/h
1183 06-07-2011 00:25:03 17.1 C 10.48 g/m*3 17.1 C 0 km/h
1184 06-07-2011 00:37:03 16.8 C 10.58 g/m*3 16.8 C 0 km/h
1185 06-07-2011 00:49:03 17 C 10.71 g/m*3 17 C 0 km/h
1186 06-07-2011 01:01:03 16.8 C 10.72 g/m*3 16.8 C 0 km/h
1187 06-07-2011 01:13:03 16.9 C 10.64 g/m*3 16.9 C 0 km/h
1188 06-07-2011 01:25:03 16.6 C 10.45 g/m*3 16.6 C 0 km/h
1189 06-07-2011 01:37:03 16.1 C 10.14 g/m*3 16.1 C 0 km/h
1190 06-07-2011 01:49:03 15.7 C 10.17 g/m*3 15.7 C 0 km/h
1191 06-07-2011 02:01:03 15.6 C 10.24 g/m*3 15.6 C 0 km/h
1192 06-07-2011 02:13:03 15.4 C 10.12 g/m*3 15.4 C 0 km/h
1193 06-07-2011 02:25:03 15.3 C 10.06 g/m*3 15.3 C 0 km/h
1194 06-07-2011 02:37:03 15.2 C 9.99 g/m*3 15.2 C 0 km/h
1195 06-07-2011 02:49:03 15 C 9.87 g/m*3 15 C 0 km/h
1196 06-07-2011 03:01:04 14.9 C 9.81 g/m*3 14.9 C 0 km/h
1197 06-07-2011 03:13:04 14.6 C 9.64 g/m*3 14.6 C 0 km/h
1198 06-07-2011 03:25:04 14.6 C 9.64 g/m*3 14.6 C 0 km/h
1199 06-07-2011 03:37:04 14.7 C 9.82 g/m*3 14.7 C 0 km/h
1200 06-07-2011 03:49:04 14.8 C 9.88 g/m*3 14.8 C 0 km/h
Sensor: Nr:Datum:Temp:Abs-Feuchte:Windchill:Wind:
Aussen-T/F 1201 06-07-2011 04:01:04 14.6 C 9.39 g/m*3 14.6 C 0 km/h
1202 06-07-2011 04:13:04 14.5 C 9.08 g/m*3 14.5 C 0 km/h
1203 06-07-2011 04:25:04 14.6 C 9.26 g/m*3 14.6 C 0 km/h
1204 06-07-2011 04:37:04 14.8 C 9.37 g/m*3 14.8 C 0 km/h
1205 06-07-2011 04:49:04 15 C 9.36 g/m*3 15 C 0 km/h
1206 06-07-2011 05:01:04 14.6 C 9.13 g/m*3 14.6 C 0 km/h
1207 06-07-2011 05:13:04 14.2 C 9.04 g/m*3 14.2 C 0 km/h
1208 06-07-2011 05:25:04 14.2 C 9.28 g/m*3 14.2 C 0 km/h
1209 06-07-2011 05:37:04 14.1 C 9.34 g/m*3 14.1 C 0 km/h
1210 06-07-2011 05:49:04 14.2 C 9.4 g/m*3 14.2 C 0 km/h
1211 06-07-2011 06:01:05 14.5 C 9.58 g/m*3 14.5 C 0 km/h
1212 06-07-2011 06:13:05 14.8 C 9.5 g/m*3 14.8 C 0 km/h
1213 06-07-2011 06:25:05 15.6 C 9.71 g/m*3 15.6 C 0 km/h
1214 06-07-2011 06:37:05 16 C 9.67 g/m*3 16 C 0 km/h
1215 06-07-2011 06:49:05 16 C 9.67 g/m*3 16 C 0 km/h
1216 06-07-2011 07:01:05 15.3 C 9.79 g/m*3 15.3 C 0 km/h
1217 06-07-2011 07:13:05 15.4 C 10.25 g/m*3 15.4 C 0 km/h
1218 06-07-2011 07:25:03 15.6 C 10.24 g/m*3 15.6 C 0 km/h
1219 06-07-2011 07:37:02 15.8 C 10.36 g/m*3 15.8 C 0 km/h
1220 06-07-2011 07:49:03 16.1 C 10.28 g/m*3 16.1 C 0 km/h
1221 06-07-2011 08:01:02 16.7 C 10.23 g/m*3 16.7 C 0 km/h
1222 06-07-2011 08:13:02 16.4 C 10.05 g/m*3 16.4 C 0 km/h
1223 06-07-2011 08:25:02 16.6 C 9.75 g/m*3 16.6 C 0 km/h
1224 06-07-2011 08:37:02 16.9 C 9.64 g/m*3 16.9 C 0 km/h
1225 06-07-2011 08:49:02 16.9 C 9.49 g/m*3 16.9 C 0 km/h
Sensor: Nr:Datum:Temp:Abs-Feuchte:Windchill:Wind:
Aussen-T/F 1226 06-07-2011 09:01:01 17.2 C 9.52 g/m*3 17.2 C 0 km/h
1227 06-07-2011 09:13:01 17.9 C 9.01 g/m*3 17.9 C 0 km/h
1228 06-07-2011 09:25:02 18.3 C 9.22 g/m*3 18.3 C 0 km/h
1229 06-07-2011 09:37:02 19 C 9.29 g/m*3 19 C 0 km/h
1230 06-07-2011 09:49:02 21.3 C 8.57 g/m*3 21.3 C 0 km/h
1231 06-07-2011 10:01:01 22 C 7.96 g/m*3 22 C 0 km/h
1232 06-07-2011 10:13:01 22.5 C 7.99 g/m*3 22.5 C 0 km/h
1233 06-07-2011 10:25:01 22.8 C 8.33 g/m*3 22.8 C 0 km/h
1234 06-07-2011 10:37:02 23.3 C 8.36 g/m*3 23.3 C 0 km/h
1235 06-07-2011 10:49:02 23.8 C 8.39 g/m*3 23.8 C 0 km/h
1236 06-07-2011 11:01:02 23.7 C 8.13 g/m*3 23.7 C 0 km/h
1237 06-07-2011 11:13:02 23.2 C 8.32 g/m*3 23.2 C 0 km/h
1238 06-07-2011 11:25:02 23 C 8.22 g/m*3 23 C 0 km/h
1239 06-07-2011 11:37:02 24.1 C 8.1 g/m*3 24.1 C 0 km/h
1240 06-07-2011 11:49:01 23.4 C 7.57 g/m*3 23.4 C 0 km/h
1241 06-07-2011 12:01:02 23.7 C 7.91 g/m*3 23.7 C 0 km/h
1242 06-07-2011 12:13:02 23.2 C 7.28 g/m*3 23.2 C 0 km/h
1243 06-07-2011 12:25:01 23.4 C 7.57 g/m*3 23.4 C 0 km/h
1244 06-07-2011 12:37:01 23.7 C 7.49 g/m*3 23.7 C 0 km/h
1245 06-07-2011 12:49:01 24 C 7.18 g/m*3 24 C 0 km/h
1246 06-07-2011 13:01:02 24.7 C 7.24 g/m*3 24.7 C 0 km/h
1247 06-07-2011 13:13:02 24.8 C 6.83 g/m*3 24.8 C 0 km/h
1248 06-07-2011 13:25:01 26.2 C 7.14 g/m*3 26.2 C 0 km/h
1249 06-07-2011 13:37:02 27.4 C 6.58 g/m*3 27.4 C 0 km/h
1250 06-07-2011 13:49:02 27.6 C 6.38 g/m*3 27.6 C 0 km/h
Sensor: Nr:Datum:Temp:Abs-Feuchte:Windchill:Wind:
Aussen-T/F 1251 06-07-2011 14:01:02 27.5 C 6.61 g/m*3 27.5 C 0 km/h
1252 06-07-2011 14:13:03 26.6 C 6.8 g/m*3 26.6 C 0 km/h
1253 06-07-2011 14:25:01 27.3 C 6.54 g/m*3 27.3 C 0 km/h
1254 06-07-2011 14:37:02 26.4 C 6.47 g/m*3 26.4 C 0 km/h
1255 06-07-2011 14:49:01 26.8 C 6.62 g/m*3 26.8 C 0 km/h
1256 06-07-2011 15:01:02 25.3 C 6.79 g/m*3 25.3 C 0 km/h
1257 06-07-2011 15:13:02 24.6 C 6.75 g/m*3 24.6 C 0 km/h
1258 06-07-2011 15:25:02 24 C 6.53 g/m*3 24 C 0 km/h
1259 06-07-2011 15:37:02 23.7 C 6.63 g/m*3 23.7 C 0 km/h
1260 06-07-2011 15:49:01 23.5 C 6.98 g/m*3 23.5 C 0 km/h
1261 06-07-2011 16:01:02 24.8 C 7.06 g/m*3 24.8 C 0 km/h
1262 06-07-2011 16:13:02 26.5 C 6.76 g/m*3 26.5 C 0 km/h
1263 06-07-2011 16:25:02 28.7 C 6.22 g/m*3 28.7 C 0 km/h
1264 06-07-2011 16:37:01 29.4 C 5.87 g/m*3 29.4 C 0 km/h
1265 06-07-2011 16:49:02 30.2 C 6.44 g/m*3 30.2 C 0 km/h
1266 06-07-2011 17:01:01 26.2 C 6.15 g/m*3 26.2 C 0 km/h
1267 06-07-2011 17:13:01 30.2 C 6.44 g/m*3 30.2 C 0 km/h
1268 06-07-2011 17:25:02 28.1 C 5.74 g/m*3 28.1 C 0 km/h
1269 06-07-2011 17:37:01 25.9 C 6.78 g/m*3 25.9 C 0 km/h
1270 06-07-2011 17:49:02 25 C 6.91 g/m*3 25 C 0 km/h
1271 06-07-2011 18:01:01 26.3 C 6.68 g/m*3 26.3 C 0 km/h
1272 06-07-2011 18:13:01 28.1 C 5.74 g/m*3 28.1 C 0 km/h
1273 06-07-2011 18:25:01 24.6 C 6.75 g/m*3 24.6 C 0 km/h
1274 06-07-2011 18:37:02 28 C 6.25 g/m*3 28 C 0 km/h
1275 06-07-2011 18:49:02 25.3 C 6.79 g/m*3 25.3 C 0 km/h
Sensor: Nr:Datum:Temp:Abs-Feuchte:Windchill:Wind:
Aussen-T/F 1276 06-07-2011 19:01:02 26.8 C 6.36 g/m*3 26.8 C 0 km/h
1277 06-07-2011 19:13:02 28.2 C 6.05 g/m*3 28.2 C 0 km/h
1278 06-07-2011 19:25:02 28.6 C 6.46 g/m*3 28.6 C 0 km/h
1279 06-07-2011 19:37:02 27.1 C 5.69 g/m*3 27.1 C 0 km/h
1280 06-07-2011 19:49:01 25.4 C 6.36 g/m*3 25.4 C 0 km/h
1281 06-07-2011 20:01:02 23.9 C 6.71 g/m*3 23.9 C 0 km/h
1282 06-07-2011 20:13:02 23.1 C 7.44 g/m*3 23.1 C 0 km/h
1283 06-07-2011 20:25:01 22 C 7.96 g/m*3 22 C 0 km/h
1284 06-07-2011 20:37:01 21.3 C 8.39 g/m*3 21.3 C 0 km/h
1285 06-07-2011 20:49:02 20.8 C 8.51 g/m*3 20.8 C 0 km/h
1286 06-07-2011 21:01:02 20.4 C 8.31 g/m*3 20.4 C 0 km/h
1287 06-07-2011 21:13:02 20 C 8.3 g/m*3 20 C 0 km/h
1288 06-07-2011 21:25:02 19.9 C 8.08 g/m*3 19.9 C 0 km/h
1289 06-07-2011 21:37:02 19.5 C 8.22 g/m*3 19.5 C 0 km/h
1290 06-07-2011 21:49:01 19.4 C 8.01 g/m*3 19.4 C 0 km/h
1291 06-07-2011 22:01:02 18.9 C 8.26 g/m*3 18.9 C 0 km/h
1292 06-07-2011 22:13:02 17.4 C 8.3 g/m*3 17.4 C 0 km/h
1293 06-07-2011 22:25:01 16.6 C 8.33 g/m*3 16.6 C 0 km/h
1294 06-07-2011 22:37:02 16.4 C 8.51 g/m*3 16.4 C 0 km/h
1295 06-07-2011 22:49:01 15.7 C 8.3 g/m*3 15.7 C 0 km/h
1296 06-07-2011 23:02:02 15.3 C 8.23 g/m*3 15.3 C 0 km/h
1297 06-07-2011 23:14:02 15.4 C 8.67 g/m*3 15.4 C 0 km/h
1298 06-07-2011 23:26:02 15.2 C 8.7 g/m*3 15.2 C 0 km/h
1299 06-07-2011 23:38:02 15.3 C 8.75 g/m*3 15.3 C 0 km/h
1300 06-07-2011 23:50:02 15.7 C 8.83 g/m*3 15.7 C 0 km/h
Sensor: Nr:Datum:Temp:Abs-Feuchte:Windchill:Wind:
Aussen-T/F 1301 07-07-2011 00:02:02 15.7 C 8.83 g/m*3 15.7 C 0 km/h
1302 07-07-2011 00:14:02 15.6 C 8.91 g/m*3 15.6 C 0 km/h
1303 07-07-2011 00:26:02 15.7 C 8.96 g/m*3 15.7 C 0 km/h
1304 07-07-2011 00:38:03 15.6 C 8.91 g/m*3 15.6 C 0 km/h
1305 07-07-2011 00:50:03 15.4 C 8.93 g/m*3 15.4 C 0 km/h
1306 07-07-2011 01:02:03 14.6 C 8.88 g/m*3 14.6 C 0 km/h
1307 07-07-2011 01:14:03 13.8 C 8.58 g/m*3 13.8 C 0 km/h
1308 07-07-2011 01:26:03 13.5 C 8.66 g/m*3 13.5 C 0 km/h
1309 07-07-2011 01:38:03 13.2 C 8.38 g/m*3 13.2 C 0 km/h
1310 07-07-2011 01:50:03 13.4 C 8.6 g/m*3 13.4 C 0 km/h
1311 07-07-2011 02:02:03 13.5 C 8.54 g/m*3 13.5 C 0 km/h
1312 07-07-2011 02:14:03 14 C 8.68 g/m*3 14 C 0 km/h
1313 07-07-2011 02:26:03 14.1 C 8.74 g/m*3 14.1 C 0 km/h
1314 07-07-2011 02:38:03 14 C 8.68 g/m*3 14 C 0 km/h
1315 07-07-2011 02:50:03 14.3 C 8.97 g/m*3 14.3 C 0 km/h
1316 07-07-2011 03:02:03 14.7 C 9.07 g/m*3 14.7 C 0 km/h
1317 07-07-2011 03:14:03 14.3 C 8.97 g/m*3 14.3 C 0 km/h
1318 07-07-2011 03:26:03 13.8 C 8.94 g/m*3 13.8 C 0 km/h
1319 07-07-2011 03:38:03 14 C 9.17 g/m*3 14 C 0 km/h
1320 07-07-2011 03:50:03 14.4 C 9.52 g/m*3 14.4 C 0 km/h
1321 07-07-2011 04:02:03 14.5 C 9.45 g/m*3 14.5 C 0 km/h
1322 07-07-2011 04:14:03 14.1 C 9.22 g/m*3 14.1 C 0 km/h
1323 07-07-2011 04:26:03 13.9 C 9.59 g/m*3 13.9 C 0 km/h
1324 07-07-2011 04:38:03 14.1 C 9.83 g/m*3 14.1 C 0 km/h
1325 07-07-2011 04:50:03 13.9 C 9.83 g/m*3 13.9 C 0 km/h
Sensor: Nr:Datum:Temp:Abs-Feuchte:Windchill:Wind:
Aussen-T/F 1326 07-07-2011 05:02:03 13.8 C 9.89 g/m*3 13.8 C 0 km/h
1327 07-07-2011 05:14:04 13.6 C 9.77 g/m*3 13.6 C 0 km/h
1328 07-07-2011 05:26:04 13.7 C 9.83 g/m*3 13.7 C 0 km/h
1329 07-07-2011 05:38:04 13.2 C 9.53 g/m*3 13.2 C 0 km/h
1330 07-07-2011 05:50:04 13.3 C 9.7 g/m*3 13.3 C 0 km/h
1331 07-07-2011 06:02:04 13.7 C 10.07 g/m*3 13.7 C 0 km/h
1332 07-07-2011 06:14:04 13.5 C 10.06 g/m*3 13.5 C 0 km/h
1333 07-07-2011 06:26:04 13.8 C 10.25 g/m*3 13.8 C 0 km/h
1334 07-07-2011 06:38:04 13.9 C 10.31 g/m*3 13.9 C 0 km/h
1335 07-07-2011 06:50:04 14.1 C 10.32 g/m*3 14.1 C 0 km/h
1336 07-07-2011 07:02:04 14.4 C 10.51 g/m*3 14.4 C 0 km/h
1337 07-07-2011 07:14:04 14.3 C 10.2 g/m*3 14.3 C 0 km/h
1338 07-07-2011 07:26:02 14.9 C 10.45 g/m*3 14.9 C 0 km/h
1339 07-07-2011 07:38:01 15.4 C 10.38 g/m*3 15.4 C 0 km/h
1340 07-07-2011 07:50:01 16.1 C 10.14 g/m*3 16.1 C 0 km/h
1341 07-07-2011 08:02:02 16.4 C 9.77 g/m*3 16.4 C 0 km/h
1342 07-07-2011 08:14:02 16.8 C 9.44 g/m*3 16.8 C 0 km/h
1343 07-07-2011 08:26:02 17.5 C 9.54 g/m*3 17.5 C 0 km/h
1344 07-07-2011 08:38:01 17.7 C 9.35 g/m*3 17.7 C 0 km/h
1345 07-07-2011 08:50:02 18.3 C 9.54 g/m*3 18.3 C 0 km/h
1346 07-07-2011 09:02:01 18.4 C 9.44 g/m*3 18.4 C 0 km/h
1347 07-07-2011 09:14:01 18.4 C 9.12 g/m*3 18.4 C 0 km/h
1348 07-07-2011 09:26:02 18.3 C 9.38 g/m*3 18.3 C 0 km/h
1349 07-07-2011 09:38:01 18.3 C 9.85 g/m*3 18.3 C 0 km/h
1350 07-07-2011 09:50:02 18.5 C 9.81 g/m*3 18.5 C 0 km/h
Sensor: Nr:Datum:Temp:Abs-Feuchte:Windchill:Wind:
Aussen-T/F 1351 07-07-2011 10:02:02 19.1 C 9.51 g/m*3 19.1 C 0 km/h
1352 07-07-2011 10:14:03 19.9 C 8.25 g/m*3 19.9 C 0 km/h
1353 07-07-2011 10:26:01 20.3 C 8.27 g/m*3 20.3 C 0 km/h
1354 07-07-2011 10:38:02 21 C 8.06 g/m*3 21 C 0 km/h
1355 07-07-2011 10:50:01 21.4 C 7.69 g/m*3 21.4 C 0 km/h
1356 07-07-2011 11:02:02 22.4 C 7.75 g/m*3 22.4 C 0 km/h
1357 07-07-2011 11:14:02 22.5 C 7.59 g/m*3 22.5 C 0 km/h
1358 07-07-2011 11:26:02 22.9 C 7.56 g/m*3 22.9 C 0 km/h
1359 07-07-2011 11:38:02 23.9 C 6.71 g/m*3 23.9 C 0 km/h
1360 07-07-2011 11:50:02 22.5 C 5.99 g/m*3 22.5 C 0 km/h
1361 07-07-2011 12:02:02 23.4 C 6.1 g/m*3 23.4 C 0 km/h
1362 07-07-2011 12:14:02 23.4 C 6.31 g/m*3 23.4 C 0 km/h
1363 07-07-2011 12:26:02 24.3 C 6.2 g/m*3 24.3 C 0 km/h
1364 07-07-2011 12:38:01 23.8 C 6.02 g/m*3 23.8 C 0 km/h
1365 07-07-2011 12:50:02 25 C 6.22 g/m*3 25 C 0 km/h
1366 07-07-2011 13:02:01 25.7 C 6.22 g/m*3 25.7 C 0 km/h
1367 07-07-2011 13:14:01 24.9 C 6.18 g/m*3 24.9 C 0 km/h
1368 07-07-2011 13:26:02 26.8 C 6.36 g/m*3 26.8 C 0 km/h
1369 07-07-2011 13:38:01 25.8 C 6.26 g/m*3 25.8 C 0 km/h
1370 07-07-2011 13:50:02 28.2 C 6.32 g/m*3 28.2 C 0 km/h
1371 07-07-2011 14:02:01 25.7 C 5.99 g/m*3 25.7 C 0 km/h
1372 07-07-2011 14:14:01 25.8 C 6.02 g/m*3 25.8 C 0 km/h
1373 07-07-2011 14:26:01 24.9 C 6.18 g/m*3 24.9 C 0 km/h
1374 07-07-2011 14:38:01 28.5 C 6.15 g/m*3 28.5 C 0 km/h
1375 07-07-2011 14:50:02 27.4 C 6.05 g/m*3 27.4 C 0 km/h
Sensor: Nr:Datum:Temp:Abs-Feuchte:Windchill:Wind:
Aussen-T/F 1376 07-07-2011 15:02:02 27.5 C 6.08 g/m*3 27.5 C 0 km/h
1377 07-07-2011 15:14:02 26.7 C 6.33 g/m*3 26.7 C 0 km/h
1378 07-07-2011 15:26:02 25.8 C 6.26 g/m*3 25.8 C 0 km/h
1379 07-07-2011 15:38:02 26.2 C 6.15 g/m*3 26.2 C 0 km/h
1380 07-07-2011 15:50:01 25.6 C 6.19 g/m*3 25.6 C 0 km/h
1381 07-07-2011 16:02:02 25.8 C 6.26 g/m*3 25.8 C 0 km/h
1382 07-07-2011 16:14:02 24.8 C 6.15 g/m*3 24.8 C 0 km/h
1383 07-07-2011 16:26:01 24.8 C 6.15 g/m*3 24.8 C 0 km/h
1384 07-07-2011 16:38:02 24.2 C 7.26 g/m*3 24.2 C 0 km/h
1385 07-07-2011 16:50:02 24 C 7.61 g/m*3 24 C 0 km/h
1386 07-07-2011 17:02:02 23.9 C 8 g/m*3 23.9 C 0 km/h
1387 07-07-2011 17:14:02 24.1 C 7.88 g/m*3 24.1 C 0 km/h
1388 07-07-2011 17:26:01 23.2 C 8.11 g/m*3 23.2 C 0 km/h
1389 07-07-2011 17:38:02 23.5 C 6.98 g/m*3 23.5 C 0 km/h
1390 07-07-2011 17:50:02 23.6 C 7.44 g/m*3 23.6 C 0 km/h
1391 07-07-2011 18:02:02 23.4 C 6.73 g/m*3 23.4 C 0 km/h
1392 07-07-2011 18:14:02 23.7 C 7.06 g/m*3 23.7 C 0 km/h
1393 07-07-2011 18:26:02 23.3 C 7.95 g/m*3 23.3 C 0 km/h
1394 07-07-2011 18:38:02 23.6 C 7.44 g/m*3 23.6 C 0 km/h
1395 07-07-2011 18:50:01 23.4 C 6.94 g/m*3 23.4 C 0 km/h
1396 07-07-2011 19:02:02 22.6 C 8.44 g/m*3 22.6 C 0 km/h
1397 07-07-2011 19:14:02 22.5 C 8.59 g/m*3 22.5 C 0 km/h
1398 07-07-2011 19:26:02 22.3 C 8.69 g/m*3 22.3 C 0 km/h
1399 07-07-2011 19:38:02 21.8 C 9.02 g/m*3 21.8 C 0 km/h
1400 07-07-2011 19:50:02 21.6 C 8.91 g/m*3 21.6 C 0 km/h
Sensor: Nr:Datum:Temp:Abs-Feuchte:Windchill:Wind:
Aussen-T/F 1401 07-07-2011 20:02:01 21.1 C 8.29 g/m*3 21.1 C 0 km/h
1402 07-07-2011 20:14:01 21 C 8.43 g/m*3 21 C 0 km/h
1403 07-07-2011 20:26:02 21.1 C 8.29 g/m*3 21.1 C 0 km/h
1404 07-07-2011 20:38:01 21 C 8.43 g/m*3 21 C 0 km/h
1405 07-07-2011 20:50:02 20.8 C 8.33 g/m*3 20.8 C 0 km/h
1406 07-07-2011 21:02:01 21 C 8.43 g/m*3 21 C 0 km/h
1407 07-07-2011 21:14:01 20.6 C 8.59 g/m*3 20.6 C 0 km/h
1408 07-07-2011 21:26:01 20.3 C 8.62 g/m*3 20.3 C 0 km/h
1409 07-07-2011 21:38:02 20 C 8.64 g/m*3 20 C 0 km/h
1410 07-07-2011 21:51:03 19.7 C 8.66 g/m*3 19.7 C 0 km/h
1411 07-07-2011 22:03:03 19.5 C 8.73 g/m*3 19.5 C 0 km/h
1412 07-07-2011 22:15:03 18.7 C 9.13 g/m*3 18.7 C 0 km/h
1413 07-07-2011 22:27:03 18.4 C 8.97 g/m*3 18.4 C 0 km/h
1414 07-07-2011 22:39:03 18.5 C 9.02 g/m*3 18.5 C 0 km/h
1415 07-07-2011 22:51:03 18.8 C 8.86 g/m*3 18.8 C 0 km/h
1416 07-07-2011 23:03:03 18.8 C 8.86 g/m*3 18.8 C 0 km/h
1417 07-07-2011 23:15:03 18.7 C 8.81 g/m*3 18.7 C 0 km/h
1418 07-07-2011 23:27:03 18.4 C 8.81 g/m*3 18.4 C 0 km/h
1419 07-07-2011 23:39:03 18.2 C 8.86 g/m*3 18.2 C 0 km/h
1420 07-07-2011 23:51:03 18.1 C 8.81 g/m*3 18.1 C 0 km/h
1421 08-07-2011 00:03:03 17.8 C 8.95 g/m*3 17.8 C 0 km/h
1422 08-07-2011 00:15:03 17.3 C 8.99 g/m*3 17.3 C 0 km/h
1423 08-07-2011 00:27:03 17.1 C 9.03 g/m*3 17.1 C 0 km/h
1424 08-07-2011 00:39:03 17.1 C 9.03 g/m*3 17.1 C 0 km/h
1425 08-07-2011 00:51:03 17.2 C 9.08 g/m*3 17.2 C 0 km/h
Sensor: Nr:Datum:Temp:Abs-Feuchte:Windchill:Wind:
Aussen-T/F 1426 08-07-2011 01:03:03 17.3 C 9.13 g/m*3 17.3 C 0 km/h
1427 08-07-2011 01:15:03 17.4 C 9.04 g/m*3 17.4 C 0 km/h
1428 08-07-2011 01:27:03 17.3 C 9.13 g/m*3 17.3 C 0 km/h
1429 08-07-2011 01:39:04 17.5 C 9.09 g/m*3 17.5 C 0 km/h
1430 08-07-2011 01:51:04 17.3 C 8.99 g/m*3 17.3 C 0 km/h
1431 08-07-2011 02:03:04 17.1 C 9.03 g/m*3 17.1 C 0 km/h
1432 08-07-2011 02:15:04 17.2 C 9.08 g/m*3 17.2 C 0 km/h
1433 08-07-2011 02:27:04 17.1 C 9.03 g/m*3 17.1 C 0 km/h
1434 08-07-2011 02:39:04 16.9 C 9.06 g/m*3 16.9 C 0 km/h
1435 08-07-2011 02:51:04 16.8 C 9.29 g/m*3 16.8 C 0 km/h
1436 08-07-2011 03:03:04 17 C 9.26 g/m*3 17 C 0 km/h
1437 08-07-2011 03:15:04 16.7 C 9.24 g/m*3 16.7 C 0 km/h
1438 08-07-2011 03:27:04 16.9 C 9.35 g/m*3 16.9 C 0 km/h
1439 08-07-2011 03:39:04 17 C 9.26 g/m*3 17 C 0 km/h
1440 08-07-2011 03:51:04 16.4 C 9.35 g/m*3 16.4 C 0 km/h
1441 08-07-2011 04:03:04 15.8 C 9.69 g/m*3 15.8 C 0 km/h
1442 08-07-2011 04:15:04 15.3 C 9.92 g/m*3 15.3 C 0 km/h
1443 08-07-2011 04:27:04 15.2 C 10.25 g/m*3 15.2 C 0 km/h
1444 08-07-2011 04:39:04 14.9 C 10.32 g/m*3 14.9 C 0 km/h
1445 08-07-2011 04:51:04 14.9 C 10.58 g/m*3 14.9 C 0 km/h
1446 08-07-2011 05:03:04 14.7 C 10.58 g/m*3 14.7 C 0 km/h
1447 08-07-2011 05:15:04 14.5 C 10.57 g/m*3 14.5 C 0 km/h
1448 08-07-2011 05:27:04 14.5 C 10.7 g/m*3 14.5 C 0 km/h
1449 08-07-2011 05:39:04 14.4 C 10.63 g/m*3 14.4 C 0 km/h
1450 08-07-2011 05:51:04 14.3 C 10.57 g/m*3 14.3 C 0 km/h
Sensor: Nr:Datum:Temp:Abs-Feuchte:Windchill:Wind:
Aussen-T/F 1451 08-07-2011 06:03:04 14 C 10.37 g/m*3 14 C 0 km/h
1452 08-07-2011 06:15:05 13.7 C 10.3 g/m*3 13.7 C 0 km/h
1453 08-07-2011 06:27:05 13.6 C 10.24 g/m*3 13.6 C 0 km/h
1454 08-07-2011 06:39:05 13.6 C 10.24 g/m*3 13.6 C 0 km/h
1455 08-07-2011 06:51:05 13.9 C 10.43 g/m*3 13.9 C 0 km/h
1456 08-07-2011 07:03:05 14.1 C 10.32 g/m*3 14.1 C 0 km/h
1457 08-07-2011 07:15:05 14.5 C 10.32 g/m*3 14.5 C 0 km/h
1458 08-07-2011 07:27:05 14.6 C 10.14 g/m*3 14.6 C 0 km/h
1459 08-07-2011 07:39:03 14.7 C 10.07 g/m*3 14.7 C 0 km/h
1460 08-07-2011 07:51:02 15 C 10.13 g/m*3 15 C 0 km/h
1461 08-07-2011 08:03:02 15.6 C 9.84 g/m*3 15.6 C 0 km/h
1462 08-07-2011 08:15:02 15.8 C 9.69 g/m*3 15.8 C 0 km/h
1463 08-07-2011 08:27:02 16 C 9.81 g/m*3 16 C 0 km/h
1464 08-07-2011 08:39:02 17.2 C 9.81 g/m*3 17.2 C 0 km/h
1465 08-07-2011 08:51:01 17.8 C 9.11 g/m*3 17.8 C 0 km/h
1466 08-07-2011 09:03:02 17.9 C 8.7 g/m*3 17.9 C 0 km/h
1467 08-07-2011 09:15:02 17.8 C 8.65 g/m*3 17.8 C 0 km/h
1468 08-07-2011 09:27:02 17.5 C 8.5 g/m*3 17.5 C 0 km/h
1469 08-07-2011 09:39:01 17.8 C 8.65 g/m*3 17.8 C 0 km/h
1470 08-07-2011 09:51:02 18.1 C 8.5 g/m*3 18.1 C 0 km/h
1471 08-07-2011 10:03:01 18.5 C 8.23 g/m*3 18.5 C 0 km/h
1472 08-07-2011 10:15:01 18.9 C 7.94 g/m*3 18.9 C 0 km/h
1473 08-07-2011 10:27:01 18.9 C 7.94 g/m*3 18.9 C 0 km/h
1474 08-07-2011 10:39:02 18.9 C 8.1 g/m*3 18.9 C 0 km/h
1475 08-07-2011 10:51:02 20.8 C 7.79 g/m*3 20.8 C 0 km/h
Sensor: Nr:Datum:Temp:Abs-Feuchte:Windchill:Wind:
Aussen-T/F 1476 08-07-2011 11:03:02 20.3 C 7.03 g/m*3 20.3 C 0 km/h
1477 08-07-2011 11:15:02 20.2 C 6.99 g/m*3 20.2 C 0 km/h
1478 08-07-2011 11:27:02 19.9 C 7.04 g/m*3 19.9 C 0 km/h
1479 08-07-2011 11:39:02 20.3 C 6.68 g/m*3 20.3 C 0 km/h
1480 08-07-2011 11:51:02 20.2 C 6.82 g/m*3 20.2 C 0 km/h
1481 08-07-2011 12:03:02 20.7 C 6.84 g/m*3 20.7 C 0 km/h
1482 08-07-2011 12:15:02 20.6 C 6.8 g/m*3 20.6 C 0 km/h
1483 08-07-2011 12:27:02 20.9 C 6.92 g/m*3 20.9 C 0 km/h
1484 08-07-2011 12:39:01 21.8 C 6.72 g/m*3 21.8 C 0 km/h
1485 08-07-2011 12:51:02 21 C 6.78 g/m*3 21 C 0 km/h
1486 08-07-2011 13:03:01 21.9 C 6.75 g/m*3 21.9 C 0 km/h
1487 08-07-2011 13:15:02 22.3 C 6.91 g/m*3 22.3 C 0 km/h
1488 08-07-2011 13:27:02 23.7 C 6.42 g/m*3 23.7 C 0 km/h
1489 08-07-2011 13:39:01 25.9 C 6.54 g/m*3 25.9 C 0 km/h
1490 08-07-2011 13:51:03 28.4 C 6.12 g/m*3 28.4 C 0 km/h
1491 08-07-2011 14:03:02 27.7 C 5.62 g/m*3 27.7 C 0 km/h
1492 08-07-2011 14:15:02 25.4 C 5.41 g/m*3 25.4 C 0 km/h
1493 08-07-2011 14:27:03 23.7 C 6.42 g/m*3 23.7 C 0 km/h
1494 08-07-2011 14:39:02 25 C 5.75 g/m*3 25 C 0 km/h
1495 08-07-2011 14:51:02 24.3 C 5.97 g/m*3 24.3 C 0 km/h
1496 08-07-2011 15:03:01 25.6 C 6.19 g/m*3 25.6 C 0 km/h
1497 08-07-2011 15:15:02 24.5 C 5.82 g/m*3 24.5 C 0 km/h
1498 08-07-2011 15:27:02 26.2 C 6.4 g/m*3 26.2 C 0 km/h
1499 08-07-2011 15:39:02 26.7 C 6.33 g/m*3 26.7 C 0 km/h
1500 08-07-2011 15:51:01 23.8 C 6.24 g/m*3 23.8 C 0 km/h
Sensor: Nr:Datum:Temp:Abs-Feuchte:Windchill:Wind:
Aussen-T/F 1501 08-07-2011 16:03:02 26.2 C 5.91 g/m*3 26.2 C 0 km/h
1502 08-07-2011 16:15:01 24.4 C 6.23 g/m*3 24.4 C 0 km/h
1503 08-07-2011 16:27:01 27.6 C 5.85 g/m*3 27.6 C 0 km/h
1504 08-07-2011 16:39:02 26 C 6.09 g/m*3 26 C 0 km/h
1505 08-07-2011 16:51:02 23.9 C 6.06 g/m*3 23.9 C 0 km/h
1506 08-07-2011 17:03:02 24.8 C 5.69 g/m*3 24.8 C 0 km/h
1507 08-07-2011 17:15:01 26 C 5.11 g/m*3 26 C 0 km/h
1508 08-07-2011 17:27:01 26.3 C 5.69 g/m*3 26.3 C 0 km/h
1509 08-07-2011 17:39:02 27.1 C 5.43 g/m*3 27.1 C 0 km/h
1510 08-07-2011 17:51:02 27.7 C 5.62 g/m*3 27.7 C 0 km/h
1511 08-07-2011 18:03:02 28.4 C 5.56 g/m*3 28.4 C 0 km/h
1512 08-07-2011 18:15:01 28.7 C 5.65 g/m*3 28.7 C 0 km/h
1513 08-07-2011 18:27:01 27.1 C 5.18 g/m*3 27.1 C 0 km/h
1514 08-07-2011 18:39:02 27 C 5.15 g/m*3 27 C 0 km/h
1515 08-07-2011 18:51:02 26.9 C 5.12 g/m*3 26.9 C 0 km/h
1516 08-07-2011 19:03:02 26.6 C 5.03 g/m*3 26.6 C 0 km/h
1517 08-07-2011 19:15:02 26 C 4.87 g/m*3 26 C 0 km/h
1518 08-07-2011 19:27:02 26.1 C 4.9 g/m*3 26.1 C 0 km/h
1519 08-07-2011 19:39:02 26 C 4.87 g/m*3 26 C 0 km/h
1520 08-07-2011 19:51:02 24.4 C 5.56 g/m*3 24.4 C 0 km/h
1521 08-07-2011 20:03:02 23.7 C 5.78 g/m*3 23.7 C 0 km/h
1522 08-07-2011 20:15:02 23 C 6.58 g/m*3 23 C 0 km/h
1523 08-07-2011 20:27:02 22.7 C 7.27 g/m*3 22.7 C 0 km/h
1524 08-07-2011 20:39:01 22.2 C 7.26 g/m*3 22.2 C 0 km/h
1525 08-07-2011 20:51:02 21.6 C 7.78 g/m*3 21.6 C 0 km/h
Sensor: Nr:Datum:Temp:Abs-Feuchte:Windchill:Wind:
Aussen-T/F 1526 08-07-2011 21:03:01 20.8 C 7.97 g/m*3 20.8 C 0 km/h
1527 08-07-2011 21:15:02 19.9 C 8.08 g/m*3 19.9 C 0 km/h
1528 08-07-2011 21:27:02 19.2 C 8.08 g/m*3 19.2 C 0 km/h
1529 08-07-2011 21:39:02 18.5 C 7.91 g/m*3 18.5 C 0 km/h
1530 08-07-2011 21:51:02 18.2 C 7.62 g/m*3 18.2 C 0 km/h
1531 08-07-2011 22:03:02 18 C 7.53 g/m*3 18 C 0 km/h
1532 08-07-2011 22:16:03 17.8 C 7.59 g/m*3 17.8 C 0 km/h
1533 08-07-2011 22:28:03 17.7 C 7.85 g/m*3 17.7 C 0 km/h
1534 08-07-2011 22:40:03 17.9 C 7.79 g/m*3 17.9 C 0 km/h
1535 08-07-2011 22:52:03 17.9 C 7.63 g/m*3 17.9 C 0 km/h
1536 08-07-2011 23:04:03 17.1 C 7.42 g/m*3 17.1 C 0 km/h
1537 08-07-2011 23:16:03 16.6 C 7.77 g/m*3 16.6 C 0 km/h
1538 08-07-2011 23:28:03 16.5 C 8 g/m*3 16.5 C 0 km/h
1539 08-07-2011 23:40:03 16.6 C 8.05 g/m*3 16.6 C 0 km/h
1540 08-07-2011 23:52:03 16.6 C 8.19 g/m*3 16.6 C 0 km/h
1541 09-07-2011 00:04:03 16.4 C 8.1 g/m*3 16.4 C 0 km/h
1542 09-07-2011 00:16:03 16.4 C 8.23 g/m*3 16.4 C 0 km/h
1543 09-07-2011 00:28:03 16.1 C 8.22 g/m*3 16.1 C 0 km/h
1544 09-07-2011 00:40:03 16 C 8.31 g/m*3 16 C 0 km/h
1545 09-07-2011 00:52:03 15.6 C 8.38 g/m*3 15.6 C 0 km/h
1546 09-07-2011 01:04:03 15.3 C 8.36 g/m*3 15.3 C 0 km/h
1547 09-07-2011 01:16:03 15.6 C 8.25 g/m*3 15.6 C 0 km/h
1548 09-07-2011 01:28:03 15.6 C 8.25 g/m*3 15.6 C 0 km/h
1549 09-07-2011 01:40:03 15.7 C 8.3 g/m*3 15.7 C 0 km/h
1550 09-07-2011 01:52:03 15.5 C 8.2 g/m*3 15.5 C 0 km/h
Sensor: Nr:Datum:Temp:Abs-Feuchte:Windchill:Wind:
Aussen-T/F 1551 09-07-2011 02:04:03 15.3 C 8.23 g/m*3 15.3 C 0 km/h
1552 09-07-2011 02:16:03 15.2 C 8.31 g/m*3 15.2 C 0 km/h
1553 09-07-2011 02:28:03 15.1 C 8.39 g/m*3 15.1 C 0 km/h
1554 09-07-2011 02:40:04 14.7 C 8.44 g/m*3 14.7 C 0 km/h
1555 09-07-2011 02:52:04 14.3 C 8.23 g/m*3 14.3 C 0 km/h
1556 09-07-2011 03:04:04 14.2 C 8.3 g/m*3 14.2 C 0 km/h
1557 09-07-2011 03:16:04 14 C 8.2 g/m*3 14 C 0 km/h
1558 09-07-2011 03:28:04 14 C 8.44 g/m*3 14 C 0 km/h
1559 09-07-2011 03:40:04 13.9 C 8.51 g/m*3 13.9 C 0 km/h
1560 09-07-2011 03:52:04 13.8 C 8.46 g/m*3 13.8 C 0 km/h
1561 09-07-2011 04:04:04 13.7 C 8.41 g/m*3 13.7 C 0 km/h
1562 09-07-2011 04:16:04 13.8 C 8.46 g/m*3 13.8 C 0 km/h
1563 09-07-2011 04:28:04 14.1 C 8.5 g/m*3 14.1 C 0 km/h
1564 09-07-2011 04:40:04 14.1 C 8.62 g/m*3 14.1 C 0 km/h
1565 09-07-2011 04:52:04 14.2 C 8.67 g/m*3 14.2 C 0 km/h
1566 09-07-2011 05:04:04 14.2 C 8.79 g/m*3 14.2 C 0 km/h
1567 09-07-2011 05:16:04 14.3 C 8.85 g/m*3 14.3 C 0 km/h
1568 09-07-2011 05:28:04 14.6 C 9.01 g/m*3 14.6 C 0 km/h
1569 09-07-2011 05:40:04 14.6 C 9.01 g/m*3 14.6 C 0 km/h
1570 09-07-2011 05:52:04 14.7 C 9.07 g/m*3 14.7 C 0 km/h
1571 09-07-2011 06:04:04 14.8 C 9.12 g/m*3 14.8 C 0 km/h
1572 09-07-2011 06:16:04 15.1 C 9.16 g/m*3 15.1 C 0 km/h
1573 09-07-2011 06:28:04 15.3 C 9.14 g/m*3 15.3 C 0 km/h
1574 09-07-2011 06:40:03 15.4 C 9.2 g/m*3 15.4 C 0 km/h
1575 09-07-2011 06:52:02 15.7 C 9.37 g/m*3 15.7 C 0 km/h
Sensor: Nr:Datum:Temp:Abs-Feuchte:Windchill:Wind:
Aussen-T/F 1576 09-07-2011 07:04:01 15.9 C 9.34 g/m*3 15.9 C 0 km/h
1577 09-07-2011 07:16:02 16.1 C 9.32 g/m*3 16.1 C 0 km/h
1578 09-07-2011 07:28:02 16.2 C 9.52 g/m*3 16.2 C 0 km/h
1579 09-07-2011 07:40:02 16.5 C 9.69 g/m*3 16.5 C 0 km/h
1580 09-07-2011 07:52:02 16.9 C 9.49 g/m*3 16.9 C 0 km/h
1581 09-07-2011 08:04:03 16.8 C 9.44 g/m*3 16.8 C 0 km/h
1582 09-07-2011 08:16:02 17.8 C 9.56 g/m*3 17.8 C 0 km/h
1583 09-07-2011 08:28:02 19.1 C 8.69 g/m*3 19.1 C 0 km/h
1584 09-07-2011 08:40:02 19.7 C 9 g/m*3 19.7 C 0 km/h
1585 09-07-2011 08:52:01 20.2 C 8.92 g/m*3 20.2 C 0 km/h
1586 09-07-2011 09:04:02 21.2 C 9.27 g/m*3 21.2 C 0 km/h
1587 09-07-2011 09:16:01 21.4 C 8.62 g/m*3 21.4 C 0 km/h
1588 09-07-2011 09:28:01 22 C 8.35 g/m*3 22 C 0 km/h
1589 09-07-2011 09:40:02 22.9 C 8.38 g/m*3 22.9 C 0 km/h
1590 09-07-2011 09:52:02 22.5 C 8.99 g/m*3 22.5 C 0 km/h
1591 09-07-2011 10:04:02 22.4 C 9.53 g/m*3 22.4 C 0 km/h
1592 09-07-2011 10:16:01 24 C 7.61 g/m*3 24 C 0 km/h
1593 09-07-2011 10:28:01 24.7 C 7.02 g/m*3 24.7 C 0 km/h
1594 09-07-2011 10:40:02 25.1 C 7.41 g/m*3 25.1 C 0 km/h
1595 09-07-2011 10:52:02 25.7 C 7.42 g/m*3 25.7 C 0 km/h
1596 09-07-2011 11:04:03 25.1 C 6.94 g/m*3 25.1 C 0 km/h
1597 09-07-2011 11:16:02 25.4 C 7.06 g/m*3 25.4 C 0 km/h
1598 09-07-2011 11:28:02 25.6 C 7.14 g/m*3 25.6 C 0 km/h
1599 09-07-2011 11:40:02 25 C 7.37 g/m*3 25 C 0 km/h
1600 09-07-2011 11:52:01 24.9 C 7.32 g/m*3 24.9 C 0 km/h
Sensor: Nr:Datum:Temp:Abs-Feuchte:Windchill:Wind:
Aussen-T/F 1601 09-07-2011 12:04:02 25.2 C 7.22 g/m*3 25.2 C 0 km/h
1602 09-07-2011 12:16:01 24.7 C 7.24 g/m*3 24.7 C 0 km/h
1603 09-07-2011 12:28:01 25.1 C 7.41 g/m*3 25.1 C 0 km/h
1604 09-07-2011 12:40:01 26.2 C 6.89 g/m*3 26.2 C 0 km/h
1605 09-07-2011 12:52:01 25.4 C 7.06 g/m*3 25.4 C 0 km/h
1606 09-07-2011 13:04:02 26.4 C 6.97 g/m*3 26.4 C 0 km/h
1607 09-07-2011 13:16:02 26.1 C 6.37 g/m*3 26.1 C 0 km/h
1608 09-07-2011 13:28:02 28.3 C 6.91 g/m*3 28.3 C 0 km/h
1609 09-07-2011 13:40:01 28.9 C 6 g/m*3 28.9 C 0 km/h
1610 09-07-2011 13:52:02 30.4 C 6.2 g/m*3 30.4 C 0 km/h
1611 09-07-2011 14:04:01 30.3 C 6.16 g/m*3 30.3 C 0 km/h
1612 09-07-2011 14:16:02 27.9 C 5.68 g/m*3 27.9 C 0 km/h
1613 09-07-2011 14:28:02 30.1 C 6.1 g/m*3 30.1 C 0 km/h
1614 09-07-2011 14:40:01 30 C 6.06 g/m*3 30 C 0 km/h
1615 09-07-2011 14:52:03 29 C 5.74 g/m*3 29 C 0 km/h
1616 09-07-2011 15:04:02 29.7 C 5.97 g/m*3 29.7 C 0 km/h
1617 09-07-2011 15:16:02 29 C 5.74 g/m*3 29 C 0 km/h
1618 09-07-2011 15:28:02 29 C 5.74 g/m*3 29 C 0 km/h
1619 09-07-2011 15:40:02 29.3 C 5.84 g/m*3 29.3 C 0 km/h
1620 09-07-2011 15:52:02 30.4 C 6.2 g/m*3 30.4 C 0 km/h
1621 09-07-2011 16:04:01 30 C 6.06 g/m*3 30 C 0 km/h
1622 09-07-2011 16:16:02 28.9 C 5.71 g/m*3 28.9 C 0 km/h
1623 09-07-2011 16:28:02 28.1 C 5.47 g/m*3 28.1 C 0 km/h
1624 09-07-2011 16:40:02 30.3 C 6.16 g/m*3 30.3 C 0 km/h
1625 09-07-2011 16:52:02 30.3 C 6.16 g/m*3 30.3 C 0 km/h
Sensor: Nr:Datum:Temp:Abs-Feuchte:Windchill:Wind:
Aussen-T/F 1626 09-07-2011 17:04:01 31.3 C 6.5 g/m*3 31.3 C 0 km/h
1627 09-07-2011 17:16:01 27.9 C 5.41 g/m*3 27.9 C 0 km/h
1628 09-07-2011 17:28:01 28.1 C 5.47 g/m*3 28.1 C 0 km/h
1629 09-07-2011 17:40:02 27.8 C 5.38 g/m*3 27.8 C 0 km/h
1630 09-07-2011 17:52:02 29.7 C 5.97 g/m*3 29.7 C 0 km/h
1631 09-07-2011 18:04:02 28.9 C 5.71 g/m*3 28.9 C 0 km/h
1632 09-07-2011 18:16:02 26.8 C 5.35 g/m*3 26.8 C 0 km/h
1633 09-07-2011 18:28:02 27.3 C 5.76 g/m*3 27.3 C 0 km/h
1634 09-07-2011 18:40:02 28.1 C 5.47 g/m*3 28.1 C 0 km/h
1635 09-07-2011 18:52:02 26.5 C 5.51 g/m*3 26.5 C 0 km/h
1636 09-07-2011 19:04:02 26 C 5.84 g/m*3 26 C 0 km/h
1637 09-07-2011 19:16:02 23.7 C 8.77 g/m*3 23.7 C 0 km/h
1638 09-07-2011 19:28:02 22.5 C 8.39 g/m*3 22.5 C 0 km/h
1639 09-07-2011 19:40:02 22.3 C 8.49 g/m*3 22.3 C 0 km/h
1640 09-07-2011 19:52:01 22.3 C 8.49 g/m*3 22.3 C 0 km/h
1641 09-07-2011 20:04:01 23.1 C 8.48 g/m*3 23.1 C 0 km/h
1642 09-07-2011 20:16:01 22 C 8.35 g/m*3 22 C 0 km/h
1643 09-07-2011 20:28:01 21.1 C 8.48 g/m*3 21.1 C 0 km/h
1644 09-07-2011 20:40:01 21.2 C 8.71 g/m*3 21.2 C 0 km/h
1645 09-07-2011 20:52:01 21 C 8.43 g/m*3 21 C 0 km/h
1646 09-07-2011 21:04:01 20.7 C 8.64 g/m*3 20.7 C 0 km/h
1647 09-07-2011 21:16:02 20.6 C 8.59 g/m*3 20.6 C 0 km/h
1648 09-07-2011 21:28:02 20.4 C 8.67 g/m*3 20.4 C 0 km/h
1649 09-07-2011 21:40:01 20.4 C 8.67 g/m*3 20.4 C 0 km/h
1650 09-07-2011 21:52:03 20 C 8.47 g/m*3 20 C 0 km/h
Sensor: Nr:Datum:Temp:Abs-Feuchte:Windchill:Wind:
Aussen-T/F 1651 09-07-2011 22:04:02 19.5 C 8.56 g/m*3 19.5 C 0 km/h
1652 09-07-2011 22:16:03 19.5 C 8.56 g/m*3 19.5 C 0 km/h
1653 09-07-2011 22:28:03 19.3 C 8.63 g/m*3 19.3 C 0 km/h
1654 09-07-2011 22:40:02 19.1 C 8.69 g/m*3 19.1 C 0 km/h
1655 09-07-2011 22:52:03 18.7 C 8.49 g/m*3 18.7 C 0 km/h
1656 09-07-2011 23:04:02 17.8 C 8.5 g/m*3 17.8 C 0 km/h
1657 09-07-2011 23:17:03 16.8 C 8.58 g/m*3 16.8 C 0 km/h
1658 09-07-2011 23:29:03 16.6 C 8.9 g/m*3 16.6 C 0 km/h
1659 09-07-2011 23:41:03 16.7 C 8.81 g/m*3 16.7 C 0 km/h
1660 09-07-2011 23:53:03 16.6 C 9.04 g/m*3 16.6 C 0 km/h
1661 10-07-2011 00:05:03 16.1 C 8.64 g/m*3 16.1 C 0 km/h
1662 10-07-2011 00:17:03 16.2 C 8.69 g/m*3 16.2 C 0 km/h
1663 10-07-2011 00:29:03 16.3 C 9.16 g/m*3 16.3 C 0 km/h
1664 10-07-2011 00:41:03 16 C 8.86 g/m*3 16 C 0 km/h
1665 10-07-2011 00:53:03 15.8 C 9.02 g/m*3 15.8 C 0 km/h
1666 10-07-2011 01:05:03 15.1 C 8.77 g/m*3 15.1 C 0 km/h
1667 10-07-2011 01:17:03 15 C 9.1 g/m*3 15 C 0 km/h
1668 10-07-2011 01:29:03 15.3 C 9.27 g/m*3 15.3 C 0 km/h
1669 10-07-2011 01:41:04 14.5 C 8.83 g/m*3 14.5 C 0 km/h
1670 10-07-2011 01:53:04 14.4 C 8.9 g/m*3 14.4 C 0 km/h
1671 10-07-2011 02:05:04 14 C 8.81 g/m*3 14 C 0 km/h
1672 10-07-2011 02:17:04 13.6 C 8.71 g/m*3 13.6 C 0 km/h
1673 10-07-2011 02:29:04 13.7 C 8.88 g/m*3 13.7 C 0 km/h
1674 10-07-2011 02:41:04 14 C 8.93 g/m*3 14 C 0 km/h
1675 10-07-2011 02:53:04 14 C 8.93 g/m*3 14 C 0 km/h
Sensor: Nr:Datum:Temp:Abs-Feuchte:Windchill:Wind:
Aussen-T/F 1676 10-07-2011 03:05:04 13.8 C 8.82 g/m*3 13.8 C 0 km/h
1677 10-07-2011 03:17:04 13.9 C 8.87 g/m*3 13.9 C 0 km/h
1678 10-07-2011 03:29:04 14.4 C 9.15 g/m*3 14.4 C 0 km/h
1679 10-07-2011 03:41:04 14.6 C 9.26 g/m*3 14.6 C 0 km/h
1680 10-07-2011 03:53:04 14.8 C 9.25 g/m*3 14.8 C 0 km/h
1681 10-07-2011 04:05:04 14.8 C 9.12 g/m*3 14.8 C 0 km/h
1682 10-07-2011 04:17:04 14.7 C 9.07 g/m*3 14.7 C 0 km/h
1683 10-07-2011 04:29:04 14.3 C 8.85 g/m*3 14.3 C 0 km/h
1684 10-07-2011 04:41:04 13.6 C 8.59 g/m*3 13.6 C 0 km/h
1685 10-07-2011 04:53:04 12.8 C 8.51 g/m*3 12.8 C 0 km/h
1686 10-07-2011 05:05:04 12.8 C 8.85 g/m*3 12.8 C 0 km/h
1687 10-07-2011 05:17:04 13 C 9.19 g/m*3 13 C 0 km/h
1688 10-07-2011 05:29:04 12.9 C 9.24 g/m*3 12.9 C 0 km/h
1689 10-07-2011 05:41:05 12.8 C 9.18 g/m*3 12.8 C 0 km/h
1690 10-07-2011 05:53:05 12.9 C 9.35 g/m*3 12.9 C 0 km/h
1691 10-07-2011 06:05:05 12.8 C 9.18 g/m*3 12.8 C 0 km/h
1692 10-07-2011 06:17:05 12.6 C 9.07 g/m*3 12.6 C 0 km/h
1693 10-07-2011 06:29:05 12.4 C 8.96 g/m*3 12.4 C 0 km/h
1694 10-07-2011 06:41:05 13.2 C 9.53 g/m*3 13.2 C 0 km/h
1695 10-07-2011 06:53:05 13.4 C 9.53 g/m*3 13.4 C 0 km/h
1696 10-07-2011 07:05:05 13.6 C 9.53 g/m*3 13.6 C 0 km/h
1697 10-07-2011 07:17:05 13.8 C 9.65 g/m*3 13.8 C 0 km/h
1698 10-07-2011 07:29:05 13.8 C 9.65 g/m*3 13.8 C 0 km/h
1699 10-07-2011 07:41:05 14.1 C 9.59 g/m*3 14.1 C 0 km/h
1700 10-07-2011 07:53:05 14.3 C 9.58 g/m*3 14.3 C 0 km/h
Sensor: Nr:Datum:Temp:Abs-Feuchte:Windchill:Wind:
Aussen-T/F 1701 10-07-2011 08:05:05 14.1 C 9.59 g/m*3 14.1 C 0 km/h
1702 10-07-2011 08:17:05 14.1 C 9.59 g/m*3 14.1 C 0 km/h
1703 10-07-2011 08:29:05 14.4 C 9.77 g/m*3 14.4 C 0 km/h
1704 10-07-2011 08:41:05 15 C 10 g/m*3 15 C 0 km/h
1705 10-07-2011 08:53:05 15.4 C 10.12 g/m*3 15.4 C 0 km/h
1706 10-07-2011 09:05:03 15.7 C 9.63 g/m*3 15.7 C 0 km/h
1707 10-07-2011 09:17:02 16.2 C 9.79 g/m*3 16.2 C 0 km/h
1708 10-07-2011 09:29:02 16.8 C 9.72 g/m*3 16.8 C 0 km/h
1709 10-07-2011 09:41:02 17.6 C 9.45 g/m*3 17.6 C 0 km/h
1710 10-07-2011 09:53:02 18.7 C 8.81 g/m*3 18.7 C 0 km/h
1711 10-07-2011 10:05:02 19.5 C 8.73 g/m*3 19.5 C 0 km/h
1712 10-07-2011 10:17:02 19.4 C 9.18 g/m*3 19.4 C 0 km/h
1713 10-07-2011 10:29:02 20 C 8.64 g/m*3 20 C 0 km/h
1714 10-07-2011 10:41:02 21.1 C 7.55 g/m*3 21.1 C 0 km/h
1715 10-07-2011 10:53:02 21.9 C 7.33 g/m*3 21.9 C 0 km/h
1716 10-07-2011 11:05:01 23.2 C 6.44 g/m*3 23.2 C 0 km/h
1717 10-07-2011 11:17:02 22.3 C 6.52 g/m*3 22.3 C 0 km/h
1718 10-07-2011 11:29:02 22.1 C 6.05 g/m*3 22.1 C 0 km/h
1719 10-07-2011 11:41:02 23 C 6.37 g/m*3 23 C 0 km/h
1720 10-07-2011 11:53:02 24.1 C 5.47 g/m*3 24.1 C 0 km/h
1721 10-07-2011 12:05:02 23.7 C 5.56 g/m*3 23.7 C 0 km/h
1722 10-07-2011 12:17:01 23.8 C 5.59 g/m*3 23.8 C 0 km/h
1723 10-07-2011 12:29:01 24.6 C 5.85 g/m*3 24.6 C 0 km/h
1724 10-07-2011 12:41:02 25.5 C 5.45 g/m*3 25.5 C 0 km/h
1725 10-07-2011 12:53:02 25.9 C 5.08 g/m*3 25.9 C 0 km/h
Sensor: Nr:Datum:Temp:Abs-Feuchte:Windchill:Wind:
Aussen-T/F 1726 10-07-2011 13:05:02 26.6 C 5.79 g/m*3 26.6 C 0 km/h
1727 10-07-2011 13:17:02 26.7 C 5.32 g/m*3 26.7 C 0 km/h
1728 10-07-2011 13:29:02 26.3 C 5.2 g/m*3 26.3 C 0 km/h
1729 10-07-2011 13:41:02 27 C 5.15 g/m*3 27 C 0 km/h
1730 10-07-2011 13:53:01 26.8 C 5.09 g/m*3 26.8 C 0 km/h
1731 10-07-2011 14:05:02 27 C 5.15 g/m*3 27 C 0 km/h
1732 10-07-2011 14:17:02 27.3 C 5.23 g/m*3 27.3 C 0 km/h
1733 10-07-2011 14:29:02 25.5 C 4.97 g/m*3 25.5 C 0 km/h
1734 10-07-2011 14:41:02 25.5 C 5.21 g/m*3 25.5 C 0 km/h
1735 10-07-2011 14:53:02 26.4 C 5.23 g/m*3 26.4 C 0 km/h
1736 10-07-2011 15:05:01 26.3 C 5.69 g/m*3 26.3 C 0 km/h
1737 10-07-2011 15:17:02 26.3 C 5.2 g/m*3 26.3 C 0 km/h
1738 10-07-2011 15:29:03 25.6 C 5.95 g/m*3 25.6 C 0 km/h
1739 10-07-2011 15:41:01 24.7 C 6.11 g/m*3 24.7 C 0 km/h
1740 10-07-2011 15:53:02 24.2 C 6.16 g/m*3 24.2 C 0 km/h
1741 10-07-2011 16:05:02 24 C 7.4 g/m*3 24 C 0 km/h
1742 10-07-2011 16:17:02 23 C 8.43 g/m*3 23 C 0 km/h
1743 10-07-2011 16:29:02 21.3 C 9.69 g/m*3 21.3 C 0 km/h
1744 10-07-2011 16:41:03 20.8 C 9.78 g/m*3 20.8 C 0 km/h
1745 10-07-2011 16:53:02 20.8 C 9.78 g/m*3 20.8 C 0 km/h
1746 10-07-2011 17:05:02 20.9 C 9.83 g/m*3 20.9 C 0 km/h
1747 10-07-2011 17:17:02 21.2 C 9.82 g/m*3 21.2 C 0 km/h
1748 10-07-2011 17:29:02 21.7 C 9.35 g/m*3 21.7 C 0 km/h
1749 10-07-2011 17:41:02 22.4 C 9.14 g/m*3 22.4 C 0 km/h
1750 10-07-2011 17:53:02 23.3 C 8.36 g/m*3 23.3 C 0 km/h
Sensor: Nr:Datum:Temp:Abs-Feuchte:Windchill:Wind:
Aussen-T/F 1751 10-07-2011 18:05:02 22.7 C 7.48 g/m*3 22.7 C 0 km/h
1752 10-07-2011 18:17:02 22.4 C 8.54 g/m*3 22.4 C 0 km/h
1753 10-07-2011 18:29:02 22 C 9.7 g/m*3 22 C 0 km/h
1754 10-07-2011 18:41:02 20.5 C 10.32 g/m*3 20.5 C 0 km/h
1755 10-07-2011 18:53:02 19.3 C 10.62 g/m*3 19.3 C 0 km/h
1756 10-07-2011 19:05:02 19 C 10.43 g/m*3 19 C 0 km/h
1757 10-07-2011 19:17:02 19.3 C 10.28 g/m*3 19.3 C 0 km/h
1758 10-07-2011 19:29:02 18.6 C 10.03 g/m*3 18.6 C 0 km/h
1759 10-07-2011 19:41:02 18.3 C 10.32 g/m*3 18.3 C 0 km/h
1760 10-07-2011 19:53:02 17.6 C 10.8 g/m*3 17.6 C 0 km/h
1761 10-07-2011 20:05:02 16.9 C 10.79 g/m*3 16.9 C 0 km/h
1762 10-07-2011 20:17:03 16.6 C 10.88 g/m*3 16.6 C 0 km/h
1763 10-07-2011 20:29:03 16.6 C 11.3 g/m*3 16.6 C 0 km/h
1764 10-07-2011 20:41:02 16.4 C 11.31 g/m*3 16.4 C 0 km/h
1765 10-07-2011 20:53:03 16.5 C 11.37 g/m*3 16.5 C 0 km/h
1766 10-07-2011 21:05:02 16.5 C 11.37 g/m*3 16.5 C 0 km/h
1767 10-07-2011 21:17:02 16.4 C 11.31 g/m*3 16.4 C 0 km/h
1768 10-07-2011 21:29:02 16.1 C 11.24 g/m*3 16.1 C 0 km/h
1769 10-07-2011 21:41:03 15.8 C 11.17 g/m*3 15.8 C 0 km/h
1770 10-07-2011 21:53:03 15.8 C 11.17 g/m*3 15.8 C 0 km/h
1771 10-07-2011 22:05:02 15.6 C 10.91 g/m*3 15.6 C 0 km/h
1772 10-07-2011 22:18:02 15.2 C 10.64 g/m*3 15.2 C 0 km/h
1773 10-07-2011 22:30:02 15.1 C 10.45 g/m*3 15.1 C 0 km/h
1774 10-07-2011 22:42:03 15.3 C 10.58 g/m*3 15.3 C 0 km/h
1775 10-07-2011 22:54:03 15.2 C 10.51 g/m*3 15.2 C 0 km/h
Sensor: Nr:Datum:Temp:Abs-Feuchte:Windchill:Wind:
Aussen-T/F 1776 10-07-2011 23:06:03 14.9 C 10.58 g/m*3 14.9 C 0 km/h
1777 10-07-2011 23:18:03 14.9 C 10.58 g/m*3 14.9 C 0 km/h
1778 10-07-2011 23:30:03 14.8 C 10.64 g/m*3 14.8 C 0 km/h
1779 10-07-2011 23:42:03 14.6 C 10.51 g/m*3 14.6 C 0 km/h
1780 10-07-2011 23:54:03 14.7 C 10.7 g/m*3 14.7 C 0 km/h
1781 11-07-2011 00:06:03 14.9 C 10.96 g/m*3 14.9 C 0 km/h
1782 11-07-2011 00:18:03 14.8 C 10.89 g/m*3 14.8 C 0 km/h
1783 11-07-2011 00:30:03 14.9 C 10.96 g/m*3 14.9 C 0 km/h
1784 11-07-2011 00:42:03 15 C 10.9 g/m*3 15 C 0 km/h
1785 11-07-2011 00:54:03 14.6 C 10.64 g/m*3 14.6 C 0 km/h
1786 11-07-2011 01:06:03 14.5 C 10.7 g/m*3 14.5 C 0 km/h
1787 11-07-2011 01:18:03 14.2 C 10.5 g/m*3 14.2 C 0 km/h
1788 11-07-2011 01:30:03 14.5 C 10.82 g/m*3 14.5 C 0 km/h
1789 11-07-2011 01:42:03 14.7 C 10.95 g/m*3 14.7 C 0 km/h
1790 11-07-2011 01:54:03 14.8 C 11.15 g/m*3 14.8 C 0 km/h
1791 11-07-2011 02:06:03 14.7 C 11.08 g/m*3 14.7 C 0 km/h
1792 11-07-2011 02:18:03 14.6 C 10.89 g/m*3 14.6 C 0 km/h
1793 11-07-2011 02:30:03 14.4 C 10.75 g/m*3 14.4 C 0 km/h
1794 11-07-2011 02:42:03 14.3 C 10.69 g/m*3 14.3 C 0 km/h
1795 11-07-2011 02:54:04 14.3 C 10.69 g/m*3 14.3 C 0 km/h
1796 11-07-2011 03:06:04 14.3 C 10.69 g/m*3 14.3 C 0 km/h
1797 11-07-2011 03:18:04 13.8 C 10.48 g/m*3 13.8 C 0 km/h
1798 11-07-2011 03:30:04 13.5 C 10.29 g/m*3 13.5 C 0 km/h
1799 11-07-2011 03:42:04 13.2 C 10.1 g/m*3 13.2 C 0 km/h
1800 11-07-2011 03:54:04 13.5 C 10.29 g/m*3 13.5 C 0 km/h
Sensor: Nr:Datum:Temp:Abs-Feuchte:Windchill:Wind:
Aussen-T/F 1801 11-07-2011 04:06:04 13.3 C 10.17 g/m*3 13.3 C 0 km/h
1802 11-07-2011 04:18:04 13.1 C 10.04 g/m*3 13.1 C 0 km/h
1803 11-07-2011 04:30:04 13 C 9.98 g/m*3 13 C 0 km/h
1804 11-07-2011 04:42:04 13 C 9.98 g/m*3 13 C 0 km/h
1805 11-07-2011 04:54:04 12.9 C 10.03 g/m*3 12.9 C 0 km/h
1806 11-07-2011 05:06:04 12.7 C 9.91 g/m*3 12.7 C 0 km/h
1807 11-07-2011 05:18:04 12.6 C 9.85 g/m*3 12.6 C 0 km/h
1808 11-07-2011 05:30:04 13 C 10.09 g/m*3 13 C 0 km/h
1809 11-07-2011 05:42:04 13.1 C 10.16 g/m*3 13.1 C 0 km/h
1810 11-07-2011 05:54:04 13.6 C 10.47 g/m*3 13.6 C 0 km/h
1811 11-07-2011 06:06:04 13.7 C 10.66 g/m*3 13.7 C 0 km/h
1812 11-07-2011 06:18:04 13.7 C 10.54 g/m*3 13.7 C 0 km/h
1813 11-07-2011 06:30:04 14 C 10.74 g/m*3 14 C 0 km/h
1814 11-07-2011 06:42:04 14.2 C 10.87 g/m*3 14.2 C 0 km/h
1815 11-07-2011 06:54:04 14.5 C 10.94 g/m*3 14.5 C 0 km/h
1816 11-07-2011 07:06:05 14.8 C 10.77 g/m*3 14.8 C 0 km/h
1817 11-07-2011 07:18:02 15 C 10.51 g/m*3 15 C 0 km/h
1818 11-07-2011 07:30:02 15.4 C 10.51 g/m*3 15.4 C 0 km/h
1819 11-07-2011 07:42:02 15.3 C 10.32 g/m*3 15.3 C 0 km/h
1820 11-07-2011 07:54:02 15.6 C 10.37 g/m*3 15.6 C 0 km/h
1821 11-07-2011 08:06:02 15.5 C 10.31 g/m*3 15.5 C 0 km/h
1822 11-07-2011 08:18:01 15.3 C 10.19 g/m*3 15.3 C 0 km/h
1823 11-07-2011 08:30:01 15.7 C 10.44 g/m*3 15.7 C 0 km/h
1824 11-07-2011 08:42:02 16.2 C 10.34 g/m*3 16.2 C 0 km/h
1825 11-07-2011 08:54:02 16.9 C 10.36 g/m*3 16.9 C 0 km/h
Sensor: Nr:Datum:Temp:Abs-Feuchte:Windchill:Wind:
Aussen-T/F 1826 11-07-2011 09:06:02 17.2 C 9.81 g/m*3 17.2 C 0 km/h
1827 11-07-2011 09:18:01 17.5 C 9.99 g/m*3 17.5 C 0 km/h
1828 11-07-2011 09:30:01 18.2 C 9.79 g/m*3 18.2 C 0 km/h
1829 11-07-2011 09:42:02 17.6 C 9.9 g/m*3 17.6 C 0 km/h
1830 11-07-2011 09:54:01 17.4 C 9.93 g/m*3 17.4 C 0 km/h
1831 11-07-2011 10:06:02 17.8 C 10.17 g/m*3 17.8 C 0 km/h
1832 11-07-2011 10:18:01 18 C 9.98 g/m*3 18 C 0 km/h
1833 11-07-2011 10:30:01 18.5 C 10.13 g/m*3 18.5 C 0 km/h
1834 11-07-2011 10:42:02 19 C 9.78 g/m*3 19 C 0 km/h
1835 11-07-2011 10:54:02 20 C 9.68 g/m*3 20 C 0 km/h
1836 11-07-2011 11:06:02 20.5 C 9.07 g/m*3 20.5 C 0 km/h
1837 11-07-2011 11:18:01 20.7 C 8.64 g/m*3 20.7 C 0 km/h
1838 11-07-2011 11:30:01 21.2 C 7.41 g/m*3 21.2 C 0 km/h
1839 11-07-2011 11:42:02 21.4 C 7.69 g/m*3 21.4 C 0 km/h
1840 11-07-2011 11:54:02 21.6 C 7.59 g/m*3 21.6 C 0 km/h
1841 11-07-2011 12:06:02 22.1 C 7.81 g/m*3 22.1 C 0 km/h
1842 11-07-2011 12:18:01 22.2 C 8.44 g/m*3 22.2 C 0 km/h
1843 11-07-2011 12:30:01 23 C 8.02 g/m*3 23 C 0 km/h
1844 11-07-2011 12:42:02 23.7 C 7.49 g/m*3 23.7 C 0 km/h
1845 11-07-2011 12:54:02 24.2 C 7.04 g/m*3 24.2 C 0 km/h
1846 11-07-2011 13:06:02 25.2 C 7.22 g/m*3 25.2 C 0 km/h
1847 11-07-2011 13:18:02 25 C 7.14 g/m*3 25 C 0 km/h
1848 11-07-2011 13:30:02 26.3 C 7.43 g/m*3 26.3 C 0 km/h
1849 11-07-2011 13:42:02 29.2 C 7.26 g/m*3 29.2 C 0 km/h
1850 11-07-2011 13:54:02 30.1 C 6.71 g/m*3 30.1 C 0 km/h
Sensor: Nr:Datum:Temp:Abs-Feuchte:Windchill:Wind:
Aussen-T/F 1851 11-07-2011 14:06:02 27.4 C 6.84 g/m*3 27.4 C 0 km/h
1852 11-07-2011 14:18:02 25.8 C 7.22 g/m*3 25.8 C 0 km/h
1853 11-07-2011 14:30:02 27.5 C 6.88 g/m*3 27.5 C 0 km/h
1854 11-07-2011 14:42:01 31.4 C 6.54 g/m*3 31.4 C 0 km/h
1855 11-07-2011 14:54:02 31.4 C 6.54 g/m*3 31.4 C 0 km/h
1856 11-07-2011 15:06:01 29.2 C 6.39 g/m*3 29.2 C 0 km/h
1857 11-07-2011 15:18:02 31.1 C 6.43 g/m*3 31.1 C 0 km/h
1858 11-07-2011 15:30:02 29.3 C 6.13 g/m*3 29.3 C 0 km/h
1859 11-07-2011 15:42:01 29 C 6.61 g/m*3 29 C 0 km/h
1860 11-07-2011 15:54:02 30 C 6.06 g/m*3 30 C 0 km/h
1861 11-07-2011 16:06:02 28.2 C 6.05 g/m*3 28.2 C 0 km/h
1862 11-07-2011 16:18:02 31.2 C 6.47 g/m*3 31.2 C 0 km/h
1863 11-07-2011 16:30:02 32.5 C 6.93 g/m*3 32.5 C 0 km/h
1864 11-07-2011 16:42:03 33.2 C 7.2 g/m*3 33.2 C 0 km/h
1865 11-07-2011 16:54:02 32.6 C 6.97 g/m*3 32.6 C 0 km/h
1866 11-07-2011 17:06:02 32.2 C 6.82 g/m*3 32.2 C 0 km/h
1867 11-07-2011 17:18:01 31.5 C 6.57 g/m*3 31.5 C 0 km/h
1868 11-07-2011 17:30:01 30.8 C 6.33 g/m*3 30.8 C 0 km/h
1869 11-07-2011 17:42:02 32.5 C 6.93 g/m*3 32.5 C 0 km/h
1870 11-07-2011 17:54:02 33 C 7.12 g/m*3 33 C 0 km/h
1871 11-07-2011 18:06:02 32.8 C 7.04 g/m*3 32.8 C 0 km/h
1872 11-07-2011 18:18:02 32 C 6.75 g/m*3 32 C 0 km/h
1873 11-07-2011 18:30:02 32.6 C 6.97 g/m*3 32.6 C 0 km/h
1874 11-07-2011 18:42:02 30.9 C 6.37 g/m*3 30.9 C 0 km/h
1875 11-07-2011 18:54:02 30 C 6.06 g/m*3 30 C 0 km/h
Sensor: Nr:Datum:Temp:Abs-Feuchte:Windchill:Wind:
Aussen-T/F 1876 11-07-2011 19:06:02 28.8 C 5.68 g/m*3 28.8 C 0 km/h
1877 11-07-2011 19:18:02 29.1 C 6.64 g/m*3 29.1 C 0 km/h
1878 11-07-2011 19:30:02 30.9 C 6.37 g/m*3 30.9 C 0 km/h
1879 11-07-2011 19:42:02 30.5 C 6.23 g/m*3 30.5 C 0 km/h
1880 11-07-2011 19:54:01 28.2 C 6.05 g/m*3 28.2 C 0 km/h
1881 11-07-2011 20:06:01 26.9 C 6.4 g/m*3 26.9 C 0 km/h
1882 11-07-2011 20:18:02 25.7 C 7.18 g/m*3 25.7 C 0 km/h
1883 11-07-2011 20:30:02 24.9 C 8.47 g/m*3 24.9 C 0 km/h
1884 11-07-2011 20:42:01 23.6 C 8.29 g/m*3 23.6 C 0 km/h
1885 11-07-2011 20:54:01 22.5 C 8.19 g/m*3 22.5 C 0 km/h
1886 11-07-2011 21:06:02 21.9 C 8.3 g/m*3 21.9 C 0 km/h
1887 11-07-2011 21:18:01 21.6 C 8.35 g/m*3 21.6 C 0 km/h
1888 11-07-2011 21:30:01 21.2 C 8.15 g/m*3 21.2 C 0 km/h
1889 11-07-2011 21:42:01 20.8 C 8.33 g/m*3 20.8 C 0 km/h
1890 11-07-2011 21:54:01 20 C 8.3 g/m*3 20 C 0 km/h
1891 11-07-2011 22:06:02 19.5 C 8.22 g/m*3 19.5 C 0 km/h
1892 11-07-2011 22:18:01 19.4 C 8.18 g/m*3 19.4 C 0 km/h
1893 11-07-2011 22:30:01 18.9 C 8.26 g/m*3 18.9 C 0 km/h
1894 11-07-2011 22:43:02 19 C 8.31 g/m*3 19 C 0 km/h
1895 11-07-2011 22:55:02 18.7 C 8.17 g/m*3 18.7 C 0 km/h
1896 11-07-2011 23:07:02 18.6 C 8.12 g/m*3 18.6 C 0 km/h
1897 11-07-2011 23:19:02 17.9 C 8.55 g/m*3 17.9 C 0 km/h
1898 11-07-2011 23:31:02 17.4 C 8.3 g/m*3 17.4 C 0 km/h
1899 11-07-2011 23:43:02 16.8 C 8.29 g/m*3 16.8 C 0 km/h
1900 11-07-2011 23:55:02 16.4 C 8.37 g/m*3 16.4 C 0 km/h
Sensor: Nr:Datum:Temp:Abs-Feuchte:Windchill:Wind:
Aussen-T/F 1901 12-07-2011 00:07:02 16 C 8.31 g/m*3 16 C 0 km/h
1902 12-07-2011 00:19:02 15.8 C 8.48 g/m*3 15.8 C 0 km/h
1903 12-07-2011 00:31:02 15.6 C 8.64 g/m*3 15.6 C 0 km/h
1904 12-07-2011 00:43:02 15.2 C 8.57 g/m*3 15.2 C 0 km/h
1905 12-07-2011 00:55:03 15.1 C 8.64 g/m*3 15.1 C 0 km/h
1906 12-07-2011 01:07:03 15 C 8.72 g/m*3 15 C 0 km/h
1907 12-07-2011 01:19:03 14.5 C 8.46 g/m*3 14.5 C 0 km/h
1908 12-07-2011 01:31:03 14.3 C 8.6 g/m*3 14.3 C 0 km/h
1909 12-07-2011 01:43:03 14.2 C 8.67 g/m*3 14.2 C 0 km/h
1910 12-07-2011 01:55:03 14.2 C 8.79 g/m*3 14.2 C 0 km/h
1911 12-07-2011 02:07:03 13.8 C 8.7 g/m*3 13.8 C 0 km/h
1912 12-07-2011 02:19:03 13.5 C 8.54 g/m*3 13.5 C 0 km/h
1913 12-07-2011 02:31:03 13.4 C 8.72 g/m*3 13.4 C 0 km/h
1914 12-07-2011 02:43:03 13.3 C 8.66 g/m*3 13.3 C 0 km/h
1915 12-07-2011 02:55:03 13.2 C 8.61 g/m*3 13.2 C 0 km/h
1916 12-07-2011 03:07:03 13 C 8.62 g/m*3 13 C 0 km/h
1917 12-07-2011 03:19:03 12.8 C 8.62 g/m*3 12.8 C 0 km/h
1918 12-07-2011 03:31:03 12.7 C 8.57 g/m*3 12.7 C 0 km/h
1919 12-07-2011 03:43:03 12.5 C 8.58 g/m*3 12.5 C 0 km/h
1920 12-07-2011 03:55:03 12.3 C 8.47 g/m*3 12.3 C 0 km/h
1921 12-07-2011 04:07:03 12.1 C 8.47 g/m*3 12.1 C 0 km/h
1922 12-07-2011 04:19:03 12 C 8.42 g/m*3 12 C 0 km/h
1923 12-07-2011 04:31:03 12.1 C 8.69 g/m*3 12.1 C 0 km/h
1924 12-07-2011 04:43:03 12 C 8.74 g/m*3 12 C 0 km/h
1925 12-07-2011 04:55:04 11.9 C 8.79 g/m*3 11.9 C 0 km/h
Sensor: Nr:Datum:Temp:Abs-Feuchte:Windchill:Wind:
Aussen-T/F 1926 12-07-2011 05:07:04 11.8 C 8.74 g/m*3 11.8 C 0 km/h
1927 12-07-2011 05:19:04 11.8 C 8.84 g/m*3 11.8 C 0 km/h
1928 12-07-2011 05:31:04 11.6 C 8.73 g/m*3 11.6 C 0 km/h
1929 12-07-2011 05:43:04 11.7 C 8.79 g/m*3 11.7 C 0 km/h
1930 12-07-2011 05:55:04 11.6 C 8.83 g/m*3 11.6 C 0 km/h
1931 12-07-2011 06:07:04 11.7 C 8.89 g/m*3 11.7 C 0 km/h
1932 12-07-2011 06:19:04 11.8 C 9.05 g/m*3 11.8 C 0 km/h
1933 12-07-2011 06:31:04 11.9 C 9.11 g/m*3 11.9 C 0 km/h
1934 12-07-2011 06:43:04 12 C 9.06 g/m*3 12 C 0 km/h
1935 12-07-2011 06:55:02 12.1 C 9.12 g/m*3 12.1 C 0 km/h
1936 12-07-2011 07:07:01 12.2 C 9.17 g/m*3 12.2 C 0 km/h
1937 12-07-2011 07:19:02 12.4 C 9.4 g/m*3 12.4 C 0 km/h
1938 12-07-2011 07:31:01 12.6 C 9.51 g/m*3 12.6 C 0 km/h
1939 12-07-2011 07:43:01 12.9 C 9.69 g/m*3 12.9 C 0 km/h
1940 12-07-2011 07:55:02 13.4 C 9.88 g/m*3 13.4 C 0 km/h
1941 12-07-2011 08:07:02 13.8 C 10.13 g/m*3 13.8 C 0 km/h
1942 12-07-2011 08:19:02 14.4 C 10.38 g/m*3 14.4 C 0 km/h
1943 12-07-2011 08:31:03 15.2 C 10.38 g/m*3 15.2 C 0 km/h
1944 12-07-2011 08:43:03 16.2 C 10.62 g/m*3 16.2 C 0 km/h
1945 12-07-2011 08:55:02 16.8 C 10.44 g/m*3 16.8 C 0 km/h
1946 12-07-2011 09:07:01 17.5 C 10.29 g/m*3 17.5 C 0 km/h
1947 12-07-2011 09:19:02 18.3 C 10.16 g/m*3 18.3 C 0 km/h
1948 12-07-2011 09:31:02 19.9 C 10.48 g/m*3 19.9 C 0 km/h
1949 12-07-2011 09:43:02 20.4 C 9.38 g/m*3 20.4 C 0 km/h
1950 12-07-2011 09:55:02 22 C 9.12 g/m*3 22 C 0 km/h
Sensor: Nr:Datum:Temp:Abs-Feuchte:Windchill:Wind:
Aussen-T/F 1951 12-07-2011 10:07:01 22.8 C 9.35 g/m*3 22.8 C 0 km/h
1952 12-07-2011 10:19:01 23.9 C 8.87 g/m*3 23.9 C 0 km/h
1953 12-07-2011 10:31:02 25 C 8.52 g/m*3 25 C 0 km/h
1954 12-07-2011 10:43:02 26.1 C 8.32 g/m*3 26.1 C 0 km/h
1955 12-07-2011 10:55:02 27.6 C 8.25 g/m*3 27.6 C 0 km/h
1956 12-07-2011 11:07:02 27.5 C 7.94 g/m*3 27.5 C 0 km/h
1957 12-07-2011 11:19:02 28.1 C 7.66 g/m*3 28.1 C 0 km/h
1958 12-07-2011 11:31:03 27.2 C 7.29 g/m*3 27.2 C 0 km/h
1959 12-07-2011 11:43:03 27.6 C 7.18 g/m*3 27.6 C 0 km/h
1960 12-07-2011 11:55:02 27.2 C 7.03 g/m*3 27.2 C 0 km/h
1961 12-07-2011 12:07:01 27.3 C 6.8 g/m*3 27.3 C 0 km/h
1962 12-07-2011 12:19:02 27.6 C 6.92 g/m*3 27.6 C 0 km/h
1963 12-07-2011 12:31:02 27.7 C 7.22 g/m*3 27.7 C 0 km/h
1964 12-07-2011 12:43:02 27.9 C 7.03 g/m*3 27.9 C 0 km/h
1965 12-07-2011 12:55:02 28.1 C 6.84 g/m*3 28.1 C 0 km/h
1966 12-07-2011 13:07:03 28.4 C 6.95 g/m*3 28.4 C 0 km/h
1967 12-07-2011 13:19:02 29.2 C 6.97 g/m*3 29.2 C 0 km/h
1968 12-07-2011 13:31:03 29.9 C 6.64 g/m*3 29.9 C 0 km/h
1969 12-07-2011 13:43:03 32.3 C 6.86 g/m*3 32.3 C 0 km/h
1970 12-07-2011 13:55:02 32.6 C 6.97 g/m*3 32.6 C 0 km/h
1971 12-07-2011 14:07:02 33.4 C 7.27 g/m*3 33.4 C 0 km/h
1972 12-07-2011 14:19:01 32.3 C 6.86 g/m*3 32.3 C 0 km/h
1973 12-07-2011 14:31:02 32 C 6.75 g/m*3 32 C 0 km/h
1974 12-07-2011 14:43:02 32.5 C 6.93 g/m*3 32.5 C 0 km/h
1975 12-07-2011 14:55:02 31.9 C 6.72 g/m*3 31.9 C 0 km/h
Sensor: Nr:Datum:Temp:Abs-Feuchte:Windchill:Wind:
Aussen-T/F 1976 12-07-2011 15:07:02 31 C 6.4 g/m*3 31 C 0 km/h
1977 12-07-2011 15:19:02 29.8 C 6.6 g/m*3 29.8 C 0 km/h
1978 12-07-2011 15:31:02 30 C 6.37 g/m*3 30 C 0 km/h
1979 12-07-2011 15:43:02 29.5 C 7.38 g/m*3 29.5 C 0 km/h
1980 12-07-2011 15:55:02 29.5 C 7.38 g/m*3 29.5 C 0 km/h
1981 12-07-2011 16:07:02 29.1 C 7.51 g/m*3 29.1 C 0 km/h
1982 12-07-2011 16:19:03 28.7 C 7.35 g/m*3 28.7 C 0 km/h
1983 12-07-2011 16:31:02 29 C 7.47 g/m*3 29 C 0 km/h
1984 12-07-2011 16:43:02 29.6 C 7.72 g/m*3 29.6 C 0 km/h
1985 12-07-2011 16:55:02 27.5 C 8.47 g/m*3 27.5 C 0 km/h
1986 12-07-2011 17:07:02 25 C 9.21 g/m*3 25 C 0 km/h
1987 12-07-2011 17:19:02 21.8 C 11.9 g/m*3 21.8 C 0 km/h
1988 12-07-2011 17:31:02 19.8 C 12.81 g/m*3 19.8 C 0 km/h
1989 12-07-2011 17:43:02 19.4 C 13.35 g/m*3 19.4 C 0 km/h
1990 12-07-2011 17:55:02 19.3 C 13.27 g/m*3 19.3 C 0 km/h
1991 12-07-2011 18:07:02 19.7 C 13.25 g/m*3 19.7 C 0 km/h
1992 12-07-2011 18:19:02 20.1 C 12.86 g/m*3 20.1 C 0 km/h
1993 12-07-2011 18:31:02 20.7 C 13.14 g/m*3 20.7 C 0 km/h
1994 12-07-2011 18:43:02 20.3 C 13.37 g/m*3 20.3 C 0 km/h
1995 12-07-2011 18:55:02 20.3 C 13.37 g/m*3 20.3 C 0 km/h
1996 12-07-2011 19:07:01 21.1 C 13.63 g/m*3 21.1 C 0 km/h
1997 12-07-2011 19:19:02 21.1 C 13.27 g/m*3 21.1 C 0 km/h
1998 12-07-2011 19:31:02 21.2 C 13.71 g/m*3 21.2 C 0 km/h
1999 12-07-2011 19:43:02 21.8 C 13.43 g/m*3 21.8 C 0 km/h
2000 12-07-2011 19:55:01 21.4 C 12.94 g/m*3 21.4 C 0 km/h
Sensor: Nr:Datum:Temp:Abs-Feuchte:Windchill:Wind:
Aussen-T/F 2001 12-07-2011 20:07:02 21 C 12.82 g/m*3 21 C 0 km/h
2002 12-07-2011 20:19:01 21.5 C 12.26 g/m*3 21.5 C 0 km/h
2003 12-07-2011 20:31:02 21.2 C 12.05 g/m*3 21.2 C 0 km/h
2004 12-07-2011 20:43:02 20.6 C 12.17 g/m*3 20.6 C 0 km/h
2005 12-07-2011 20:55:02 20.7 C 11.88 g/m*3 20.7 C 0 km/h
2006 12-07-2011 21:07:02 19.7 C 12.4 g/m*3 19.7 C 0 km/h
2007 12-07-2011 21:19:02 19 C 12.39 g/m*3 19 C 0 km/h
2008 12-07-2011 21:31:02 18.6 C 12.57 g/m*3 18.6 C 0 km/h
2009 12-07-2011 21:43:02 18.1 C 12.52 g/m*3 18.1 C 0 km/h
2010 12-07-2011 21:55:02 17.7 C 12.52 g/m*3 17.7 C 0 km/h
2011 12-07-2011 22:07:02 17.4 C 12.45 g/m*3 17.4 C 0 km/h
2012 12-07-2011 22:19:02 17.4 C 12.45 g/m*3 17.4 C 0 km/h
2013 12-07-2011 22:31:02 17.2 C 12.45 g/m*3 17.2 C 0 km/h
2014 12-07-2011 22:43:02 17.2 C 12.45 g/m*3 17.2 C 0 km/h
2015 12-07-2011 22:56:04 17.2 C 12.59 g/m*3 17.2 C 0 km/h
2016 12-07-2011 23:08:04 17.2 C 12.59 g/m*3 17.2 C 0 km/h
2017 12-07-2011 23:20:04 16.8 C 12.44 g/m*3 16.8 C 0 km/h
2018 12-07-2011 23:32:04 16.8 C 12.44 g/m*3 16.8 C 0 km/h
2019 12-07-2011 23:44:04 16.7 C 12.36 g/m*3 16.7 C 0 km/h
2020 12-07-2011 23:56:04 16.6 C 12.29 g/m*3 16.6 C 0 km/h
2021 13-07-2011 00:08:04 16.9 C 12.66 g/m*3 16.9 C 0 km/h
2022 13-07-2011 00:20:04 16.6 C 12.43 g/m*3 16.6 C 0 km/h
2023 13-07-2011 00:32:04 16.5 C 12.36 g/m*3 16.5 C 0 km/h
2024 13-07-2011 00:44:04 16.4 C 12.28 g/m*3 16.4 C 0 km/h
2025 13-07-2011 00:56:05 16.5 C 12.36 g/m*3 16.5 C 0 km/h
Sensor: Nr:Datum:Temp:Abs-Feuchte:Windchill:Wind:
Aussen-T/F 2026 13-07-2011 01:08:05 16.1 C 12.06 g/m*3 16.1 C 0 km/h
2027 13-07-2011 01:20:05 16.3 C 12.21 g/m*3 16.3 C 0 km/h
2028 13-07-2011 01:32:05 16.1 C 12.06 g/m*3 16.1 C 0 km/h
2029 13-07-2011 01:44:05 16 C 11.99 g/m*3 16 C 0 km/h
2030 13-07-2011 01:56:05 16.2 C 12.14 g/m*3 16.2 C 0 km/h
2031 13-07-2011 02:08:05 15.8 C 11.98 g/m*3 15.8 C 0 km/h
2032 13-07-2011 02:20:05 15.8 C 11.98 g/m*3 15.8 C 0 km/h
2033 13-07-2011 02:32:05 15.7 C 11.91 g/m*3 15.7 C 0 km/h
2034 13-07-2011 02:44:05 15.8 C 11.98 g/m*3 15.8 C 0 km/h
2035 13-07-2011 02:56:05 15.5 C 11.76 g/m*3 15.5 C 0 km/h
2036 13-07-2011 03:08:05 15.5 C 11.76 g/m*3 15.5 C 0 km/h
2037 13-07-2011 03:20:05 15.5 C 11.76 g/m*3 15.5 C 0 km/h
2038 13-07-2011 03:32:05 15.4 C 11.69 g/m*3 15.4 C 0 km/h
2039 13-07-2011 03:44:05 15.4 C 11.69 g/m*3 15.4 C 0 km/h
2040 13-07-2011 03:56:05 15.2 C 11.55 g/m*3 15.2 C 0 km/h
2041 13-07-2011 04:08:05 15.1 C 11.48 g/m*3 15.1 C 0 km/h
2042 13-07-2011 04:20:05 15.1 C 11.48 g/m*3 15.1 C 0 km/h
2043 13-07-2011 04:32:05 15.1 C 11.48 g/m*3 15.1 C 0 km/h
2044 13-07-2011 04:44:05 15 C 11.41 g/m*3 15 C 0 km/h
2045 13-07-2011 04:56:05 15.3 C 11.62 g/m*3 15.3 C 0 km/h
2046 13-07-2011 05:08:06 15.5 C 11.76 g/m*3 15.5 C 0 km/h
2047 13-07-2011 05:20:06 16 C 12.13 g/m*3 16 C 0 km/h
2048 13-07-2011 05:32:06 16 C 12.13 g/m*3 16 C 0 km/h
2049 13-07-2011 05:44:06 16.1 C 12.2 g/m*3 16.1 C 0 km/h
2050 13-07-2011 05:56:06 16.2 C 12.27 g/m*3 16.2 C 0 km/h
Sensor: Nr:Datum:Temp:Abs-Feuchte:Windchill:Wind:
Aussen-T/F 2051 13-07-2011 06:08:06 16.3 C 12.35 g/m*3 16.3 C 0 km/h
2052 13-07-2011 06:20:06 16.5 C 12.64 g/m*3 16.5 C 0 km/h
2053 13-07-2011 06:32:06 16.6 C 12.71 g/m*3 16.6 C 0 km/h
2054 13-07-2011 06:44:06 16.6 C 12.71 g/m*3 16.6 C 0 km/h
2055 13-07-2011 06:56:06 16.9 C 12.94 g/m*3 16.9 C 0 km/h
2056 13-07-2011 07:08:06 16.8 C 12.87 g/m*3 16.8 C 0 km/h
2057 13-07-2011 07:20:03 16.8 C 12.87 g/m*3 16.8 C 0 km/h
2058 13-07-2011 07:32:03 16.8 C 12.87 g/m*3 16.8 C 0 km/h
2059 13-07-2011 07:44:03 17 C 12.88 g/m*3 17 C 0 km/h
2060 13-07-2011 07:56:02 17 C 12.88 g/m*3 17 C 0 km/h
2061 13-07-2011 08:08:02 17.1 C 12.96 g/m*3 17.1 C 0 km/h
2062 13-07-2011 08:20:02 17.1 C 12.81 g/m*3 17.1 C 0 km/h
2063 13-07-2011 08:32:02 16.9 C 12.66 g/m*3 16.9 C 0 km/h
2064 13-07-2011 08:44:02 16.8 C 12.44 g/m*3 16.8 C 0 km/h
2065 13-07-2011 08:56:02 16.8 C 12.15 g/m*3 16.8 C 0 km/h
2066 13-07-2011 09:08:01 17 C 12.01 g/m*3 17 C 0 km/h
2067 13-07-2011 09:20:02 17 C 11.87 g/m*3 17 C 0 km/h
2068 13-07-2011 09:32:01 17 C 11.58 g/m*3 17 C 0 km/h
2069 13-07-2011 09:44:01 16.9 C 11.51 g/m*3 16.9 C 0 km/h
2070 13-07-2011 09:56:02 16.7 C 11.23 g/m*3 16.7 C 0 km/h
2071 13-07-2011 10:08:02 16.6 C 10.88 g/m*3 16.6 C 0 km/h
2072 13-07-2011 10:20:02 16.5 C 10.67 g/m*3 16.5 C 0 km/h
2073 13-07-2011 10:32:02 16.7 C 10.66 g/m*3 16.7 C 0 km/h
2074 13-07-2011 10:44:02 16.9 C 10.79 g/m*3 16.9 C 0 km/h
2075 13-07-2011 10:56:02 16.9 C 10.79 g/m*3 16.9 C 0 km/h
Sensor: Nr:Datum:Temp:Abs-Feuchte:Windchill:Wind:
Aussen-T/F 2076 13-07-2011 11:08:02 17 C 10.56 g/m*3 17 C 0 km/h
2077 13-07-2011 11:20:02 17 C 10.27 g/m*3 17 C 0 km/h
2078 13-07-2011 11:32:02 17.1 C 10.04 g/m*3 17.1 C 0 km/h
2079 13-07-2011 11:44:02 17 C 9.84 g/m*3 17 C 0 km/h
2080 13-07-2011 11:56:02 16.8 C 10.15 g/m*3 16.8 C 0 km/h
2081 13-07-2011 12:08:02 17.2 C 9.67 g/m*3 17.2 C 0 km/h
2082 13-07-2011 12:20:03 17.8 C 9.56 g/m*3 17.8 C 0 km/h
2083 13-07-2011 12:32:02 18.2 C 9.48 g/m*3 18.2 C 0 km/h
2084 13-07-2011 12:44:02 19 C 9.29 g/m*3 19 C 0 km/h
2085 13-07-2011 12:56:02 18.8 C 9.18 g/m*3 18.8 C 0 km/h
2086 13-07-2011 13:08:02 19.3 C 8.96 g/m*3 19.3 C 0 km/h
2087 13-07-2011 13:20:02 19 C 8.64 g/m*3 19 C 0 km/h
2088 13-07-2011 13:32:02 19.4 C 9.01 g/m*3 19.4 C 0 km/h
2089 13-07-2011 13:44:02 18.8 C 9.02 g/m*3 18.8 C 0 km/h
2090 13-07-2011 13:56:02 18.5 C 8.86 g/m*3 18.5 C 0 km/h
2091 13-07-2011 14:08:02 18.8 C 8.86 g/m*3 18.8 C 0 km/h
2092 13-07-2011 14:20:01 18.6 C 9.07 g/m*3 18.6 C 0 km/h
2093 13-07-2011 14:32:02 18 C 9.22 g/m*3 18 C 0 km/h
2094 13-07-2011 14:44:02 17.2 C 9.67 g/m*3 17.2 C 0 km/h
2095 13-07-2011 14:56:02 16.9 C 9.64 g/m*3 16.9 C 0 km/h
2096 13-07-2011 15:08:02 16.8 C 9.72 g/m*3 16.8 C 0 km/h
2097 13-07-2011 15:20:02 16.9 C 9.92 g/m*3 16.9 C 0 km/h
2098 13-07-2011 15:32:02 17.4 C 9.48 g/m*3 17.4 C 0 km/h
2099 13-07-2011 15:44:02 17.6 C 9.3 g/m*3 17.6 C 0 km/h
2100 13-07-2011 15:56:01 17.2 C 9.08 g/m*3 17.2 C 0 km/h
Sensor: Nr:Datum:Temp:Abs-Feuchte:Windchill:Wind:
Aussen-T/F 2101 13-07-2011 16:08:02 17 C 8.83 g/m*3 17 C 0 km/h
2102 13-07-2011 16:20:02 16.9 C 9.06 g/m*3 16.9 C 0 km/h
2103 13-07-2011 16:32:02 16.6 C 9.46 g/m*3 16.6 C 0 km/h
2104 13-07-2011 16:44:02 16.2 C 9.52 g/m*3 16.2 C 0 km/h
2105 13-07-2011 16:56:02 15.9 C 9.62 g/m*3 15.9 C 0 km/h
2106 13-07-2011 17:08:01 15.5 C 9.52 g/m*3 15.5 C 0 km/h
2107 13-07-2011 17:20:02 15.3 C 9.53 g/m*3 15.3 C 0 km/h
2108 13-07-2011 17:32:01 15.2 C 9.73 g/m*3 15.2 C 0 km/h
2109 13-07-2011 17:44:01 15 C 9.75 g/m*3 15 C 0 km/h
2110 13-07-2011 17:56:02 14.8 C 9.63 g/m*3 14.8 C 0 km/h
2111 13-07-2011 18:08:01 14.8 C 9.63 g/m*3 14.8 C 0 km/h
2112 13-07-2011 18:20:01 14.8 C 9.88 g/m*3 14.8 C 0 km/h
2113 13-07-2011 18:32:02 14.5 C 9.7 g/m*3 14.5 C 0 km/h
2114 13-07-2011 18:44:02 14.4 C 9.77 g/m*3 14.4 C 0 km/h
2115 13-07-2011 18:56:02 14.5 C 9.7 g/m*3 14.5 C 0 km/h
2116 13-07-2011 19:08:02 14.8 C 9.88 g/m*3 14.8 C 0 km/h
2117 13-07-2011 19:20:02 14.8 C 9.63 g/m*3 14.8 C 0 km/h
2118 13-07-2011 19:32:02 14.9 C 9.81 g/m*3 14.9 C 0 km/h
2119 13-07-2011 19:44:02 14.9 C 9.69 g/m*3 14.9 C 0 km/h
2120 13-07-2011 19:56:02 14.5 C 9.58 g/m*3 14.5 C 0 km/h
2121 13-07-2011 20:08:02 14.5 C 9.58 g/m*3 14.5 C 0 km/h
2122 13-07-2011 20:20:01 14.5 C 9.33 g/m*3 14.5 C 0 km/h
2123 13-07-2011 20:32:04 14.5 C 9.08 g/m*3 14.5 C 0 km/h
2124 13-07-2011 20:44:04 14.4 C 9.15 g/m*3 14.4 C 0 km/h
2125 13-07-2011 20:56:02 14.4 C 9.15 g/m*3 14.4 C 0 km/h
Sensor: Nr:Datum:Temp:Abs-Feuchte:Windchill:Wind:
Aussen-T/F 2126 13-07-2011 21:08:01 13.9 C 9.11 g/m*3 13.9 C 0 km/h
2127 13-07-2011 21:20:02 13.4 C 9.07 g/m*3 13.4 C 0 km/h
2128 13-07-2011 21:32:02 13.3 C 9.13 g/m*3 13.3 C 0 km/h
2129 13-07-2011 21:44:02 13.2 C 9.19 g/m*3 13.2 C 0 km/h
2130 13-07-2011 21:57:02 13.1 C 9.24 g/m*3 13.1 C 0 km/h
2131 13-07-2011 22:09:02 13.1 C 9.36 g/m*3 13.1 C 0 km/h
2132 13-07-2011 22:21:02 13 C 9.41 g/m*3 13 C 0 km/h
2133 13-07-2011 22:33:02 13.1 C 9.59 g/m*3 13.1 C 0 km/h
2134 13-07-2011 22:45:02 13.3 C 9.59 g/m*3 13.3 C 0 km/h
2135 13-07-2011 22:57:02 13.2 C 9.3 g/m*3 13.2 C 0 km/h
2136 13-07-2011 23:09:02 13.3 C 9.01 g/m*3 13.3 C 0 km/h
2137 13-07-2011 23:21:02 13.4 C 8.72 g/m*3 13.4 C 0 km/h
2138 13-07-2011 23:33:02 13.3 C 8.9 g/m*3 13.3 C 0 km/h
2139 13-07-2011 23:45:02 13.4 C 9.07 g/m*3 13.4 C 0 km/h
2140 13-07-2011 23:57:02 13.5 C 8.89 g/m*3 13.5 C 0 km/h
2141 14-07-2011 00:09:02 13.6 C 8.71 g/m*3 13.6 C 0 km/h
2142 14-07-2011 00:21:02 13.4 C 8.6 g/m*3 13.4 C 0 km/h
2143 14-07-2011 00:33:02 13.4 C 8.72 g/m*3 13.4 C 0 km/h
2144 14-07-2011 00:45:02 13.3 C 8.78 g/m*3 13.3 C 0 km/h
2145 14-07-2011 00:57:02 13.4 C 8.83 g/m*3 13.4 C 0 km/h
2146 14-07-2011 01:09:02 13.3 C 9.01 g/m*3 13.3 C 0 km/h
2147 14-07-2011 01:21:02 13.4 C 8.83 g/m*3 13.4 C 0 km/h
2148 14-07-2011 01:33:03 13.7 C 8.53 g/m*3 13.7 C 0 km/h
2149 14-07-2011 01:45:03 13.7 C 8.41 g/m*3 13.7 C 0 km/h
2150 14-07-2011 01:57:03 13.3 C 8.09 g/m*3 13.3 C 0 km/h
Sensor: Nr:Datum:Temp:Abs-Feuchte:Windchill:Wind:
Aussen-T/F 2151 14-07-2011 02:09:03 13.5 C 8.07 g/m*3 13.5 C 0 km/h
2152 14-07-2011 02:21:03 13.6 C 7.89 g/m*3 13.6 C 0 km/h
2153 14-07-2011 02:33:03 12.9 C 8 g/m*3 12.9 C 0 km/h
2154 14-07-2011 02:45:03 12.8 C 8.18 g/m*3 12.8 C 0 km/h
2155 14-07-2011 02:57:03 13 C 8.17 g/m*3 13 C 0 km/h
2156 14-07-2011 03:09:03 13.4 C 7.9 g/m*3 13.4 C 0 km/h
2157 14-07-2011 03:21:03 13.4 C 7.79 g/m*3 13.4 C 0 km/h
2158 14-07-2011 03:33:03 13.4 C 7.67 g/m*3 13.4 C 0 km/h
2159 14-07-2011 03:45:03 13.3 C 7.74 g/m*3 13.3 C 0 km/h
2160 14-07-2011 03:57:03 13.3 C 7.86 g/m*3 13.3 C 0 km/h
2161 14-07-2011 04:09:03 13.5 C 7.72 g/m*3 13.5 C 0 km/h
2162 14-07-2011 04:21:03 13.4 C 7.56 g/m*3 13.4 C 0 km/h
2163 14-07-2011 04:33:04 13.1 C 7.65 g/m*3 13.1 C 0 km/h
2164 14-07-2011 04:45:04 13.1 C 7.53 g/m*3 13.1 C 0 km/h
2165 14-07-2011 04:57:04 13.1 C 7.65 g/m*3 13.1 C 0 km/h
2166 14-07-2011 05:09:04 13 C 7.6 g/m*3 13 C 0 km/h
2167 14-07-2011 05:21:04 12.8 C 7.73 g/m*3 12.8 C 0 km/h
2168 14-07-2011 05:33:04 12.8 C 7.73 g/m*3 12.8 C 0 km/h
2169 14-07-2011 05:45:04 12.7 C 7.68 g/m*3 12.7 C 0 km/h
2170 14-07-2011 05:57:04 12.7 C 7.79 g/m*3 12.7 C 0 km/h
2171 14-07-2011 06:09:04 12.7 C 7.79 g/m*3 12.7 C 0 km/h
2172 14-07-2011 06:21:04 13.2 C 7.69 g/m*3 13.2 C 0 km/h
2173 14-07-2011 06:33:04 13.5 C 7.49 g/m*3 13.5 C 0 km/h
2174 14-07-2011 06:45:04 13.6 C 7.41 g/m*3 13.6 C 0 km/h
2175 14-07-2011 06:57:04 13.4 C 7.44 g/m*3 13.4 C 0 km/h
Sensor: Nr:Datum:Temp:Abs-Feuchte:Windchill:Wind:
Aussen-T/F 2176 14-07-2011 07:09:02 13.8 C 7.63 g/m*3 13.8 C 0 km/h
2177 14-07-2011 07:21:01 13.7 C 7.58 g/m*3 13.7 C 0 km/h
2178 14-07-2011 07:33:02 13.4 C 7.56 g/m*3 13.4 C 0 km/h
2179 14-07-2011 07:45:01 13.4 C 7.56 g/m*3 13.4 C 0 km/h
2180 14-07-2011 07:57:01 13.8 C 7.63 g/m*3 13.8 C 0 km/h
2181 14-07-2011 08:09:02 13.6 C 7.53 g/m*3 13.6 C 0 km/h
2182 14-07-2011 08:21:02 14.3 C 7.49 g/m*3 14.3 C 0 km/h
2183 14-07-2011 08:33:02 14.7 C 7.18 g/m*3 14.7 C 0 km/h
2184 14-07-2011 08:45:02 15.1 C 7.22 g/m*3 15.1 C 0 km/h
2185 14-07-2011 08:57:02 14.9 C 7.26 g/m*3 14.9 C 0 km/h
2186 14-07-2011 09:09:01 15.1 C 7.1 g/m*3 15.1 C 0 km/h
2187 14-07-2011 09:21:02 16 C 7.08 g/m*3 16 C 0 km/h
2188 14-07-2011 09:33:01 15.8 C 6.6 g/m*3 15.8 C 0 km/h
2189 14-07-2011 09:45:02 16.1 C 6.03 g/m*3 16.1 C 0 km/h
2190 14-07-2011 09:57:02 15.9 C 5.55 g/m*3 15.9 C 0 km/h
2191 14-07-2011 10:09:01 16.4 C 5.86 g/m*3 16.4 C 0 km/h
2192 14-07-2011 10:21:01 16.4 C 5.72 g/m*3 16.4 C 0 km/h
2193 14-07-2011 10:33:01 16.6 C 5.79 g/m*3 16.6 C 0 km/h
2194 14-07-2011 10:45:02 16.1 C 5.76 g/m*3 16.1 C 0 km/h
2195 14-07-2011 10:57:02 16.6 C 5.93 g/m*3 16.6 C 0 km/h
2196 14-07-2011 11:09:02 17.5 C 5.67 g/m*3 17.5 C 0 km/h
2197 14-07-2011 11:21:02 17.2 C 5.86 g/m*3 17.2 C 0 km/h
2198 14-07-2011 11:33:02 17.4 C 5.78 g/m*3 17.4 C 0 km/h
2199 14-07-2011 11:45:02 17.4 C 5.93 g/m*3 17.4 C 0 km/h
2200 14-07-2011 11:57:02 17.6 C 6 g/m*3 17.6 C 0 km/h
Sensor: Nr:Datum:Temp:Abs-Feuchte:Windchill:Wind:
Aussen-T/F 2201 14-07-2011 12:09:01 17.6 C 5.85 g/m*3 17.6 C 0 km/h
2202 14-07-2011 12:21:01 17.8 C 5.92 g/m*3 17.8 C 0 km/h
2203 14-07-2011 12:33:02 17.9 C 5.65 g/m*3 17.9 C 0 km/h
2204 14-07-2011 12:45:02 18.9 C 5.67 g/m*3 18.9 C 0 km/h
2205 14-07-2011 12:57:02 17.7 C 5.58 g/m*3 17.7 C 0 km/h
2206 14-07-2011 13:09:02 18.3 C 5.47 g/m*3 18.3 C 0 km/h
2207 14-07-2011 13:21:01 17.7 C 5.58 g/m*3 17.7 C 0 km/h
2208 14-07-2011 13:33:02 17.8 C 5.92 g/m*3 17.8 C 0 km/h
2209 14-07-2011 13:45:02 17.5 C 5.81 g/m*3 17.5 C 0 km/h
2210 14-07-2011 13:57:02 17.5 C 5.96 g/m*3 17.5 C 0 km/h
2211 14-07-2011 14:09:02 18.2 C 5.6 g/m*3 18.2 C 0 km/h
2212 14-07-2011 14:21:01 18.9 C 5.51 g/m*3 18.9 C 0 km/h
2213 14-07-2011 14:33:02 21.9 C 5.79 g/m*3 21.9 C 0 km/h
2214 14-07-2011 14:45:01 19.6 C 5.4 g/m*3 19.6 C 0 km/h
2215 14-07-2011 14:57:01 18.9 C 5.51 g/m*3 18.9 C 0 km/h
2216 14-07-2011 15:09:02 22 C 5.82 g/m*3 22 C 0 km/h
2217 14-07-2011 15:21:02 20.8 C 5.07 g/m*3 20.8 C 0 km/h
2218 14-07-2011 15:33:02 20.9 C 5.65 g/m*3 20.9 C 0 km/h
2219 14-07-2011 15:45:02 20.8 C 5.98 g/m*3 20.8 C 0 km/h
2220 14-07-2011 15:57:02 19.5 C 5.87 g/m*3 19.5 C 0 km/h
2221 14-07-2011 16:09:02 20.5 C 5.52 g/m*3 20.5 C 0 km/h
2222 14-07-2011 16:21:02 18.8 C 5.8 g/m*3 18.8 C 0 km/h
2223 14-07-2011 16:33:01 18.5 C 5.85 g/m*3 18.5 C 0 km/h
2224 14-07-2011 16:45:02 18.5 C 6.01 g/m*3 18.5 C 0 km/h
2225 14-07-2011 16:57:02 18.2 C 5.91 g/m*3 18.2 C 0 km/h
Sensor: Nr:Datum:Temp:Abs-Feuchte:Windchill:Wind:
Aussen-T/F 2226 14-07-2011 17:09:01 18.6 C 6.37 g/m*3 18.6 C 0 km/h
2227 14-07-2011 17:21:01 19.1 C 6.39 g/m*3 19.1 C 0 km/h
2228 14-07-2011 17:33:02 17.6 C 6.45 g/m*3 17.6 C 0 km/h
2229 14-07-2011 17:45:02 16.9 C 6.47 g/m*3 16.9 C 0 km/h
2230 14-07-2011 17:57:02 17.4 C 6.37 g/m*3 17.4 C 0 km/h
2231 14-07-2011 18:09:01 17.4 C 6.08 g/m*3 17.4 C 0 km/h
2232 14-07-2011 18:21:02 17.5 C 6.26 g/m*3 17.5 C 0 km/h
2233 14-07-2011 18:33:02 17.5 C 6.26 g/m*3 17.5 C 0 km/h
2234 14-07-2011 18:45:01 17.8 C 6.07 g/m*3 17.8 C 0 km/h
2235 14-07-2011 18:57:01 17.6 C 6.15 g/m*3 17.6 C 0 km/h
2236 14-07-2011 19:09:02 17.1 C 6.55 g/m*3 17.1 C 0 km/h
2237 14-07-2011 19:21:01 16.7 C 6.54 g/m*3 16.7 C 0 km/h
2238 14-07-2011 19:33:02 16.7 C 6.54 g/m*3 16.7 C 0 km/h
2239 14-07-2011 19:45:01 17 C 6.37 g/m*3 17 C 0 km/h
2240 14-07-2011 19:57:01 16.8 C 6.29 g/m*3 16.8 C 0 km/h
2241 14-07-2011 20:09:02 16.6 C 6.22 g/m*3 16.6 C 0 km/h
2242 14-07-2011 20:21:01 16.1 C 6.17 g/m*3 16.1 C 0 km/h
2243 14-07-2011 20:33:02 16 C 6.27 g/m*3 16 C 0 km/h
2244 14-07-2011 20:45:01 15.8 C 6.46 g/m*3 15.8 C 0 km/h
2245 14-07-2011 20:57:01 15.5 C 6.48 g/m*3 15.5 C 0 km/h
2246 14-07-2011 21:09:02 15.2 C 6.62 g/m*3 15.2 C 0 km/h
2247 14-07-2011 21:21:01 15.1 C 6.58 g/m*3 15.1 C 0 km/h
2248 14-07-2011 21:33:02 15 C 6.67 g/m*3 15 C 0 km/h
2249 14-07-2011 21:45:01 15.1 C 6.45 g/m*3 15.1 C 0 km/h
2250 14-07-2011 21:57:01 15 C 6.41 g/m*3 15 C 0 km/h
Sensor: Nr:Datum:Temp:Abs-Feuchte:Windchill:Wind:
Aussen-T/F 2251 14-07-2011 22:09:02 14.8 C 6.59 g/m*3 14.8 C 0 km/h
2252 14-07-2011 22:21:02 14.6 C 6.63 g/m*3 14.6 C 0 km/h
2253 14-07-2011 22:33:02 14.2 C 6.72 g/m*3 14.2 C 0 km/h
2254 14-07-2011 22:46:03 14.1 C 6.8 g/m*3 14.1 C 0 km/h
2255 14-07-2011 22:58:03 13.8 C 6.79 g/m*3 13.8 C 0 km/h
2256 14-07-2011 23:10:03 13.8 C 6.79 g/m*3 13.8 C 0 km/h
2257 14-07-2011 23:22:03 13.8 C 6.91 g/m*3 13.8 C 0 km/h
2258 14-07-2011 23:34:03 13.8 C 6.91 g/m*3 13.8 C 0 km/h
2259 14-07-2011 23:46:03 13.8 C 6.79 g/m*3 13.8 C 0 km/h
2260 14-07-2011 23:58:03 13.5 C 6.9 g/m*3 13.5 C 0 km/h
2261 15-07-2011 00:10:03 13.7 C 7.1 g/m*3 13.7 C 0 km/h
2262 15-07-2011 00:22:03 13.6 C 7.06 g/m*3 13.6 C 0 km/h
2263 15-07-2011 00:34:03 13.4 C 6.97 g/m*3 13.4 C 0 km/h
2264 15-07-2011 00:46:03 13.5 C 6.9 g/m*3 13.5 C 0 km/h
2265 15-07-2011 00:58:03 13.4 C 6.86 g/m*3 13.4 C 0 km/h
2266 15-07-2011 01:10:03 13.5 C 6.9 g/m*3 13.5 C 0 km/h
2267 15-07-2011 01:22:03 13.5 C 6.78 g/m*3 13.5 C 0 km/h
2268 15-07-2011 01:34:03 13.5 C 6.78 g/m*3 13.5 C 0 km/h
2269 15-07-2011 01:46:03 13.4 C 6.74 g/m*3 13.4 C 0 km/h
2270 15-07-2011 01:58:04 13.4 C 6.74 g/m*3 13.4 C 0 km/h
2271 15-07-2011 02:10:04 13.4 C 6.86 g/m*3 13.4 C 0 km/h
2272 15-07-2011 02:22:04 13.4 C 6.86 g/m*3 13.4 C 0 km/h
2273 15-07-2011 02:34:04 13.4 C 6.86 g/m*3 13.4 C 0 km/h
2274 15-07-2011 02:46:04 13.5 C 6.78 g/m*3 13.5 C 0 km/h
2275 15-07-2011 02:58:04 13.4 C 6.86 g/m*3 13.4 C 0 km/h
Sensor: Nr:Datum:Temp:Abs-Feuchte:Windchill:Wind:
Aussen-T/F 2276 15-07-2011 03:10:04 13.5 C 6.9 g/m*3 13.5 C 0 km/h
2277 15-07-2011 03:22:04 13.1 C 6.62 g/m*3 13.1 C 0 km/h
2278 15-07-2011 03:34:04 13.6 C 6.83 g/m*3 13.6 C 0 km/h
2279 15-07-2011 03:46:04 13.4 C 6.86 g/m*3 13.4 C 0 km/h
2280 15-07-2011 03:58:04 13.3 C 6.82 g/m*3 13.3 C 0 km/h
2281 15-07-2011 04:10:04 13.3 C 6.82 g/m*3 13.3 C 0 km/h
2282 15-07-2011 04:22:04 13.5 C 6.78 g/m*3 13.5 C 0 km/h
2283 15-07-2011 04:34:04 13.5 C 6.78 g/m*3 13.5 C 0 km/h
2284 15-07-2011 04:46:04 13.6 C 6.71 g/m*3 13.6 C 0 km/h
2285 15-07-2011 04:58:04 13.6 C 6.83 g/m*3 13.6 C 0 km/h
2286 15-07-2011 05:10:04 13.4 C 6.97 g/m*3 13.4 C 0 km/h
2287 15-07-2011 05:22:04 13.4 C 7.09 g/m*3 13.4 C 0 km/h
2288 15-07-2011 05:34:04 13.4 C 6.97 g/m*3 13.4 C 0 km/h
2289 15-07-2011 05:46:04 13.5 C 7.13 g/m*3 13.5 C 0 km/h
2290 15-07-2011 05:58:04 13.3 C 7.16 g/m*3 13.3 C 0 km/h
2291 15-07-2011 06:10:04 13.1 C 7.19 g/m*3 13.1 C 0 km/h
2292 15-07-2011 06:22:04 13.4 C 7.21 g/m*3 13.4 C 0 km/h
2293 15-07-2011 06:34:05 13.5 C 7.13 g/m*3 13.5 C 0 km/h
2294 15-07-2011 06:46:05 13.7 C 7.1 g/m*3 13.7 C 0 km/h
2295 15-07-2011 06:58:05 13.7 C 7.1 g/m*3 13.7 C 0 km/h
2296 15-07-2011 07:10:05 13.7 C 7.1 g/m*3 13.7 C 0 km/h
2297 15-07-2011 07:22:05 13.9 C 7.07 g/m*3 13.9 C 0 km/h
2298 15-07-2011 07:34:03 14.2 C 7.08 g/m*3 14.2 C 0 km/h
2299 15-07-2011 07:46:02 14.2 C 6.96 g/m*3 14.2 C 0 km/h
2300 15-07-2011 07:58:02 14.4 C 7.05 g/m*3 14.4 C 0 km/h
Sensor: Nr:Datum:Temp:Abs-Feuchte:Windchill:Wind:
Aussen-T/F 2301 15-07-2011 08:10:02 14.5 C 7.09 g/m*3 14.5 C 0 km/h
2302 15-07-2011 08:22:02 14.7 C 7.18 g/m*3 14.7 C 0 km/h
2303 15-07-2011 08:34:02 14.9 C 7.14 g/m*3 14.9 C 0 km/h
2304 15-07-2011 08:46:01 15.4 C 7.09 g/m*3 15.4 C 0 km/h
2305 15-07-2011 08:58:01 15.1 C 7.1 g/m*3 15.1 C 0 km/h
2306 15-07-2011 09:10:01 15 C 7.18 g/m*3 15 C 0 km/h
2307 15-07-2011 09:22:01 15.1 C 7.22 g/m*3 15.1 C 0 km/h
2308 15-07-2011 09:34:02 15.4 C 7.23 g/m*3 15.4 C 0 km/h
2309 15-07-2011 09:46:02 15.6 C 7.31 g/m*3 15.6 C 0 km/h
2310 15-07-2011 09:58:02 16.9 C 7.05 g/m*3 16.9 C 0 km/h
2311 15-07-2011 10:10:02 17.7 C 6.79 g/m*3 17.7 C 0 km/h
2312 15-07-2011 10:22:02 18.2 C 6.37 g/m*3 18.2 C 0 km/h
2313 15-07-2011 10:34:03 18.9 C 6.8 g/m*3 18.9 C 0 km/h
2314 15-07-2011 10:46:02 19.3 C 5.97 g/m*3 19.3 C 0 km/h
2315 15-07-2011 10:58:02 19.5 C 6.04 g/m*3 19.5 C 0 km/h
2316 15-07-2011 11:10:02 19.5 C 5.87 g/m*3 19.5 C 0 km/h
2317 15-07-2011 11:22:02 19.8 C 5.81 g/m*3 19.8 C 0 km/h
2318 15-07-2011 11:34:03 20.8 C 5.79 g/m*3 20.8 C 0 km/h
2319 15-07-2011 11:46:02 19.8 C 5.47 g/m*3 19.8 C 0 km/h
2320 15-07-2011 11:58:02 19.8 C 5.3 g/m*3 19.8 C 0 km/h
2321 15-07-2011 12:10:02 19.8 C 5.3 g/m*3 19.8 C 0 km/h
2322 15-07-2011 12:22:01 20.1 C 5.39 g/m*3 20.1 C 0 km/h
2323 15-07-2011 12:34:02 20.8 C 5.79 g/m*3 20.8 C 0 km/h
2324 15-07-2011 12:46:02 21.3 C 5.59 g/m*3 21.3 C 0 km/h
2325 15-07-2011 12:58:02 21.2 C 5.19 g/m*3 21.2 C 0 km/h
Sensor: Nr:Datum:Temp:Abs-Feuchte:Windchill:Wind:
Aussen-T/F 2326 15-07-2011 13:10:02 23 C 5.34 g/m*3 23 C 0 km/h
2327 15-07-2011 13:22:02 22.8 C 5.08 g/m*3 22.8 C 0 km/h
2328 15-07-2011 13:34:02 23.5 C 4.23 g/m*3 23.5 C 0 km/h
2329 15-07-2011 13:46:02 24.2 C 5.28 g/m*3 24.2 C 0 km/h
2330 15-07-2011 13:58:02 24.8 C 4.55 g/m*3 24.8 C 0 km/h
2331 15-07-2011 14:10:03 25.9 C 4.84 g/m*3 25.9 C 0 km/h
2332 15-07-2011 14:22:02 27.1 C 5.18 g/m*3 27.1 C 0 km/h
2333 15-07-2011 14:34:02 29.3 C 5.84 g/m*3 29.3 C 0 km/h
2334 15-07-2011 14:46:03 29 C 5.74 g/m*3 29 C 0 km/h
2335 15-07-2011 14:58:03 25.5 C 4.73 g/m*3 25.5 C 0 km/h
2336 15-07-2011 15:10:04 28.1 C 5.47 g/m*3 28.1 C 0 km/h
2337 15-07-2011 15:22:03 26.3 C 4.95 g/m*3 26.3 C 0 km/h
2338 15-07-2011 15:34:03 27.6 C 5.32 g/m*3 27.6 C 0 km/h
2339 15-07-2011 15:46:03 26.2 C 4.92 g/m*3 26.2 C 0 km/h
2340 15-07-2011 15:58:03 28.7 C 5.65 g/m*3 28.7 C 0 km/h
2341 15-07-2011 16:10:03 31.3 C 6.5 g/m*3 31.3 C 0 km/h
2342 15-07-2011 16:22:03 28.2 C 5.5 g/m*3 28.2 C 0 km/h
2343 15-07-2011 16:34:03 27.4 C 5.26 g/m*3 27.4 C 0 km/h
2344 15-07-2011 16:46:02 25.7 C 4.79 g/m*3 25.7 C 0 km/h
2345 15-07-2011 16:58:02 28 C 5.44 g/m*3 28 C 0 km/h
2346 15-07-2011 17:10:03 27.3 C 5.23 g/m*3 27.3 C 0 km/h
2347 15-07-2011 17:22:02 28.5 C 5.59 g/m*3 28.5 C 0 km/h
2348 15-07-2011 17:34:03 25.2 C 4.66 g/m*3 25.2 C 0 km/h
2349 15-07-2011 17:46:01 25.2 C 4.66 g/m*3 25.2 C 0 km/h
2350 15-07-2011 17:58:01 25.6 C 4.76 g/m*3 25.6 C 0 km/h
Sensor: Nr:Datum:Temp:Abs-Feuchte:Windchill:Wind:
Aussen-T/F 2351 15-07-2011 18:10:03 26.4 C 4.98 g/m*3 26.4 C 0 km/h
2352 15-07-2011 18:22:02 24.3 C 4.43 g/m*3 24.3 C 0 km/h
2353 15-07-2011 18:34:02 27.6 C 5.32 g/m*3 27.6 C 0 km/h
2354 15-07-2011 18:46:02 29.6 C 5.94 g/m*3 29.6 C 0 km/h
2355 15-07-2011 18:58:02 27.1 C 5.18 g/m*3 27.1 C 0 km/h
2356 15-07-2011 19:10:05 28 C 5.44 g/m*3 28 C 0 km/h
2357 15-07-2011 19:22:02 25.1 C 4.63 g/m*3 25.1 C 0 km/h
2358 15-07-2011 19:34:02 23.2 C 4.16 g/m*3 23.2 C 0 km/h
2359 15-07-2011 19:46:02 24.2 C 4.4 g/m*3 24.2 C 0 km/h
2360 15-07-2011 19:58:02 24 C 4.35 g/m*3 24 C 0 km/h
2361 15-07-2011 20:10:02 23 C 4.32 g/m*3 23 C 0 km/h
2362 15-07-2011 20:22:02 22 C 4.46 g/m*3 22 C 0 km/h
2363 15-07-2011 20:34:02 20.7 C 5.76 g/m*3 20.7 C 0 km/h
2364 15-07-2011 20:46:02 19.9 C 6.01 g/m*3 19.9 C 0 km/h
2365 15-07-2011 20:58:02 19.7 C 5.94 g/m*3 19.7 C 0 km/h
2366 15-07-2011 21:10:03 18.6 C 6.37 g/m*3 18.6 C 0 km/h
2367 15-07-2011 21:22:02 17.9 C 6.26 g/m*3 17.9 C 0 km/h
2368 15-07-2011 21:34:02 17.4 C 5.78 g/m*3 17.4 C 0 km/h
2369 15-07-2011 21:46:02 16.8 C 6 g/m*3 16.8 C 0 km/h
2370 15-07-2011 21:58:02 16.2 C 5.79 g/m*3 16.2 C 0 km/h
2371 15-07-2011 22:10:02 15.8 C 6.46 g/m*3 15.8 C 0 km/h
2372 15-07-2011 22:22:01 15 C 6.03 g/m*3 15 C 0 km/h
2373 15-07-2011 22:34:02 14.5 C 6.34 g/m*3 14.5 C 0 km/h
2374 15-07-2011 22:47:02 14.1 C 6.19 g/m*3 14.1 C 0 km/h
2375 15-07-2011 22:59:02 13.8 C 6.31 g/m*3 13.8 C 0 km/h
Sensor: Nr:Datum:Temp:Abs-Feuchte:Windchill:Wind:
Aussen-T/F 2376 15-07-2011 23:11:02 13.4 C 6.04 g/m*3 13.4 C 0 km/h
2377 15-07-2011 23:23:02 13.1 C 6.16 g/m*3 13.1 C 0 km/h
2378 15-07-2011 23:35:02 13 C 6.24 g/m*3 13 C 0 km/h
2379 15-07-2011 23:47:02 12.8 C 6.5 g/m*3 12.8 C 0 km/h
2380 15-07-2011 23:59:02 12.4 C 6.34 g/m*3 12.4 C 0 km/h
2381 16-07-2011 00:11:02 12.2 C 6.15 g/m*3 12.2 C 0 km/h
2382 16-07-2011 00:23:02 12.3 C 6.3 g/m*3 12.3 C 0 km/h
2383 16-07-2011 00:35:02 12.1 C 6.22 g/m*3 12.1 C 0 km/h
2384 16-07-2011 00:47:02 11.9 C 6.25 g/m*3 11.9 C 0 km/h
2385 16-07-2011 00:59:02 11.7 C 6.28 g/m*3 11.7 C 0 km/h
2386 16-07-2011 01:11:02 11.3 C 6.32 g/m*3 11.3 C 0 km/h
2387 16-07-2011 01:23:02 11.1 C 6.35 g/m*3 11.1 C 0 km/h
2388 16-07-2011 01:35:02 10.8 C 6.42 g/m*3 10.8 C 0 km/h
2389 16-07-2011 01:47:02 10.7 C 6.48 g/m*3 10.7 C 0 km/h
2390 16-07-2011 01:59:02 10.6 C 6.64 g/m*3 10.6 C 0 km/h
2391 16-07-2011 02:11:02 10.4 C 6.65 g/m*3 10.4 C 0 km/h
2392 16-07-2011 02:23:02 10.3 C 6.7 g/m*3 10.3 C 0 km/h
2393 16-07-2011 02:35:02 10.3 C 6.8 g/m*3 10.3 C 0 km/h
2394 16-07-2011 02:47:02 10.1 C 6.71 g/m*3 10.1 C 0 km/h
2395 16-07-2011 02:59:02 9.9 C 6.82 g/m*3 9.9 C 0 km/h
2396 16-07-2011 03:11:03 9.8 C 6.87 g/m*3 9.8 C 0 km/h
2397 16-07-2011 03:23:03 9.7 C 6.91 g/m*3 9.7 C 0 km/h
2398 16-07-2011 03:35:03 9.7 C 7.01 g/m*3 9.7 C 0 km/h
2399 16-07-2011 03:47:03 9.4 C 6.96 g/m*3 9.4 C 0 km/h
2400 16-07-2011 03:59:03 9.1 C 6.74 g/m*3 9.1 C 0 km/h
Sensor: Nr:Datum:Temp:Abs-Feuchte:Windchill:Wind:
Aussen-T/F 2401 16-07-2011 04:11:03 9 C 6.79 g/m*3 9 C 0 km/h
2402 16-07-2011 04:23:03 8.9 C 6.92 g/m*3 8.9 C 0 km/h
2403 16-07-2011 04:35:03 8.9 C 7.1 g/m*3 8.9 C 0 km/h
2404 16-07-2011 04:47:03 8.7 C 7.01 g/m*3 8.7 C 0 km/h
2405 16-07-2011 04:59:03 8.5 C 6.92 g/m*3 8.5 C 0 km/h
2406 16-07-2011 05:11:03 8.5 C 7 g/m*3 8.5 C 0 km/h
2407 16-07-2011 05:23:03 8.5 C 7.09 g/m*3 8.5 C 0 km/h
2408 16-07-2011 05:35:03 8.4 C 7.04 g/m*3 8.4 C 0 km/h
2409 16-07-2011 05:47:03 8.2 C 6.95 g/m*3 8.2 C 0 km/h
2410 16-07-2011 05:59:03 8.5 C 7.17 g/m*3 8.5 C 0 km/h
2411 16-07-2011 06:11:03 8.4 C 7.13 g/m*3 8.4 C 0 km/h
2412 16-07-2011 06:23:03 8.5 C 7.17 g/m*3 8.5 C 0 km/h
2413 16-07-2011 06:35:03 8.6 C 7.3 g/m*3 8.6 C 0 km/h
2414 16-07-2011 06:47:03 8.8 C 7.4 g/m*3 8.8 C 0 km/h
2415 16-07-2011 06:59:03 9.1 C 7.45 g/m*3 9.1 C 0 km/h
2416 16-07-2011 07:11:03 9.8 C 7.79 g/m*3 9.8 C 0 km/h
2417 16-07-2011 07:23:03 11 C 8.31 g/m*3 11 C 0 km/h
2418 16-07-2011 07:35:04 11.7 C 8.26 g/m*3 11.7 C 0 km/h
2419 16-07-2011 07:47:04 11.9 C 7.94 g/m*3 11.9 C 0 km/h
2420 16-07-2011 07:59:04 12.6 C 7.85 g/m*3 12.6 C 0 km/h
2421 16-07-2011 08:11:04 13.5 C 7.95 g/m*3 13.5 C 0 km/h
2422 16-07-2011 08:23:02 13.7 C 7.7 g/m*3 13.7 C 0 km/h
2423 16-07-2011 08:35:02 14.2 C 7.45 g/m*3 14.2 C 0 km/h
2424 16-07-2011 08:47:02 14.8 C 7.47 g/m*3 14.8 C 0 km/h
2425 16-07-2011 08:59:02 15.8 C 7.54 g/m*3 15.8 C 0 km/h
Sensor: Nr:Datum:Temp:Abs-Feuchte:Windchill:Wind:
Aussen-T/F 2426 16-07-2011 09:11:03 16.5 C 7.44 g/m*3 16.5 C 0 km/h
2427 16-07-2011 09:23:02 17.1 C 7.57 g/m*3 17.1 C 0 km/h
2428 16-07-2011 09:35:02 17.7 C 7.39 g/m*3 17.7 C 0 km/h
2429 16-07-2011 09:47:02 18.1 C 7.42 g/m*3 18.1 C 0 km/h
2430 16-07-2011 09:59:02 19.7 C 7.3 g/m*3 19.7 C 0 km/h
2431 16-07-2011 10:11:01 20.1 C 7.3 g/m*3 20.1 C 0 km/h
2432 16-07-2011 10:23:02 20.3 C 8.09 g/m*3 20.3 C 0 km/h
2433 16-07-2011 10:35:02 21.4 C 8.06 g/m*3 21.4 C 0 km/h
2434 16-07-2011 10:47:01 22.5 C 5.99 g/m*3 22.5 C 0 km/h
2435 16-07-2011 10:59:01 23.1 C 5.17 g/m*3 23.1 C 0 km/h
2436 16-07-2011 11:11:02 24 C 5 g/m*3 24 C 0 km/h
2437 16-07-2011 11:23:01 24.4 C 4.67 g/m*3 24.4 C 0 km/h
2438 16-07-2011 11:35:01 25.2 C 4.89 g/m*3 25.2 C 0 km/h
2439 16-07-2011 11:47:01 25.6 C 5 g/m*3 25.6 C 0 km/h
2440 16-07-2011 11:59:01 26.3 C 4.95 g/m*3 26.3 C 0 km/h
2441 16-07-2011 12:11:02 25.7 C 4.79 g/m*3 25.7 C 0 km/h
2442 16-07-2011 12:23:01 26.2 C 5.17 g/m*3 26.2 C 0 km/h
2443 16-07-2011 12:35:02 25.8 C 5.06 g/m*3 25.8 C 0 km/h
2444 16-07-2011 12:47:01 26 C 4.87 g/m*3 26 C 0 km/h
2445 16-07-2011 12:59:01 26 C 5.11 g/m*3 26 C 0 km/h
2446 16-07-2011 13:11:02 26.7 C 5.06 g/m*3 26.7 C 0 km/h
2447 16-07-2011 13:23:02 27.3 C 5.23 g/m*3 27.3 C 0 km/h
2448 16-07-2011 13:35:01 27.2 C 5.2 g/m*3 27.2 C 0 km/h
2449 16-07-2011 13:47:02 26.3 C 4.95 g/m*3 26.3 C 0 km/h
2450 16-07-2011 13:59:02 26.6 C 5.03 g/m*3 26.6 C 0 km/h
Sensor: Nr:Datum:Temp:Abs-Feuchte:Windchill:Wind:
Aussen-T/F 2451 16-07-2011 14:11:01 26.6 C 5.03 g/m*3 26.6 C 0 km/h
2452 16-07-2011 14:23:02 26.8 C 5.35 g/m*3 26.8 C 0 km/h
2453 16-07-2011 14:35:01 27.3 C 5.23 g/m*3 27.3 C 0 km/h
2454 16-07-2011 14:47:02 27.4 C 5.26 g/m*3 27.4 C 0 km/h
2455 16-07-2011 14:59:02 28.1 C 5.47 g/m*3 28.1 C 0 km/h
2456 16-07-2011 15:11:01 27.9 C 5.41 g/m*3 27.9 C 0 km/h
2457 16-07-2011 15:23:02 27.5 C 5.29 g/m*3 27.5 C 0 km/h
2458 16-07-2011 15:35:01 27.7 C 5.35 g/m*3 27.7 C 0 km/h
2459 16-07-2011 15:47:02 27 C 5.15 g/m*3 27 C 0 km/h
2460 16-07-2011 15:59:03 27.3 C 5.23 g/m*3 27.3 C 0 km/h
2461 16-07-2011 16:11:02 27.7 C 5.35 g/m*3 27.7 C 0 km/h
2462 16-07-2011 16:23:02 27.9 C 5.41 g/m*3 27.9 C 0 km/h
2463 16-07-2011 16:35:03 28.3 C 5.53 g/m*3 28.3 C 0 km/h
2464 16-07-2011 16:47:01 27.5 C 5.29 g/m*3 27.5 C 0 km/h
2465 16-07-2011 16:59:01 27.5 C 5.29 g/m*3 27.5 C 0 km/h
2466 16-07-2011 17:11:02 26.8 C 5.09 g/m*3 26.8 C 0 km/h
2467 16-07-2011 17:23:02 26.9 C 5.63 g/m*3 26.9 C 0 km/h
2468 16-07-2011 17:35:02 26.4 C 5.23 g/m*3 26.4 C 0 km/h
2469 16-07-2011 17:47:02 26.5 C 5.51 g/m*3 26.5 C 0 km/h
2470 16-07-2011 17:59:02 25.5 C 5.68 g/m*3 25.5 C 0 km/h
2471 16-07-2011 18:11:02 25.2 C 6.05 g/m*3 25.2 C 0 km/h
2472 16-07-2011 18:23:02 25.1 C 5.79 g/m*3 25.1 C 0 km/h
2473 16-07-2011 18:35:01 25 C 5.75 g/m*3 25 C 0 km/h
2474 16-07-2011 18:47:02 24.9 C 5.72 g/m*3 24.9 C 0 km/h
2475 16-07-2011 18:59:02 24.8 C 5.69 g/m*3 24.8 C 0 km/h
Sensor: Nr:Datum:Temp:Abs-Feuchte:Windchill:Wind:
Aussen-T/F 2476 16-07-2011 19:11:01 24.5 C 5.82 g/m*3 24.5 C 0 km/h
2477 16-07-2011 19:23:01 24.3 C 6.2 g/m*3 24.3 C 0 km/h
2478 16-07-2011 19:35:02 24.3 C 5.75 g/m*3 24.3 C 0 km/h
2479 16-07-2011 19:47:02 24.1 C 6.13 g/m*3 24.1 C 0 km/h
2480 16-07-2011 19:59:02 23.7 C 6.2 g/m*3 23.7 C 0 km/h
2481 16-07-2011 20:11:02 23.4 C 6.31 g/m*3 23.4 C 0 km/h
2482 16-07-2011 20:23:02 23.2 C 6.24 g/m*3 23.2 C 0 km/h
2483 16-07-2011 20:35:02 22.5 C 7.19 g/m*3 22.5 C 0 km/h
2484 16-07-2011 20:47:02 21.9 C 7.53 g/m*3 21.9 C 0 km/h
2485 16-07-2011 20:59:02 21.4 C 7.5 g/m*3 21.4 C 0 km/h
2486 16-07-2011 21:11:02 21.4 C 7.31 g/m*3 21.4 C 0 km/h
2487 16-07-2011 21:23:02 21.3 C 7.46 g/m*3 21.3 C 0 km/h
2488 16-07-2011 21:35:02 21.3 C 7.27 g/m*3 21.3 C 0 km/h
2489 16-07-2011 21:47:01 22.6 C 7.23 g/m*3 22.6 C 0 km/h
2490 16-07-2011 21:59:01 22.1 C 7.42 g/m*3 22.1 C 0 km/h
2491 16-07-2011 22:11:02 21.5 C 7.73 g/m*3 21.5 C 0 km/h
2492 16-07-2011 22:24:02 20.9 C 8.38 g/m*3 20.9 C 0 km/h
2493 16-07-2011 22:36:02 20.3 C 8.09 g/m*3 20.3 C 0 km/h
2494 16-07-2011 22:48:02 19.8 C 8.54 g/m*3 19.8 C 0 km/h
2495 16-07-2011 23:00:02 19.7 C 8.49 g/m*3 19.7 C 0 km/h
2496 16-07-2011 23:12:02 19.7 C 8.49 g/m*3 19.7 C 0 km/h
2497 16-07-2011 23:24:02 19.8 C 8.37 g/m*3 19.8 C 0 km/h
2498 16-07-2011 23:36:02 20.9 C 8.38 g/m*3 20.9 C 0 km/h
2499 16-07-2011 23:48:02 19.9 C 9.28 g/m*3 19.9 C 0 km/h
2500 17-07-2011 00:00:02 19.1 C 9.67 g/m*3 19.1 C 0 km/h
Sensor: Nr:Datum:Temp:Abs-Feuchte:Windchill:Wind:
Aussen-T/F 2501 17-07-2011 00:12:02 18.2 C 10.1 g/m*3 18.2 C 0 km/h
2502 17-07-2011 00:24:02 17.4 C 10.67 g/m*3 17.4 C 0 km/h
2503 17-07-2011 00:36:02 17 C 11 g/m*3 17 C 0 km/h
2504 17-07-2011 00:48:02 16.8 C 11.29 g/m*3 16.8 C 0 km/h
2505 17-07-2011 01:00:02 16.6 C 11.44 g/m*3 16.6 C 0 km/h
2506 17-07-2011 01:12:02 16.5 C 11.51 g/m*3 16.5 C 0 km/h
2507 17-07-2011 01:24:02 16.4 C 11.58 g/m*3 16.4 C 0 km/h
2508 17-07-2011 01:36:02 16.4 C 11.72 g/m*3 16.4 C 0 km/h
2509 17-07-2011 01:48:02 16.5 C 11.94 g/m*3 16.5 C 0 km/h
2510 17-07-2011 02:00:02 16.6 C 12.01 g/m*3 16.6 C 0 km/h
2511 17-07-2011 02:12:02 16.5 C 12.08 g/m*3 16.5 C 0 km/h
2512 17-07-2011 02:24:02 16.5 C 12.08 g/m*3 16.5 C 0 km/h
2513 17-07-2011 02:36:02 16.5 C 12.08 g/m*3 16.5 C 0 km/h
2514 17-07-2011 02:48:03 16.5 C 12.22 g/m*3 16.5 C 0 km/h
2515 17-07-2011 03:00:03 16.6 C 12.29 g/m*3 16.6 C 0 km/h
2516 17-07-2011 03:12:03 16.5 C 12.22 g/m*3 16.5 C 0 km/h
2517 17-07-2011 03:24:03 16.5 C 12.36 g/m*3 16.5 C 0 km/h
2518 17-07-2011 03:36:03 16.5 C 12.36 g/m*3 16.5 C 0 km/h
2519 17-07-2011 03:48:03 16.5 C 12.36 g/m*3 16.5 C 0 km/h
2520 17-07-2011 04:00:03 16.5 C 12.36 g/m*3 16.5 C 0 km/h
2521 17-07-2011 04:12:03 16.5 C 12.36 g/m*3 16.5 C 0 km/h
2522 17-07-2011 04:24:03 16.6 C 12.43 g/m*3 16.6 C 0 km/h
2523 17-07-2011 04:36:03 16.8 C 12.58 g/m*3 16.8 C 0 km/h
2524 17-07-2011 04:48:03 16.4 C 12.28 g/m*3 16.4 C 0 km/h
2525 17-07-2011 05:00:03 16.3 C 12.21 g/m*3 16.3 C 0 km/h
Sensor: Nr:Datum:Temp:Abs-Feuchte:Windchill:Wind:
Aussen-T/F 2526 17-07-2011 05:12:03 16.2 C 12.14 g/m*3 16.2 C 0 km/h
2527 17-07-2011 05:24:03 16.2 C 12.14 g/m*3 16.2 C 0 km/h
2528 17-07-2011 05:36:03 16.2 C 12.14 g/m*3 16.2 C 0 km/h
2529 17-07-2011 05:48:03 16.2 C 12.14 g/m*3 16.2 C 0 km/h
2530 17-07-2011 06:00:03 16.2 C 12.14 g/m*3 16.2 C 0 km/h
2531 17-07-2011 06:12:03 16.2 C 12.27 g/m*3 16.2 C 0 km/h
2532 17-07-2011 06:24:03 16.2 C 12.27 g/m*3 16.2 C 0 km/h
2533 17-07-2011 06:36:03 16 C 12.13 g/m*3 16 C 0 km/h
2534 17-07-2011 06:48:03 16 C 12.13 g/m*3 16 C 0 km/h
2535 17-07-2011 07:00:03 16 C 12.13 g/m*3 16 C 0 km/h
2536 17-07-2011 07:12:04 15.9 C 12.05 g/m*3 15.9 C 0 km/h
2537 17-07-2011 07:24:04 15.9 C 12.05 g/m*3 15.9 C 0 km/h
2538 17-07-2011 07:36:04 15.8 C 11.98 g/m*3 15.8 C 0 km/h
2539 17-07-2011 07:48:04 15.8 C 11.98 g/m*3 15.8 C 0 km/h
2540 17-07-2011 08:00:04 15.9 C 12.05 g/m*3 15.9 C 0 km/h
2541 17-07-2011 08:12:04 16 C 12.13 g/m*3 16 C 0 km/h
2542 17-07-2011 08:24:02 15.6 C 11.84 g/m*3 15.6 C 0 km/h
2543 17-07-2011 08:36:02 15.4 C 11.69 g/m*3 15.4 C 0 km/h
2544 17-07-2011 08:48:02 15.3 C 11.49 g/m*3 15.3 C 0 km/h
2545 17-07-2011 09:00:02 15.5 C 11.63 g/m*3 15.5 C 0 km/h
2546 17-07-2011 09:12:02 15.6 C 11.7 g/m*3 15.6 C 0 km/h
2547 17-07-2011 09:24:02 15.4 C 11.43 g/m*3 15.4 C 0 km/h
2548 17-07-2011 09:36:02 16.2 C 11.58 g/m*3 16.2 C 0 km/h
2549 17-07-2011 09:48:02 16.2 C 11.17 g/m*3 16.2 C 0 km/h
2550 17-07-2011 10:00:02 16.8 C 11.29 g/m*3 16.8 C 0 km/h
Sensor: Nr:Datum:Temp:Abs-Feuchte:Windchill:Wind:
Aussen-T/F 2551 17-07-2011 10:12:02 17.3 C 10.9 g/m*3 17.3 C 0 km/h
2552 17-07-2011 10:24:01 18 C 10.91 g/m*3 18 C 0 km/h
2553 17-07-2011 10:36:03 18.2 C 10.72 g/m*3 18.2 C 0 km/h
2554 17-07-2011 10:48:02 18 C 10.75 g/m*3 18 C 0 km/h
2555 17-07-2011 11:00:02 18.4 C 11.01 g/m*3 18.4 C 0 km/h
2556 17-07-2011 11:12:03 19.2 C 10.72 g/m*3 19.2 C 0 km/h
2557 17-07-2011 11:24:02 19.4 C 10.84 g/m*3 19.4 C 0 km/h
2558 17-07-2011 11:36:02 19.2 C 10.55 g/m*3 19.2 C 0 km/h
2559 17-07-2011 11:48:02 20.2 C 10.67 g/m*3 20.2 C 0 km/h
2560 17-07-2011 12:00:02 20.5 C 10.14 g/m*3 20.5 C 0 km/h
2561 17-07-2011 12:12:03 21.2 C 10.01 g/m*3 21.2 C 0 km/h
2562 17-07-2011 12:24:02 20.4 C 9.91 g/m*3 20.4 C 0 km/h
2563 17-07-2011 12:36:02 20.2 C 10.14 g/m*3 20.2 C 0 km/h
2564 17-07-2011 12:48:01 20.7 C 10.62 g/m*3 20.7 C 0 km/h
2565 17-07-2011 13:00:01 21 C 9.53 g/m*3 21 C 0 km/h
2566 17-07-2011 13:12:02 20.5 C 9.07 g/m*3 20.5 C 0 km/h
2567 17-07-2011 13:24:02 20 C 8.3 g/m*3 20 C 0 km/h
2568 17-07-2011 13:36:01 19.4 C 8.01 g/m*3 19.4 C 0 km/h
2569 17-07-2011 13:48:02 20.1 C 8.69 g/m*3 20.1 C 0 km/h
2570 17-07-2011 14:00:02 20.6 C 8.41 g/m*3 20.6 C 0 km/h
2571 17-07-2011 14:12:01 19.5 C 8.22 g/m*3 19.5 C 0 km/h
2572 17-07-2011 14:24:02 18.7 C 8.49 g/m*3 18.7 C 0 km/h
2573 17-07-2011 14:36:01 18.2 C 8.08 g/m*3 18.2 C 0 km/h
2574 17-07-2011 14:48:02 19.2 C 7.75 g/m*3 19.2 C 0 km/h
2575 17-07-2011 15:00:02 20 C 7.43 g/m*3 20 C 0 km/h
Sensor: Nr:Datum:Temp:Abs-Feuchte:Windchill:Wind:
Aussen-T/F 2576 17-07-2011 15:12:02 19.9 C 7.73 g/m*3 19.9 C 0 km/h
2577 17-07-2011 15:24:02 19.9 C 7.56 g/m*3 19.9 C 0 km/h
2578 17-07-2011 15:36:03 20.2 C 7.17 g/m*3 20.2 C 0 km/h
2579 17-07-2011 15:48:02 21.2 C 7.04 g/m*3 21.2 C 0 km/h
2580 17-07-2011 16:00:02 21.2 C 6.86 g/m*3 21.2 C 0 km/h
2581 17-07-2011 16:12:01 21 C 6.59 g/m*3 21 C 0 km/h
2582 17-07-2011 16:24:02 21.1 C 6.45 g/m*3 21.1 C 0 km/h
2583 17-07-2011 16:36:02 20.3 C 6.68 g/m*3 20.3 C 0 km/h
2584 17-07-2011 16:48:02 20.4 C 6.72 g/m*3 20.4 C 0 km/h
2585 17-07-2011 17:00:02 19.8 C 7 g/m*3 19.8 C 0 km/h
2586 17-07-2011 17:12:03 20.4 C 6.55 g/m*3 20.4 C 0 km/h
2587 17-07-2011 17:24:02 19.4 C 6.67 g/m*3 19.4 C 0 km/h
2588 17-07-2011 17:36:02 19.2 C 6.76 g/m*3 19.2 C 0 km/h
2589 17-07-2011 17:48:01 19.3 C 6.63 g/m*3 19.3 C 0 km/h
2590 17-07-2011 18:00:01 19.3 C 6.63 g/m*3 19.3 C 0 km/h
2591 17-07-2011 18:12:02 20.3 C 6.68 g/m*3 20.3 C 0 km/h
2592 17-07-2011 18:24:01 19.4 C 7.01 g/m*3 19.4 C 0 km/h
2593 17-07-2011 18:36:02 18.4 C 6.76 g/m*3 18.4 C 0 km/h
2594 17-07-2011 18:48:01 18.7 C 7.36 g/m*3 18.7 C 0 km/h
2595 17-07-2011 19:00:01 18.4 C 7.24 g/m*3 18.4 C 0 km/h
2596 17-07-2011 19:12:02 18.3 C 7.66 g/m*3 18.3 C 0 km/h
2597 17-07-2011 19:24:01 18.1 C 7.11 g/m*3 18.1 C 0 km/h
2598 17-07-2011 19:36:02 18.4 C 7.71 g/m*3 18.4 C 0 km/h
2599 17-07-2011 19:48:01 17.8 C 7.59 g/m*3 17.8 C 0 km/h
2600 17-07-2011 20:00:01 17.5 C 8.05 g/m*3 17.5 C 0 km/h
Sensor: Nr:Datum:Temp:Abs-Feuchte:Windchill:Wind:
Aussen-T/F 2601 17-07-2011 20:12:02 17.3 C 7.81 g/m*3 17.3 C 0 km/h
2602 17-07-2011 20:24:02 18.1 C 7.26 g/m*3 18.1 C 0 km/h
2603 17-07-2011 20:36:02 18.4 C 7.24 g/m*3 18.4 C 0 km/h
2604 17-07-2011 20:48:01 18.1 C 7.42 g/m*3 18.1 C 0 km/h
2605 17-07-2011 21:00:01 17.5 C 8.2 g/m*3 17.5 C 0 km/h
2606 17-07-2011 21:12:02 17.1 C 8.73 g/m*3 17.1 C 0 km/h
2607 17-07-2011 21:24:02 16.9 C 8.2 g/m*3 16.9 C 0 km/h
2608 17-07-2011 21:36:01 16.5 C 8.71 g/m*3 16.5 C 0 km/h
2609 17-07-2011 21:48:02 16.4 C 8.23 g/m*3 16.4 C 0 km/h
2610 17-07-2011 22:00:02 15.8 C 8.35 g/m*3 15.8 C 0 km/h
2611 17-07-2011 22:12:02 15.8 C 8.21 g/m*3 15.8 C 0 km/h
2612 17-07-2011 22:25:03 15.9 C 8.13 g/m*3 15.9 C 0 km/h
2613 17-07-2011 22:37:03 16 C 7.49 g/m*3 16 C 0 km/h
2614 17-07-2011 22:49:03 15.3 C 7.7 g/m*3 15.3 C 0 km/h
2615 17-07-2011 23:01:03 14.8 C 7.98 g/m*3 14.8 C 0 km/h
2616 17-07-2011 23:13:04 15.4 C 7.49 g/m*3 15.4 C 0 km/h
2617 17-07-2011 23:25:04 15.8 C 7.54 g/m*3 15.8 C 0 km/h
2618 17-07-2011 23:37:04 15.8 C 7.54 g/m*3 15.8 C 0 km/h
2619 17-07-2011 23:49:04 15.6 C 7.71 g/m*3 15.6 C 0 km/h
2620 18-07-2011 00:01:04 15.9 C 8.13 g/m*3 15.9 C 0 km/h
2621 18-07-2011 00:13:04 15.5 C 8.2 g/m*3 15.5 C 0 km/h
2622 18-07-2011 00:25:04 15.6 C 8.38 g/m*3 15.6 C 0 km/h
2623 18-07-2011 00:37:04 15.3 C 8.36 g/m*3 15.3 C 0 km/h
2624 18-07-2011 00:49:04 15.1 C 8.51 g/m*3 15.1 C 0 km/h
2625 18-07-2011 01:01:04 14.5 C 8.83 g/m*3 14.5 C 0 km/h
Sensor: Nr:Datum:Temp:Abs-Feuchte:Windchill:Wind:
Aussen-T/F 2626 18-07-2011 01:13:04 14.5 C 8.95 g/m*3 14.5 C 0 km/h
2627 18-07-2011 01:25:04 14.5 C 8.95 g/m*3 14.5 C 0 km/h
2628 18-07-2011 01:37:04 14.5 C 8.95 g/m*3 14.5 C 0 km/h
2629 18-07-2011 01:49:04 14.4 C 8.9 g/m*3 14.4 C 0 km/h
2630 18-07-2011 02:01:04 14.3 C 8.85 g/m*3 14.3 C 0 km/h
2631 18-07-2011 02:13:04 14.1 C 8.86 g/m*3 14.1 C 0 km/h
2632 18-07-2011 02:25:04 13.7 C 8.88 g/m*3 13.7 C 0 km/h
2633 18-07-2011 02:37:04 14 C 9.05 g/m*3 14 C 0 km/h
2634 18-07-2011 02:49:04 13.9 C 9.23 g/m*3 13.9 C 0 km/h
2635 18-07-2011 03:01:04 13.4 C 9.3 g/m*3 13.4 C 0 km/h
2636 18-07-2011 03:13:04 13 C 9.3 g/m*3 13 C 0 km/h
2637 18-07-2011 03:25:04 12.7 C 9.35 g/m*3 12.7 C 0 km/h
2638 18-07-2011 03:37:05 12.9 C 9.69 g/m*3 12.9 C 0 km/h
2639 18-07-2011 03:49:05 12.6 C 9.51 g/m*3 12.6 C 0 km/h
2640 18-07-2011 04:01:05 12.2 C 9.28 g/m*3 12.2 C 0 km/h
2641 18-07-2011 04:13:05 12.3 C 9.45 g/m*3 12.3 C 0 km/h
2642 18-07-2011 04:25:05 12.7 C 9.68 g/m*3 12.7 C 0 km/h
2643 18-07-2011 04:37:05 12.9 C 9.69 g/m*3 12.9 C 0 km/h
2644 18-07-2011 04:49:05 13.1 C 9.59 g/m*3 13.1 C 0 km/h
2645 18-07-2011 05:01:05 13.2 C 9.3 g/m*3 13.2 C 0 km/h
2646 18-07-2011 05:13:05 12.9 C 9.24 g/m*3 12.9 C 0 km/h
2647 18-07-2011 05:25:05 13.1 C 9.36 g/m*3 13.1 C 0 km/h
2648 18-07-2011 05:37:05 13.1 C 9.47 g/m*3 13.1 C 0 km/h
2649 18-07-2011 05:49:05 13.4 C 9.42 g/m*3 13.4 C 0 km/h
2650 18-07-2011 06:01:05 13 C 8.85 g/m*3 13 C 0 km/h
Sensor: Nr:Datum:Temp:Abs-Feuchte:Windchill:Wind:
Aussen-T/F 2651 18-07-2011 06:13:05 12.8 C 8.96 g/m*3 12.8 C 0 km/h
2652 18-07-2011 06:25:05 13 C 9.19 g/m*3 13 C 0 km/h
2653 18-07-2011 06:37:05 13.4 C 9.18 g/m*3 13.4 C 0 km/h
2654 18-07-2011 06:49:05 13.5 C 9.01 g/m*3 13.5 C 0 km/h
2655 18-07-2011 07:01:05 14.4 C 9.02 g/m*3 14.4 C 0 km/h
2656 18-07-2011 07:13:05 15.5 C 8.72 g/m*3 15.5 C 0 km/h
2657 18-07-2011 07:25:05 15.9 C 8.67 g/m*3 15.9 C 0 km/h
2658 18-07-2011 07:37:03 16 C 8.45 g/m*3 16 C 0 km/h
2659 18-07-2011 07:49:02 15.6 C 8.64 g/m*3 15.6 C 0 km/h
2660 18-07-2011 08:01:02 15.7 C 8.7 g/m*3 15.7 C 0 km/h
2661 18-07-2011 08:13:02 15.8 C 8.75 g/m*3 15.8 C 0 km/h
2662 18-07-2011 08:25:02 16 C 8.45 g/m*3 16 C 0 km/h
2663 18-07-2011 08:37:01 16.4 C 8.51 g/m*3 16.4 C 0 km/h
2664 18-07-2011 08:49:02 16.6 C 8.48 g/m*3 16.6 C 0 km/h
2665 18-07-2011 09:01:01 16.9 C 8.34 g/m*3 16.9 C 0 km/h
2666 18-07-2011 09:13:01 16.7 C 8.1 g/m*3 16.7 C 0 km/h
2667 18-07-2011 09:25:02 17.4 C 8.15 g/m*3 17.4 C 0 km/h
2668 18-07-2011 09:37:02 17.4 C 7.85 g/m*3 17.4 C 0 km/h
2669 18-07-2011 09:49:02 17.3 C 7.81 g/m*3 17.3 C 0 km/h
2670 18-07-2011 10:01:02 17.1 C 7.86 g/m*3 17.1 C 0 km/h
2671 18-07-2011 10:13:02 17.6 C 7.95 g/m*3 17.6 C 0 km/h
2672 18-07-2011 10:25:02 17.5 C 7.6 g/m*3 17.5 C 0 km/h
2673 18-07-2011 10:37:03 17.5 C 7.6 g/m*3 17.5 C 0 km/h
2674 18-07-2011 10:49:02 18.2 C 7.62 g/m*3 18.2 C 0 km/h
2675 18-07-2011 11:01:02 18.7 C 7.52 g/m*3 18.7 C 0 km/h
Sensor: Nr:Datum:Temp:Abs-Feuchte:Windchill:Wind:
Aussen-T/F 2676 18-07-2011 11:13:02 18.3 C 7.51 g/m*3 18.3 C 0 km/h
2677 18-07-2011 11:25:02 18.5 C 7.44 g/m*3 18.5 C 0 km/h
2678 18-07-2011 11:37:02 18.6 C 7.64 g/m*3 18.6 C 0 km/h
2679 18-07-2011 11:49:02 19 C 7.33 g/m*3 19 C 0 km/h
2680 18-07-2011 12:01:02 18.9 C 7.45 g/m*3 18.9 C 0 km/h
2681 18-07-2011 12:13:02 18.7 C 7.2 g/m*3 18.7 C 0 km/h
2682 18-07-2011 12:25:02 19.2 C 7.09 g/m*3 19.2 C 0 km/h
2683 18-07-2011 12:37:02 19.9 C 7.22 g/m*3 19.9 C 0 km/h
2684 18-07-2011 12:49:02 19.7 C 7.13 g/m*3 19.7 C 0 km/h
2685 18-07-2011 13:01:02 20.6 C 7.16 g/m*3 20.6 C 0 km/h
2686 18-07-2011 13:13:03 20.8 C 7.24 g/m*3 20.8 C 0 km/h
2687 18-07-2011 13:25:02 20.4 C 6.9 g/m*3 20.4 C 0 km/h
2688 18-07-2011 13:37:02 21.5 C 5.85 g/m*3 21.5 C 0 km/h
2689 18-07-2011 13:49:02 20.9 C 6.37 g/m*3 20.9 C 0 km/h
2690 18-07-2011 14:01:02 21.9 C 6.18 g/m*3 21.9 C 0 km/h
2691 18-07-2011 14:13:02 22.5 C 6.59 g/m*3 22.5 C 0 km/h
2692 18-07-2011 14:25:02 24.3 C 6.64 g/m*3 24.3 C 0 km/h
2693 18-07-2011 14:37:02 24.6 C 6.08 g/m*3 24.6 C 0 km/h
2694 18-07-2011 14:49:02 24.5 C 6.04 g/m*3 24.5 C 0 km/h
2695 18-07-2011 15:01:02 23.3 C 6.06 g/m*3 23.3 C 0 km/h
2696 18-07-2011 15:13:02 24.3 C 5.97 g/m*3 24.3 C 0 km/h
2697 18-07-2011 15:25:03 23.7 C 5.99 g/m*3 23.7 C 0 km/h
2698 18-07-2011 15:37:02 24.6 C 6.53 g/m*3 24.6 C 0 km/h
2699 18-07-2011 15:49:03 23.7 C 6.2 g/m*3 23.7 C 0 km/h
2700 18-07-2011 16:01:02 21.2 C 5.93 g/m*3 21.2 C 0 km/h
Sensor: Nr:Datum:Temp:Abs-Feuchte:Windchill:Wind:
Aussen-T/F 2701 18-07-2011 16:13:02 16.1 C 5.62 g/m*3 16.1 C 0 km/h
2702 18-07-2011 16:25:02 14.4 C 8.41 g/m*3 14.4 C 0 km/h
2703 18-07-2011 16:37:02 14.7 C 8.94 g/m*3 14.7 C 0 km/h
2704 18-07-2011 16:49:02 18.1 C 9.12 g/m*3 18.1 C 0 km/h
2705 18-07-2011 17:01:02 22.4 C 8.74 g/m*3 22.4 C 0 km/h
2706 18-07-2011 17:13:02 23.2 C 7.48 g/m*3 23.2 C 0 km/h
2707 18-07-2011 17:25:02 23.7 C 6.84 g/m*3 23.7 C 0 km/h
2708 18-07-2011 17:37:02 24 C 6.74 g/m*3 24 C 0 km/h
2709 18-07-2011 17:49:02 25.2 C 6.75 g/m*3 25.2 C 0 km/h
2710 18-07-2011 18:01:02 21.6 C 7.02 g/m*3 21.6 C 0 km/h
2711 18-07-2011 18:13:02 18.7 C 5.76 g/m*3 18.7 C 0 km/h
2712 18-07-2011 18:25:02 17.7 C 6.04 g/m*3 17.7 C 0 km/h
2713 18-07-2011 18:37:01 17.9 C 6.11 g/m*3 17.9 C 0 km/h
2714 18-07-2011 18:49:02 17.9 C 6.11 g/m*3 17.9 C 0 km/h
2715 18-07-2011 19:01:01 17.6 C 6 g/m*3 17.6 C 0 km/h
2716 18-07-2011 19:13:01 21.2 C 6.12 g/m*3 21.2 C 0 km/h
2717 18-07-2011 19:25:02 20.9 C 5.65 g/m*3 20.9 C 0 km/h
2718 18-07-2011 19:37:02 21.2 C 5.74 g/m*3 21.2 C 0 km/h
2719 18-07-2011 19:49:02 19.7 C 6.11 g/m*3 19.7 C 0 km/h
2720 18-07-2011 20:01:03 18.9 C 6.48 g/m*3 18.9 C 0 km/h
2721 18-07-2011 20:13:03 18.4 C 6.45 g/m*3 18.4 C 0 km/h
2722 18-07-2011 20:25:02 17.5 C 7.01 g/m*3 17.5 C 0 km/h
2723 18-07-2011 20:37:02 16.4 C 7.26 g/m*3 16.4 C 0 km/h
2724 18-07-2011 20:49:01 15.8 C 7.4 g/m*3 15.8 C 0 km/h
2725 18-07-2011 21:01:02 15.4 C 7.62 g/m*3 15.4 C 0 km/h
Sensor: Nr:Datum:Temp:Abs-Feuchte:Windchill:Wind:
Aussen-T/F 2726 18-07-2011 21:13:02 14.9 C 7.65 g/m*3 14.9 C 0 km/h
2727 18-07-2011 21:25:01 15 C 7.57 g/m*3 15 C 0 km/h
2728 18-07-2011 21:37:02 14.6 C 7.63 g/m*3 14.6 C 0 km/h
2729 18-07-2011 21:49:02 14.2 C 7.82 g/m*3 14.2 C 0 km/h
2730 18-07-2011 22:02:03 14 C 7.84 g/m*3 14 C 0 km/h
2731 18-07-2011 22:14:04 13.8 C 7.86 g/m*3 13.8 C 0 km/h
2732 18-07-2011 22:26:04 13.5 C 7.72 g/m*3 13.5 C 0 km/h
2733 18-07-2011 22:38:04 13.5 C 7.84 g/m*3 13.5 C 0 km/h
2734 18-07-2011 22:50:04 13.7 C 8.05 g/m*3 13.7 C 0 km/h
2735 18-07-2011 23:02:04 14 C 7.96 g/m*3 14 C 0 km/h
2736 18-07-2011 23:14:04 14.2 C 7.94 g/m*3 14.2 C 0 km/h
2737 18-07-2011 23:26:04 14.1 C 7.89 g/m*3 14.1 C 0 km/h
2738 18-07-2011 23:38:04 14 C 8.08 g/m*3 14 C 0 km/h
2739 18-07-2011 23:50:04 13.4 C 7.9 g/m*3 13.4 C 0 km/h
2740 19-07-2011 00:02:04 13.1 C 7.99 g/m*3 13.1 C 0 km/h
2741 19-07-2011 00:14:04 12.5 C 8.03 g/m*3 12.5 C 0 km/h
2742 19-07-2011 00:26:04 12.8 C 8.29 g/m*3 12.8 C 0 km/h
2743 19-07-2011 00:38:04 12.8 C 8.06 g/m*3 12.8 C 0 km/h
2744 19-07-2011 00:50:04 12.4 C 7.98 g/m*3 12.4 C 0 km/h
2745 19-07-2011 01:02:04 12.1 C 8.15 g/m*3 12.1 C 0 km/h
2746 19-07-2011 01:14:04 12 C 8.21 g/m*3 12 C 0 km/h
2747 19-07-2011 01:26:04 12.1 C 8.26 g/m*3 12.1 C 0 km/h
2748 19-07-2011 01:38:04 12.1 C 8.26 g/m*3 12.1 C 0 km/h
2749 19-07-2011 01:50:04 11.8 C 8.31 g/m*3 11.8 C 0 km/h
2750 19-07-2011 02:02:04 11.9 C 8.47 g/m*3 11.9 C 0 km/h
Sensor: Nr:Datum:Temp:Abs-Feuchte:Windchill:Wind:
Aussen-T/F 2751 19-07-2011 02:14:05 11.5 C 8.26 g/m*3 11.5 C 0 km/h
2752 19-07-2011 02:26:05 11.7 C 8.47 g/m*3 11.7 C 0 km/h
2753 19-07-2011 02:38:05 11.5 C 8.37 g/m*3 11.5 C 0 km/h
2754 19-07-2011 02:50:05 11.4 C 8.42 g/m*3 11.4 C 0 km/h
2755 19-07-2011 03:02:05 11.8 C 8.63 g/m*3 11.8 C 0 km/h
2756 19-07-2011 03:14:05 11.8 C 8.63 g/m*3 11.8 C 0 km/h
2757 19-07-2011 03:26:05 11.8 C 8.63 g/m*3 11.8 C 0 km/h
2758 19-07-2011 03:38:05 11.2 C 8.31 g/m*3 11.2 C 0 km/h
2759 19-07-2011 03:50:05 11.1 C 8.26 g/m*3 11.1 C 0 km/h
2760 19-07-2011 04:02:05 11.2 C 8.41 g/m*3 11.2 C 0 km/h
2761 19-07-2011 04:14:05 11.6 C 8.73 g/m*3 11.6 C 0 km/h
2762 19-07-2011 04:26:05 11.8 C 8.84 g/m*3 11.8 C 0 km/h
2763 19-07-2011 04:38:05 11.8 C 8.84 g/m*3 11.8 C 0 km/h
2764 19-07-2011 04:50:05 12 C 8.85 g/m*3 12 C 0 km/h
2765 19-07-2011 05:02:05 11.9 C 8.79 g/m*3 11.9 C 0 km/h
2766 19-07-2011 05:14:05 11.9 C 8.68 g/m*3 11.9 C 0 km/h
2767 19-07-2011 05:26:05 12 C 8.74 g/m*3 12 C 0 km/h
2768 19-07-2011 05:38:05 11.8 C 8.74 g/m*3 11.8 C 0 km/h
2769 19-07-2011 05:50:05 11.3 C 8.36 g/m*3 11.3 C 0 km/h
2770 19-07-2011 06:02:05 10.8 C 8.2 g/m*3 10.8 C 0 km/h
2771 19-07-2011 06:14:05 11 C 8.31 g/m*3 11 C 0 km/h
2772 19-07-2011 06:26:06 11 C 8.41 g/m*3 11 C 0 km/h
2773 19-07-2011 06:38:06 10.9 C 8.36 g/m*3 10.9 C 0 km/h
2774 19-07-2011 06:50:06 11.2 C 8.62 g/m*3 11.2 C 0 km/h
2775 19-07-2011 07:02:02 11.2 C 8.62 g/m*3 11.2 C 0 km/h
Sensor: Nr:Datum:Temp:Abs-Feuchte:Windchill:Wind:
Aussen-T/F 2776 19-07-2011 07:14:02 11.9 C 9 g/m*3 11.9 C 0 km/h
2777 19-07-2011 07:26:03 12.8 C 9.52 g/m*3 12.8 C 0 km/h
2778 19-07-2011 07:38:02 13.7 C 9.83 g/m*3 13.7 C 0 km/h
2779 19-07-2011 07:50:02 13.8 C 9.29 g/m*3 13.8 C 0 km/h
2780 19-07-2011 08:02:02 14.1 C 9.1 g/m*3 14.1 C 0 km/h
2781 19-07-2011 08:14:02 14.4 C 9.02 g/m*3 14.4 C 0 km/h
2782 19-07-2011 08:26:03 15.2 C 8.83 g/m*3 15.2 C 0 km/h
2783 19-07-2011 08:38:02 15.7 C 8.7 g/m*3 15.7 C 0 km/h
2784 19-07-2011 08:50:02 16.6 C 8.62 g/m*3 16.6 C 0 km/h
2785 19-07-2011 09:02:02 16.8 C 8.29 g/m*3 16.8 C 0 km/h
2786 19-07-2011 09:14:02 17.4 C 8.45 g/m*3 17.4 C 0 km/h
2787 19-07-2011 09:26:02 17.7 C 8.45 g/m*3 17.7 C 0 km/h
2788 19-07-2011 09:38:02 18.7 C 8.33 g/m*3 18.7 C 0 km/h
2789 19-07-2011 09:50:02 19.2 C 7.91 g/m*3 19.2 C 0 km/h
2790 19-07-2011 10:02:02 18.9 C 7.78 g/m*3 18.9 C 0 km/h
2791 19-07-2011 10:14:02 19.1 C 7.7 g/m*3 19.1 C 0 km/h
2792 19-07-2011 10:26:02 18.8 C 7.57 g/m*3 18.8 C 0 km/h
2793 19-07-2011 10:38:02 19.7 C 7.98 g/m*3 19.7 C 0 km/h
2794 19-07-2011 10:50:02 19.3 C 7.63 g/m*3 19.3 C 0 km/h
2795 19-07-2011 11:02:02 20.8 C 7.42 g/m*3 20.8 C 0 km/h
2796 19-07-2011 11:14:02 21.5 C 7.35 g/m*3 21.5 C 0 km/h
2797 19-07-2011 11:26:02 21.3 C 7.64 g/m*3 21.3 C 0 km/h
2798 19-07-2011 11:38:01 20.2 C 7.34 g/m*3 20.2 C 0 km/h
2799 19-07-2011 11:50:02 21.3 C 7.27 g/m*3 21.3 C 0 km/h
2800 19-07-2011 12:02:01 21.6 C 7.21 g/m*3 21.6 C 0 km/h
Sensor: Nr:Datum:Temp:Abs-Feuchte:Windchill:Wind:
Aussen-T/F 2801 19-07-2011 12:14:01 22.2 C 6.68 g/m*3 22.2 C 0 km/h
2802 19-07-2011 12:26:02 22 C 6.79 g/m*3 22 C 0 km/h
2803 19-07-2011 12:38:02 23.1 C 6.41 g/m*3 23.1 C 0 km/h
2804 19-07-2011 12:50:02 23.3 C 6.48 g/m*3 23.3 C 0 km/h
2805 19-07-2011 13:02:02 23.5 C 6.98 g/m*3 23.5 C 0 km/h
2806 19-07-2011 13:14:02 24.2 C 6.6 g/m*3 24.2 C 0 km/h
2807 19-07-2011 13:26:02 24.4 C 6.9 g/m*3 24.4 C 0 km/h
2808 19-07-2011 13:38:02 24.6 C 6.75 g/m*3 24.6 C 0 km/h
2809 19-07-2011 13:50:02 25.6 C 6.19 g/m*3 25.6 C 0 km/h
2810 19-07-2011 14:02:02 27.2 C 5.72 g/m*3 27.2 C 0 km/h
2811 19-07-2011 14:14:02 26.6 C 6.29 g/m*3 26.6 C 0 km/h
2812 19-07-2011 14:26:02 25.3 C 5.85 g/m*3 25.3 C 0 km/h
2813 19-07-2011 14:38:01 26.9 C 6.4 g/m*3 26.9 C 0 km/h
2814 19-07-2011 14:50:03 25.8 C 6.02 g/m*3 25.8 C 0 km/h
2815 19-07-2011 15:02:02 25.5 C 5.92 g/m*3 25.5 C 0 km/h
2816 19-07-2011 15:14:02 24.5 C 5.6 g/m*3 24.5 C 0 km/h
2817 19-07-2011 15:26:02 25.2 C 6.05 g/m*3 25.2 C 0 km/h
2818 19-07-2011 15:38:03 25.1 C 6.02 g/m*3 25.1 C 0 km/h
2819 19-07-2011 15:50:02 23.9 C 6.27 g/m*3 23.9 C 0 km/h
2820 19-07-2011 16:02:01 23.1 C 7.86 g/m*3 23.1 C 0 km/h
2821 19-07-2011 16:14:01 22.5 C 8.19 g/m*3 22.5 C 0 km/h
2822 19-07-2011 16:26:02 22.1 C 8.59 g/m*3 22.1 C 0 km/h
2823 19-07-2011 16:38:02 21.2 C 7.04 g/m*3 21.2 C 0 km/h
2824 19-07-2011 16:50:02 16.4 C 10.47 g/m*3 16.4 C 0 km/h
2825 19-07-2011 17:02:03 16.2 C 10.89 g/m*3 16.2 C 0 km/h
Sensor: Nr:Datum:Temp:Abs-Feuchte:Windchill:Wind:
Aussen-T/F 2826 19-07-2011 17:14:03 16.2 C 11.17 g/m*3 16.2 C 0 km/h
2827 19-07-2011 17:26:02 16.7 C 11.23 g/m*3 16.7 C 0 km/h
2828 19-07-2011 17:38:02 17 C 11.14 g/m*3 17 C 0 km/h
2829 19-07-2011 17:50:01 16.6 C 11.02 g/m*3 16.6 C 0 km/h
2830 19-07-2011 18:02:02 16.9 C 11.22 g/m*3 16.9 C 0 km/h
2831 19-07-2011 18:14:02 17.1 C 11.35 g/m*3 17.1 C 0 km/h
2832 19-07-2011 18:26:01 17 C 11.29 g/m*3 17 C 0 km/h
2833 19-07-2011 18:38:02 16.7 C 11.37 g/m*3 16.7 C 0 km/h
2834 19-07-2011 18:50:01 16.7 C 11.23 g/m*3 16.7 C 0 km/h
2835 19-07-2011 19:02:02 16.8 C 11.44 g/m*3 16.8 C 0 km/h
2836 19-07-2011 19:14:02 16.6 C 11.3 g/m*3 16.6 C 0 km/h
2837 19-07-2011 19:26:01 16.3 C 10.96 g/m*3 16.3 C 0 km/h
2838 19-07-2011 19:38:02 16.2 C 11.03 g/m*3 16.2 C 0 km/h
2839 19-07-2011 19:50:01 16 C 10.9 g/m*3 16 C 0 km/h
2840 19-07-2011 20:02:02 16.1 C 11.24 g/m*3 16.1 C 0 km/h
2841 19-07-2011 20:14:02 16.2 C 11.45 g/m*3 16.2 C 0 km/h
2842 19-07-2011 20:26:02 16 C 11.31 g/m*3 16 C 0 km/h
2843 19-07-2011 20:38:01 15.7 C 10.97 g/m*3 15.7 C 0 km/h
2844 19-07-2011 20:50:02 15.4 C 10.51 g/m*3 15.4 C 0 km/h
2845 19-07-2011 21:02:01 15.1 C 10.32 g/m*3 15.1 C 0 km/h
2846 19-07-2011 21:14:01 15 C 10.39 g/m*3 15 C 0 km/h
2847 19-07-2011 21:26:02 14.7 C 10.32 g/m*3 14.7 C 0 km/h
2848 19-07-2011 21:38:01 14.6 C 10.14 g/m*3 14.6 C 0 km/h
2849 19-07-2011 21:50:02 14.4 C 10.01 g/m*3 14.4 C 0 km/h
2850 19-07-2011 22:02:03 14.4 C 9.89 g/m*3 14.4 C 0 km/h
Sensor: Nr:Datum:Temp:Abs-Feuchte:Windchill:Wind:
Aussen-T/F 2851 19-07-2011 22:14:03 14.3 C 9.71 g/m*3 14.3 C 0 km/h
2852 19-07-2011 22:27:04 14.3 C 9.83 g/m*3 14.3 C 0 km/h
2853 19-07-2011 22:39:04 14.2 C 9.77 g/m*3 14.2 C 0 km/h
2854 19-07-2011 22:51:04 14.3 C 9.71 g/m*3 14.3 C 0 km/h
2855 19-07-2011 23:03:04 14.2 C 9.65 g/m*3 14.2 C 0 km/h
2856 19-07-2011 23:15:04 14.2 C 9.52 g/m*3 14.2 C 0 km/h
2857 19-07-2011 23:27:04 14.3 C 9.58 g/m*3 14.3 C 0 km/h
2858 19-07-2011 23:39:04 14.4 C 9.39 g/m*3 14.4 C 0 km/h
2859 19-07-2011 23:51:04 14.3 C 9.34 g/m*3 14.3 C 0 km/h
2860 20-07-2011 00:03:04 14.2 C 9.28 g/m*3 14.2 C 0 km/h
2861 20-07-2011 00:15:04 14.3 C 9.58 g/m*3 14.3 C 0 km/h
2862 20-07-2011 00:27:04 14.3 C 9.46 g/m*3 14.3 C 0 km/h
2863 20-07-2011 00:39:05 14.4 C 9.52 g/m*3 14.4 C 0 km/h
2864 20-07-2011 00:51:05 14.4 C 9.39 g/m*3 14.4 C 0 km/h
2865 20-07-2011 01:03:05 14.3 C 9.34 g/m*3 14.3 C 0 km/h
2866 20-07-2011 01:15:05 14.3 C 9.46 g/m*3 14.3 C 0 km/h
2867 20-07-2011 01:27:05 14.3 C 9.34 g/m*3 14.3 C 0 km/h
2868 20-07-2011 01:39:05 14.3 C 9.46 g/m*3 14.3 C 0 km/h
2869 20-07-2011 01:51:05 14.2 C 9.4 g/m*3 14.2 C 0 km/h
2870 20-07-2011 02:03:05 14.3 C 9.21 g/m*3 14.3 C 0 km/h
2871 20-07-2011 02:15:05 14 C 9.17 g/m*3 14 C 0 km/h
2872 20-07-2011 02:27:05 13.8 C 9.41 g/m*3 13.8 C 0 km/h
2873 20-07-2011 02:39:05 13.6 C 9.3 g/m*3 13.6 C 0 km/h
2874 20-07-2011 02:51:05 13.6 C 9.42 g/m*3 13.6 C 0 km/h
2875 20-07-2011 03:03:05 13.5 C 9.47 g/m*3 13.5 C 0 km/h
Sensor: Nr:Datum:Temp:Abs-Feuchte:Windchill:Wind:
Aussen-T/F 2876 20-07-2011 03:15:05 13.2 C 9.19 g/m*3 13.2 C 0 km/h
2877 20-07-2011 03:27:05 13.2 C 9.3 g/m*3 13.2 C 0 km/h
2878 20-07-2011 03:39:05 13.3 C 9.47 g/m*3 13.3 C 0 km/h
2879 20-07-2011 03:51:05 13.4 C 9.53 g/m*3 13.4 C 0 km/h
2880 20-07-2011 04:03:05 13.2 C 9.42 g/m*3 13.2 C 0 km/h
2881 20-07-2011 04:15:05 13.3 C 9.47 g/m*3 13.3 C 0 km/h
2882 20-07-2011 04:27:05 13.4 C 9.65 g/m*3 13.4 C 0 km/h
2883 20-07-2011 04:39:05 13.6 C 9.65 g/m*3 13.6 C 0 km/h
2884 20-07-2011 04:51:06 13.5 C 9.59 g/m*3 13.5 C 0 km/h
2885 20-07-2011 05:03:06 13.3 C 9.47 g/m*3 13.3 C 0 km/h
2886 20-07-2011 05:15:06 13.3 C 9.59 g/m*3 13.3 C 0 km/h
2887 20-07-2011 05:27:06 13.3 C 9.59 g/m*3 13.3 C 0 km/h
2888 20-07-2011 05:39:06 13.2 C 9.42 g/m*3 13.2 C 0 km/h
2889 20-07-2011 05:51:06 13.3 C 9.59 g/m*3 13.3 C 0 km/h
2890 20-07-2011 06:03:06 13.3 C 9.59 g/m*3 13.3 C 0 km/h
2891 20-07-2011 06:15:06 13.4 C 9.65 g/m*3 13.4 C 0 km/h
2892 20-07-2011 06:27:06 13.7 C 9.71 g/m*3 13.7 C 0 km/h
2893 20-07-2011 06:39:06 14.1 C 9.71 g/m*3 14.1 C 0 km/h
2894 20-07-2011 06:51:06 14.3 C 9.71 g/m*3 14.3 C 0 km/h
2895 20-07-2011 07:03:06 14.5 C 9.7 g/m*3 14.5 C 0 km/h
2896 20-07-2011 07:15:03 14.7 C 9.82 g/m*3 14.7 C 0 km/h
2897 20-07-2011 07:27:03 14.8 C 9.88 g/m*3 14.8 C 0 km/h
2898 20-07-2011 07:39:03 14.9 C 9.94 g/m*3 14.9 C 0 km/h
2899 20-07-2011 07:51:02 14.9 C 10.07 g/m*3 14.9 C 0 km/h
2900 20-07-2011 08:03:02 15.1 C 9.93 g/m*3 15.1 C 0 km/h
Sensor: Nr:Datum:Temp:Abs-Feuchte:Windchill:Wind:
Aussen-T/F 2901 20-07-2011 08:15:02 15.2 C 9.86 g/m*3 15.2 C 0 km/h
2902 20-07-2011 08:27:02 15.4 C 9.99 g/m*3 15.4 C 0 km/h
2903 20-07-2011 08:39:02 15.6 C 10.11 g/m*3 15.6 C 0 km/h
2904 20-07-2011 08:51:02 15.6 C 9.97 g/m*3 15.6 C 0 km/h
2905 20-07-2011 09:03:01 15.8 C 9.96 g/m*3 15.8 C 0 km/h
2906 20-07-2011 09:15:02 15.8 C 9.83 g/m*3 15.8 C 0 km/h
2907 20-07-2011 09:27:02 15.9 C 9.89 g/m*3 15.9 C 0 km/h
2908 20-07-2011 09:39:01 16.1 C 9.73 g/m*3 16.1 C 0 km/h
2909 20-07-2011 09:51:01 16.4 C 9.77 g/m*3 16.4 C 0 km/h
2910 20-07-2011 10:03:02 17 C 9.69 g/m*3 17 C 0 km/h
2911 20-07-2011 10:15:02 16.8 C 9.58 g/m*3 16.8 C 0 km/h
2912 20-07-2011 10:27:02 17 C 9.69 g/m*3 17 C 0 km/h
2913 20-07-2011 10:39:02 16.9 C 9.64 g/m*3 16.9 C 0 km/h
2914 20-07-2011 10:51:01 17.1 C 9.75 g/m*3 17.1 C 0 km/h
2915 20-07-2011 11:03:02 17.2 C 9.67 g/m*3 17.2 C 0 km/h
2916 20-07-2011 11:15:02 17.7 C 9.81 g/m*3 17.7 C 0 km/h
2917 20-07-2011 11:27:02 18 C 9.52 g/m*3 18 C 0 km/h
2918 20-07-2011 11:39:01 18.7 C 9.61 g/m*3 18.7 C 0 km/h
2919 20-07-2011 11:51:02 18.8 C 9.34 g/m*3 18.8 C 0 km/h
2920 20-07-2011 12:03:01 19.3 C 8.96 g/m*3 19.3 C 0 km/h
2921 20-07-2011 12:15:02 20.6 C 8.95 g/m*3 20.6 C 0 km/h
2922 20-07-2011 12:27:02 20.7 C 8.82 g/m*3 20.7 C 0 km/h
2923 20-07-2011 12:39:01 21.4 C 8.44 g/m*3 21.4 C 0 km/h
2924 20-07-2011 12:51:02 20.8 C 8.15 g/m*3 20.8 C 0 km/h
2925 20-07-2011 13:03:02 23.2 C 8.73 g/m*3 23.2 C 0 km/h
Sensor: Nr:Datum:Temp:Abs-Feuchte:Windchill:Wind:
Aussen-T/F 2926 20-07-2011 13:15:02 24 C 8.05 g/m*3 24 C 0 km/h
2927 20-07-2011 13:27:02 23.8 C 8.6 g/m*3 23.8 C 0 km/h
2928 20-07-2011 13:39:03 22.8 C 8.53 g/m*3 22.8 C 0 km/h
2929 20-07-2011 13:51:02 21.5 C 8.49 g/m*3 21.5 C 0 km/h
2930 20-07-2011 14:03:02 20.5 C 8.54 g/m*3 20.5 C 0 km/h
2931 20-07-2011 14:15:02 18.2 C 9.33 g/m*3 18.2 C 0 km/h
2932 20-07-2011 14:27:02 16.7 C 10.37 g/m*3 16.7 C 0 km/h
2933 20-07-2011 14:39:02 16.2 C 10.76 g/m*3 16.2 C 0 km/h
2934 20-07-2011 14:51:02 16.2 C 10.89 g/m*3 16.2 C 0 km/h
2935 20-07-2011 15:03:02 16.2 C 11.03 g/m*3 16.2 C 0 km/h
2936 20-07-2011 15:15:02 16.1 C 11.1 g/m*3 16.1 C 0 km/h
2937 20-07-2011 15:27:02 16.3 C 11.38 g/m*3 16.3 C 0 km/h
2938 20-07-2011 15:39:02 16.2 C 11.31 g/m*3 16.2 C 0 km/h
2939 20-07-2011 15:51:02 16.3 C 11.52 g/m*3 16.3 C 0 km/h
2940 20-07-2011 16:03:02 16.8 C 11.87 g/m*3 16.8 C 0 km/h
2941 20-07-2011 16:15:02 17.1 C 11.94 g/m*3 17.1 C 0 km/h
2942 20-07-2011 16:27:02 17.3 C 11.93 g/m*3 17.3 C 0 km/h
2943 20-07-2011 16:39:02 17.7 C 12.07 g/m*3 17.7 C 0 km/h
2944 20-07-2011 16:51:01 18.1 C 12.05 g/m*3 18.1 C 0 km/h
2945 20-07-2011 17:03:01 18.6 C 12.1 g/m*3 18.6 C 0 km/h
2946 20-07-2011 17:15:02 18.5 C 11.71 g/m*3 18.5 C 0 km/h
2947 20-07-2011 17:27:02 18.3 C 11.73 g/m*3 18.3 C 0 km/h
2948 20-07-2011 17:39:01 17.6 C 11.4 g/m*3 17.6 C 0 km/h
2949 20-07-2011 17:51:02 17.4 C 11.56 g/m*3 17.4 C 0 km/h
2950 20-07-2011 18:03:02 17.1 C 11.5 g/m*3 17.1 C 0 km/h
Sensor: Nr:Datum:Temp:Abs-Feuchte:Windchill:Wind:
Aussen-T/F 2951 20-07-2011 18:15:02 16.7 C 11.37 g/m*3 16.7 C 0 km/h
2952 20-07-2011 18:27:02 16.6 C 11.58 g/m*3 16.6 C 0 km/h
2953 20-07-2011 18:39:02 16.2 C 11.45 g/m*3 16.2 C 0 km/h
2954 20-07-2011 18:51:02 16.1 C 11.51 g/m*3 16.1 C 0 km/h
2955 20-07-2011 19:03:02 15.8 C 11.44 g/m*3 15.8 C 0 km/h
2956 20-07-2011 19:15:02 15.8 C 11.58 g/m*3 15.8 C 0 km/h
2957 20-07-2011 19:27:03 15.8 C 11.58 g/m*3 15.8 C 0 km/h
2958 20-07-2011 19:39:02 15.8 C 11.71 g/m*3 15.8 C 0 km/h
2959 20-07-2011 19:51:02 15.9 C 11.78 g/m*3 15.9 C 0 km/h
2960 20-07-2011 20:03:01 16.1 C 11.93 g/m*3 16.1 C 0 km/h
2961 20-07-2011 20:15:02 15.8 C 11.71 g/m*3 15.8 C 0 km/h
2962 20-07-2011 20:27:02 15.6 C 11.57 g/m*3 15.6 C 0 km/h
2963 20-07-2011 20:39:02 15.1 C 11.22 g/m*3 15.1 C 0 km/h
2964 20-07-2011 20:51:02 15 C 11.16 g/m*3 15 C 0 km/h
2965 20-07-2011 21:03:03 14.9 C 11.22 g/m*3 14.9 C 0 km/h
2966 20-07-2011 21:15:02 14.9 C 11.22 g/m*3 14.9 C 0 km/h
2967 20-07-2011 21:27:02 14.8 C 11.27 g/m*3 14.8 C 0 km/h
2968 20-07-2011 21:39:02 14.8 C 11.27 g/m*3 14.8 C 0 km/h
2969 20-07-2011 21:51:01 15 C 11.28 g/m*3 15 C 0 km/h
2970 20-07-2011 22:04:02 14.8 C 11.27 g/m*3 14.8 C 0 km/h
2971 20-07-2011 22:16:03 14.7 C 11.21 g/m*3 14.7 C 0 km/h
2972 20-07-2011 22:28:03 14.7 C 11.21 g/m*3 14.7 C 0 km/h
2973 20-07-2011 22:40:03 14.5 C 11.07 g/m*3 14.5 C 0 km/h
2974 20-07-2011 22:52:03 14.4 C 11 g/m*3 14.4 C 0 km/h
2975 20-07-2011 23:04:03 14.3 C 10.93 g/m*3 14.3 C 0 km/h
Sensor: Nr:Datum:Temp:Abs-Feuchte:Windchill:Wind:
Aussen-T/F 2976 20-07-2011 23:16:03 14.4 C 11 g/m*3 14.4 C 0 km/h
2977 20-07-2011 23:28:03 14.5 C 11.19 g/m*3 14.5 C 0 km/h
2978 20-07-2011 23:40:03 14.4 C 11.13 g/m*3 14.4 C 0 km/h
2979 20-07-2011 23:52:03 14.4 C 11.13 g/m*3 14.4 C 0 km/h
2980 21-07-2011 00:04:03 14.4 C 11.13 g/m*3 14.4 C 0 km/h
2981 21-07-2011 00:16:03 14.2 C 10.99 g/m*3 14.2 C 0 km/h
2982 21-07-2011 00:28:03 14.4 C 11.13 g/m*3 14.4 C 0 km/h
2983 21-07-2011 00:40:03 14.4 C 11.13 g/m*3 14.4 C 0 km/h
2984 21-07-2011 00:52:03 14.4 C 11.13 g/m*3 14.4 C 0 km/h
2985 21-07-2011 01:04:03 14.4 C 11.13 g/m*3 14.4 C 0 km/h
2986 21-07-2011 01:16:03 14.4 C 11.13 g/m*3 14.4 C 0 km/h
2987 21-07-2011 01:28:03 14.4 C 11.13 g/m*3 14.4 C 0 km/h
2988 21-07-2011 01:40:03 14.3 C 11.06 g/m*3 14.3 C 0 km/h
2989 21-07-2011 01:52:03 14.2 C 10.99 g/m*3 14.2 C 0 km/h
2990 21-07-2011 02:04:03 14.2 C 10.99 g/m*3 14.2 C 0 km/h
2991 21-07-2011 02:16:03 14.2 C 10.99 g/m*3 14.2 C 0 km/h
2992 21-07-2011 02:28:04 14.2 C 10.99 g/m*3 14.2 C 0 km/h
2993 21-07-2011 02:40:04 14.1 C 10.92 g/m*3 14.1 C 0 km/h
2994 21-07-2011 02:52:04 14.1 C 10.92 g/m*3 14.1 C 0 km/h
2995 21-07-2011 03:04:04 14 C 10.86 g/m*3 14 C 0 km/h
2996 21-07-2011 03:16:04 13.8 C 10.84 g/m*3 13.8 C 0 km/h
2997 21-07-2011 03:28:04 13.6 C 10.71 g/m*3 13.6 C 0 km/h
2998 21-07-2011 03:40:04 13.6 C 10.71 g/m*3 13.6 C 0 km/h
2999 21-07-2011 03:52:04 13.5 C 10.64 g/m*3 13.5 C 0 km/h
3000 21-07-2011 04:04:04 13.5 C 10.64 g/m*3 13.5 C 0 km/h
Sensor: Nr:Datum:Temp:Abs-Feuchte:Windchill:Wind:
Aussen-T/F 3001 21-07-2011 04:16:04 13.4 C 10.58 g/m*3 13.4 C 0 km/h
3002 21-07-2011 04:28:04 13.5 C 10.64 g/m*3 13.5 C 0 km/h
3003 21-07-2011 04:40:04 13.5 C 10.64 g/m*3 13.5 C 0 km/h
3004 21-07-2011 04:52:04 13.4 C 10.58 g/m*3 13.4 C 0 km/h
3005 21-07-2011 05:04:04 13.2 C 10.45 g/m*3 13.2 C 0 km/h
3006 21-07-2011 05:16:04 13.2 C 10.45 g/m*3 13.2 C 0 km/h
3007 21-07-2011 05:28:04 13.1 C 10.38 g/m*3 13.1 C 0 km/h
3008 21-07-2011 05:40:04 13.1 C 10.38 g/m*3 13.1 C 0 km/h
3009 21-07-2011 05:52:04 13.1 C 10.38 g/m*3 13.1 C 0 km/h
3010 21-07-2011 06:04:04 13.2 C 10.45 g/m*3 13.2 C 0 km/h
3011 21-07-2011 06:16:04 13.3 C 10.51 g/m*3 13.3 C 0 km/h
3012 21-07-2011 06:28:05 13.5 C 10.64 g/m*3 13.5 C 0 km/h
3013 21-07-2011 06:40:05 13.4 C 10.58 g/m*3 13.4 C 0 km/h
3014 21-07-2011 06:52:05 13.6 C 10.71 g/m*3 13.6 C 0 km/h
3015 21-07-2011 07:04:01 13.9 C 10.91 g/m*3 13.9 C 0 km/h
3016 21-07-2011 07:16:02 14.1 C 11.04 g/m*3 14.1 C 0 km/h
3017 21-07-2011 07:28:02 14.1 C 11.04 g/m*3 14.1 C 0 km/h
3018 21-07-2011 07:40:01 14.4 C 11.25 g/m*3 14.4 C 0 km/h
3019 21-07-2011 07:52:02 14.7 C 11.46 g/m*3 14.7 C 0 km/h
3020 21-07-2011 08:04:01 14.9 C 11.6 g/m*3 14.9 C 0 km/h
3021 21-07-2011 08:16:01 15.2 C 11.42 g/m*3 15.2 C 0 km/h
3022 21-07-2011 08:28:01 15.4 C 11.43 g/m*3 15.4 C 0 km/h
3023 21-07-2011 08:40:02 15.9 C 11.24 g/m*3 15.9 C 0 km/h
3024 21-07-2011 08:52:02 16.2 C 10.76 g/m*3 16.2 C 0 km/h
3025 21-07-2011 09:04:02 16.5 C 10.39 g/m*3 16.5 C 0 km/h
Sensor: Nr:Datum:Temp:Abs-Feuchte:Windchill:Wind:
Aussen-T/F 3026 21-07-2011 09:16:02 16.9 C 10.07 g/m*3 16.9 C 0 km/h
3027 21-07-2011 09:28:02 17 C 9.41 g/m*3 17 C 0 km/h
3028 21-07-2011 09:40:02 17.7 C 10.11 g/m*3 17.7 C 0 km/h
3029 21-07-2011 09:52:01 18.4 C 10.07 g/m*3 18.4 C 0 km/h
3030 21-07-2011 10:04:02 18.9 C 9.72 g/m*3 18.9 C 0 km/h
3031 21-07-2011 10:16:02 18.9 C 9.56 g/m*3 18.9 C 0 km/h
3032 21-07-2011 10:28:02 19.1 C 9.18 g/m*3 19.1 C 0 km/h
3033 21-07-2011 10:40:01 19.7 C 9.17 g/m*3 19.7 C 0 km/h
3034 21-07-2011 10:52:02 19.9 C 9.45 g/m*3 19.9 C 0 km/h
3035 21-07-2011 11:04:01 19.3 C 9.29 g/m*3 19.3 C 0 km/h
3036 21-07-2011 11:16:02 20.8 C 9.78 g/m*3 20.8 C 0 km/h
3037 21-07-2011 11:28:03 20.8 C 9.42 g/m*3 20.8 C 0 km/h
3038 21-07-2011 11:40:01 20.1 C 8.52 g/m*3 20.1 C 0 km/h
3039 21-07-2011 11:52:02 19.9 C 8.93 g/m*3 19.9 C 0 km/h
3040 21-07-2011 12:04:02 19.5 C 8.89 g/m*3 19.5 C 0 km/h
3041 21-07-2011 12:16:02 20.4 C 9.73 g/m*3 20.4 C 0 km/h
3042 21-07-2011 12:28:02 20.6 C 9.13 g/m*3 20.6 C 0 km/h
3043 21-07-2011 12:40:03 21.9 C 9.07 g/m*3 21.9 C 0 km/h
3044 21-07-2011 12:52:02 22.3 C 8.1 g/m*3 22.3 C 0 km/h
3045 21-07-2011 13:04:02 22.8 C 8.74 g/m*3 22.8 C 0 km/h
3046 21-07-2011 13:16:01 23.7 C 8.56 g/m*3 23.7 C 0 km/h
3047 21-07-2011 13:28:01 23.8 C 8.17 g/m*3 23.8 C 0 km/h
3048 21-07-2011 13:40:02 24 C 7.83 g/m*3 24 C 0 km/h
3049 21-07-2011 13:52:02 22.2 C 7.85 g/m*3 22.2 C 0 km/h
3050 21-07-2011 14:04:02 22.4 C 7.94 g/m*3 22.4 C 0 km/h
Sensor: Nr:Datum:Temp:Abs-Feuchte:Windchill:Wind:
Aussen-T/F 3051 21-07-2011 14:16:02 21.2 C 8.52 g/m*3 21.2 C 0 km/h
3052 21-07-2011 14:28:02 18.8 C 9.02 g/m*3 18.8 C 0 km/h
3053 21-07-2011 14:40:02 16 C 10.49 g/m*3 16 C 0 km/h
3054 21-07-2011 14:52:02 15.8 C 11.04 g/m*3 15.8 C 0 km/h
3055 21-07-2011 15:04:02 16 C 11.31 g/m*3 16 C 0 km/h
3056 21-07-2011 15:16:02 16.3 C 11.52 g/m*3 16.3 C 0 km/h
3057 21-07-2011 15:28:02 17.3 C 12.23 g/m*3 17.3 C 0 km/h
3058 21-07-2011 15:40:02 18.4 C 12.43 g/m*3 18.4 C 0 km/h
3059 21-07-2011 15:52:02 21.7 C 13.16 g/m*3 21.7 C 0 km/h
3060 21-07-2011 16:04:02 23.3 C 10.45 g/m*3 23.3 C 0 km/h
3061 21-07-2011 16:16:02 22.6 C 11.65 g/m*3 22.6 C 0 km/h
3062 21-07-2011 16:28:02 20.7 C 10.08 g/m*3 20.7 C 0 km/h
3063 21-07-2011 16:40:02 18.7 C 11.21 g/m*3 18.7 C 0 km/h
3064 21-07-2011 16:52:02 17.2 C 10.84 g/m*3 17.2 C 0 km/h
3065 21-07-2011 17:04:02 16.8 C 11.15 g/m*3 16.8 C 0 km/h
3066 21-07-2011 17:16:02 16.8 C 11.44 g/m*3 16.8 C 0 km/h
3067 21-07-2011 17:28:02 17 C 11.43 g/m*3 17 C 0 km/h
3068 21-07-2011 17:40:02 17.5 C 11.63 g/m*3 17.5 C 0 km/h
3069 21-07-2011 17:52:02 17.8 C 11.54 g/m*3 17.8 C 0 km/h
3070 21-07-2011 18:04:01 17.9 C 11.45 g/m*3 17.9 C 0 km/h
3071 21-07-2011 18:16:02 18.1 C 11.28 g/m*3 18.1 C 0 km/h
3072 21-07-2011 18:28:02 18.2 C 11.19 g/m*3 18.2 C 0 km/h
3073 21-07-2011 18:40:01 17.9 C 11.3 g/m*3 17.9 C 0 km/h
3074 21-07-2011 18:52:02 18 C 11.52 g/m*3 18 C 0 km/h
3075 21-07-2011 19:04:01 19.4 C 12.01 g/m*3 19.4 C 0 km/h
Sensor: Nr:Datum:Temp:Abs-Feuchte:Windchill:Wind:
Aussen-T/F 3076 21-07-2011 19:16:01 20.2 C 11.02 g/m*3 20.2 C 0 km/h
3077 21-07-2011 19:28:01 18.8 C 11.27 g/m*3 18.8 C 0 km/h
3078 21-07-2011 19:40:02 19.1 C 11.8 g/m*3 19.1 C 0 km/h
3079 21-07-2011 19:52:02 18.4 C 11.48 g/m*3 18.4 C 0 km/h
3080 21-07-2011 20:04:02 17.8 C 11.69 g/m*3 17.8 C 0 km/h
3081 21-07-2011 20:16:02 17.5 C 11.78 g/m*3 17.5 C 0 km/h
3082 21-07-2011 20:28:03 17.1 C 11.65 g/m*3 17.1 C 0 km/h
3083 21-07-2011 20:40:01 16.4 C 11.31 g/m*3 16.4 C 0 km/h
3084 21-07-2011 20:52:02 15.7 C 11.11 g/m*3 15.7 C 0 km/h
3085 21-07-2011 21:04:01 15.1 C 10.71 g/m*3 15.1 C 0 km/h
3086 21-07-2011 21:16:02 14.7 C 10.58 g/m*3 14.7 C 0 km/h
3087 21-07-2011 21:28:02 14.6 C 10.64 g/m*3 14.6 C 0 km/h
3088 21-07-2011 21:40:02 14.7 C 10.83 g/m*3 14.7 C 0 km/h
3089 21-07-2011 21:52:02 14.7 C 10.83 g/m*3 14.7 C 0 km/h
3090 21-07-2011 22:04:02 14.1 C 10.32 g/m*3 14.1 C 0 km/h
3091 21-07-2011 22:17:04 13.9 C 10.31 g/m*3 13.9 C 0 km/h
3092 21-07-2011 22:29:04 13.8 C 10.37 g/m*3 13.8 C 0 km/h
3093 21-07-2011 22:41:04 13.7 C 10.3 g/m*3 13.7 C 0 km/h
3094 21-07-2011 22:53:04 13.8 C 10.37 g/m*3 13.8 C 0 km/h
3095 21-07-2011 23:05:04 13.8 C 10.37 g/m*3 13.8 C 0 km/h
3096 21-07-2011 23:17:04 13.8 C 10.48 g/m*3 13.8 C 0 km/h
3097 21-07-2011 23:29:04 13.9 C 10.55 g/m*3 13.9 C 0 km/h
3098 21-07-2011 23:41:04 13.7 C 10.42 g/m*3 13.7 C 0 km/h
3099 21-07-2011 23:53:04 13.7 C 10.42 g/m*3 13.7 C 0 km/h
3100 22-07-2011 00:05:04 13.8 C 10.48 g/m*3 13.8 C 0 km/h
Sensor: Nr:Datum:Temp:Abs-Feuchte:Windchill:Wind:
Aussen-T/F 3101 22-07-2011 00:17:04 13.9 C 10.55 g/m*3 13.9 C 0 km/h
3102 22-07-2011 00:29:04 14 C 10.61 g/m*3 14 C 0 km/h
3103 22-07-2011 00:41:05 14.1 C 10.68 g/m*3 14.1 C 0 km/h
3104 22-07-2011 00:53:05 14.3 C 10.81 g/m*3 14.3 C 0 km/h
3105 22-07-2011 01:05:05 14.2 C 10.75 g/m*3 14.2 C 0 km/h
3106 22-07-2011 01:17:05 14.3 C 10.81 g/m*3 14.3 C 0 km/h
3107 22-07-2011 01:29:05 14.4 C 10.88 g/m*3 14.4 C 0 km/h
3108 22-07-2011 01:41:05 14.6 C 11.01 g/m*3 14.6 C 0 km/h
3109 22-07-2011 01:53:05 14.7 C 11.08 g/m*3 14.7 C 0 km/h
3110 22-07-2011 02:05:05 14.7 C 11.08 g/m*3 14.7 C 0 km/h
3111 22-07-2011 02:17:05 14.7 C 11.08 g/m*3 14.7 C 0 km/h
3112 22-07-2011 02:29:05 14.8 C 11.02 g/m*3 14.8 C 0 km/h
3113 22-07-2011 02:41:05 14.8 C 11.02 g/m*3 14.8 C 0 km/h
3114 22-07-2011 02:53:05 14.7 C 10.95 g/m*3 14.7 C 0 km/h
3115 22-07-2011 03:05:05 14.6 C 10.89 g/m*3 14.6 C 0 km/h
3116 22-07-2011 03:17:05 14.7 C 10.95 g/m*3 14.7 C 0 km/h
3117 22-07-2011 03:29:05 14.7 C 10.95 g/m*3 14.7 C 0 km/h
3118 22-07-2011 03:41:05 14.6 C 10.89 g/m*3 14.6 C 0 km/h
3119 22-07-2011 03:53:05 14.6 C 10.76 g/m*3 14.6 C 0 km/h
3120 22-07-2011 04:05:05 14.1 C 10.44 g/m*3 14.1 C 0 km/h
3121 22-07-2011 04:17:05 14 C 10.37 g/m*3 14 C 0 km/h
3122 22-07-2011 04:29:05 14 C 10.49 g/m*3 14 C 0 km/h
3123 22-07-2011 04:41:05 14.2 C 10.62 g/m*3 14.2 C 0 km/h
3124 22-07-2011 04:53:06 14.3 C 10.69 g/m*3 14.3 C 0 km/h
3125 22-07-2011 05:05:06 14.5 C 10.82 g/m*3 14.5 C 0 km/h
Sensor: Nr:Datum:Temp:Abs-Feuchte:Windchill:Wind:
Aussen-T/F 3126 22-07-2011 05:17:06 14.5 C 10.82 g/m*3 14.5 C 0 km/h
3127 22-07-2011 05:29:06 14.5 C 10.82 g/m*3 14.5 C 0 km/h
3128 22-07-2011 05:41:06 14.4 C 10.75 g/m*3 14.4 C 0 km/h
3129 22-07-2011 05:53:06 14 C 10.37 g/m*3 14 C 0 km/h
3130 22-07-2011 06:05:06 14.2 C 10.62 g/m*3 14.2 C 0 km/h
3131 22-07-2011 06:17:06 14.4 C 10.75 g/m*3 14.4 C 0 km/h
3132 22-07-2011 06:29:06 14.5 C 10.82 g/m*3 14.5 C 0 km/h
3133 22-07-2011 06:41:06 14.8 C 10.89 g/m*3 14.8 C 0 km/h
3134 22-07-2011 06:53:06 15.2 C 10.64 g/m*3 15.2 C 0 km/h
3135 22-07-2011 07:05:03 15.1 C 10.45 g/m*3 15.1 C 0 km/h
3136 22-07-2011 07:17:03 15.5 C 10.31 g/m*3 15.5 C 0 km/h
3137 22-07-2011 07:29:03 15.5 C 9.65 g/m*3 15.5 C 0 km/h
3138 22-07-2011 07:41:03 15.4 C 9.33 g/m*3 15.4 C 0 km/h
3139 22-07-2011 07:53:01 15.5 C 9.12 g/m*3 15.5 C 0 km/h
3140 22-07-2011 08:05:02 15.4 C 8.93 g/m*3 15.4 C 0 km/h
3141 22-07-2011 08:17:01 15.4 C 8.93 g/m*3 15.4 C 0 km/h
3142 22-07-2011 08:29:01 15.7 C 8.7 g/m*3 15.7 C 0 km/h
3143 22-07-2011 08:41:01 15.2 C 8.57 g/m*3 15.2 C 0 km/h
3144 22-07-2011 08:53:01 15.1 C 8.13 g/m*3 15.1 C 0 km/h
3145 22-07-2011 09:05:02 15.2 C 7.53 g/m*3 15.2 C 0 km/h
3146 22-07-2011 09:17:01 15.6 C 7.05 g/m*3 15.6 C 0 km/h
3147 22-07-2011 09:29:01 16 C 6.81 g/m*3 16 C 0 km/h
3148 22-07-2011 09:41:01 16.4 C 6.28 g/m*3 16.4 C 0 km/h
3149 22-07-2011 09:53:02 17.6 C 6.15 g/m*3 17.6 C 0 km/h
3150 22-07-2011 10:05:02 18.6 C 6.05 g/m*3 18.6 C 0 km/h
Sensor: Nr:Datum:Temp:Abs-Feuchte:Windchill:Wind:
Aussen-T/F 3151 22-07-2011 10:17:02 18.9 C 6.48 g/m*3 18.9 C 0 km/h
3152 22-07-2011 10:29:02 18.5 C 6.33 g/m*3 18.5 C 0 km/h
3153 22-07-2011 10:41:02 17.4 C 6.52 g/m*3 17.4 C 0 km/h
3154 22-07-2011 10:53:02 18.1 C 6.8 g/m*3 18.1 C 0 km/h
3155 22-07-2011 11:05:02 17.8 C 5.92 g/m*3 17.8 C 0 km/h
3156 22-07-2011 11:17:02 19.5 C 6.38 g/m*3 19.5 C 0 km/h
3157 22-07-2011 11:29:03 19 C 6.52 g/m*3 19 C 0 km/h
3158 22-07-2011 11:41:01 18.9 C 6.64 g/m*3 18.9 C 0 km/h
3159 22-07-2011 11:53:02 18 C 6.76 g/m*3 18 C 0 km/h
3160 22-07-2011 12:05:01 18.5 C 6.65 g/m*3 18.5 C 0 km/h
3161 22-07-2011 12:17:02 19 C 6.84 g/m*3 19 C 0 km/h
3162 22-07-2011 12:29:03 19.6 C 6.75 g/m*3 19.6 C 0 km/h
3163 22-07-2011 12:41:01 19.6 C 6.75 g/m*3 19.6 C 0 km/h
3164 22-07-2011 12:53:01 20.5 C 6.76 g/m*3 20.5 C 0 km/h
3165 22-07-2011 13:05:01 18.5 C 6.8 g/m*3 18.5 C 0 km/h
3166 22-07-2011 13:17:01 19.3 C 6.97 g/m*3 19.3 C 0 km/h
3167 22-07-2011 13:29:01 18.2 C 6.53 g/m*3 18.2 C 0 km/h
3168 22-07-2011 13:41:02 18.1 C 6.95 g/m*3 18.1 C 0 km/h
3169 22-07-2011 13:53:02 18.7 C 7.2 g/m*3 18.7 C 0 km/h
3170 22-07-2011 14:05:02 18.3 C 7.19 g/m*3 18.3 C 0 km/h
3171 22-07-2011 14:17:02 17.5 C 7.16 g/m*3 17.5 C 0 km/h
3172 22-07-2011 14:29:02 17.5 C 7.31 g/m*3 17.5 C 0 km/h
3173 22-07-2011 14:41:02 18.1 C 7.11 g/m*3 18.1 C 0 km/h
3174 22-07-2011 14:53:02 18.5 C 7.28 g/m*3 18.5 C 0 km/h
3175 22-07-2011 15:05:02 17.9 C 7.33 g/m*3 17.9 C 0 km/h
Sensor: Nr:Datum:Temp:Abs-Feuchte:Windchill:Wind:
Aussen-T/F 3176 22-07-2011 15:17:02 17.8 C 6.53 g/m*3 17.8 C 0 km/h
3177 22-07-2011 15:29:02 18.1 C 6.64 g/m*3 18.1 C 0 km/h
3178 22-07-2011 15:41:02 17.4 C 6.82 g/m*3 17.4 C 0 km/h
3179 22-07-2011 15:53:02 19.7 C 7.13 g/m*3 19.7 C 0 km/h
3180 22-07-2011 16:05:02 20.8 C 6.88 g/m*3 20.8 C 0 km/h
3181 22-07-2011 16:17:03 21.1 C 6.26 g/m*3 21.1 C 0 km/h
3182 22-07-2011 16:29:03 20.7 C 6.48 g/m*3 20.7 C 0 km/h
3183 22-07-2011 16:41:03 22.8 C 6.71 g/m*3 22.8 C 0 km/h
3184 22-07-2011 16:53:02 23 C 6.58 g/m*3 23 C 0 km/h
3185 22-07-2011 17:05:03 23.2 C 6.03 g/m*3 23.2 C 0 km/h
3186 22-07-2011 17:17:02 22.1 C 5.66 g/m*3 22.1 C 0 km/h
3187 22-07-2011 17:29:02 22.3 C 6.52 g/m*3 22.3 C 0 km/h
3188 22-07-2011 17:41:03 19.8 C 6.66 g/m*3 19.8 C 0 km/h
3189 22-07-2011 17:53:02 19.6 C 7.09 g/m*3 19.6 C 0 km/h
3190 22-07-2011 18:05:02 19.4 C 6.67 g/m*3 19.4 C 0 km/h
3191 22-07-2011 18:17:01 19.4 C 6.67 g/m*3 19.4 C 0 km/h
3192 22-07-2011 18:29:01 19.4 C 6.67 g/m*3 19.4 C 0 km/h
3193 22-07-2011 18:41:02 19.4 C 6.67 g/m*3 19.4 C 0 km/h
3194 22-07-2011 18:53:02 19.4 C 6.67 g/m*3 19.4 C 0 km/h
3195 22-07-2011 19:05:02 19.4 C 6.67 g/m*3 19.4 C 0 km/h
3196 22-07-2011 19:17:02 19.4 C 6.67 g/m*3 19.4 C 0 km/h
3197 22-07-2011 19:29:02 19.4 C 6.67 g/m*3 19.4 C 0 km/h
3198 22-07-2011 19:41:02 17.9 C 6.72 g/m*3 17.9 C 0 km/h
3199 22-07-2011 19:53:02 17.8 C 6.68 g/m*3 17.8 C 0 km/h
3200 22-07-2011 20:05:02 17.8 C 6.53 g/m*3 17.8 C 0 km/h
Sensor: Nr:Datum:Temp:Abs-Feuchte:Windchill:Wind:
Aussen-T/F 3201 22-07-2011 20:17:02 17.7 C 6.64 g/m*3 17.7 C 0 km/h
3202 22-07-2011 20:29:02 17.3 C 6.48 g/m*3 17.3 C 0 km/h
3203 22-07-2011 20:41:02 16.8 C 6.86 g/m*3 16.8 C 0 km/h
3204 22-07-2011 20:53:02 16.8 C 6.72 g/m*3 16.8 C 0 km/h
3205 22-07-2011 21:05:02 16.4 C 6.98 g/m*3 16.4 C 0 km/h
3206 22-07-2011 21:17:02 16.3 C 6.94 g/m*3 16.3 C 0 km/h
3207 22-07-2011 21:29:02 16.1 C 6.85 g/m*3 16.1 C 0 km/h
3208 22-07-2011 21:41:02 16.1 C 6.72 g/m*3 16.1 C 0 km/h
3209 22-07-2011 21:53:02 16 C 6.27 g/m*3 16 C 0 km/h
3210 22-07-2011 22:06:02 16.1 C 6.31 g/m*3 16.1 C 0 km/h
3211 22-07-2011 22:18:02 16.1 C 6.31 g/m*3 16.1 C 0 km/h
3212 22-07-2011 22:30:02 16.1 C 6.31 g/m*3 16.1 C 0 km/h
3213 22-07-2011 22:42:02 15.7 C 6.56 g/m*3 15.7 C 0 km/h
3214 22-07-2011 22:54:02 15.4 C 6.57 g/m*3 15.4 C 0 km/h
3215 22-07-2011 23:06:02 15.4 C 6.44 g/m*3 15.4 C 0 km/h
3216 22-07-2011 23:18:02 15.3 C 6.4 g/m*3 15.3 C 0 km/h
3217 22-07-2011 23:30:02 15.4 C 6.44 g/m*3 15.4 C 0 km/h
3218 22-07-2011 23:42:02 15.4 C 6.44 g/m*3 15.4 C 0 km/h
3219 22-07-2011 23:54:02 15.1 C 6.58 g/m*3 15.1 C 0 km/h
3220 23-07-2011 00:06:02 15.1 C 6.58 g/m*3 15.1 C 0 km/h
3221 23-07-2011 00:18:02 14.9 C 6.63 g/m*3 14.9 C 0 km/h
3222 23-07-2011 00:30:02 14.5 C 6.59 g/m*3 14.5 C 0 km/h
3223 23-07-2011 00:42:02 14.1 C 6.55 g/m*3 14.1 C 0 km/h
3224 23-07-2011 00:54:02 13 C 6.8 g/m*3 13 C 0 km/h
3225 23-07-2011 01:06:02 13 C 6.8 g/m*3 13 C 0 km/h
Sensor: Nr:Datum:Temp:Abs-Feuchte:Windchill:Wind:
Aussen-T/F 3226 23-07-2011 01:18:02 12.4 C 7.1 g/m*3 12.4 C 0 km/h
3227 23-07-2011 01:30:02 11.8 C 7.05 g/m*3 11.8 C 0 km/h
3228 23-07-2011 01:42:02 11.8 C 7.47 g/m*3 11.8 C 0 km/h
3229 23-07-2011 01:54:02 11.7 C 7.32 g/m*3 11.7 C 0 km/h
3230 23-07-2011 02:06:02 11.4 C 7.19 g/m*3 11.4 C 0 km/h
3231 23-07-2011 02:18:03